Provisional Data: Swatara Creek near Annville, PA


Please select a monitoring station.
Please select start date.
Please select start date.

Toggle Unit: C/F Toggle Unit: C/F
Sample Time Temperature (C) Temperature (F) Specific Conductivity (mS/cm) pH   Turbidity (NTU+) DO (mg/L)
11/1/2022 12:00:00 AM 10.07 50.126 0.248 5.73 218.4 9.89
11/1/2022 12:15:00 AM 10.08 50.144 0.248 5.73 220.9 9.9
11/1/2022 12:30:00 AM 10.1 50.18 0.248 5.73 234 9.88
11/1/2022 12:45:00 AM 10.11 50.198 0.247 5.72 191.3 9.84
11/1/2022 1:00:00 AM 10.12 50.216 0.247 5.75 213.8 9.85
11/1/2022 1:15:00 AM 10.13 50.234 0.247 5.73 192 9.82
11/1/2022 1:30:00 AM 10.14 50.252 0.247 5.72 192.4 9.8
11/1/2022 1:45:00 AM 10.15 50.27 0.247 5.73 186.5 9.78
11/1/2022 2:00:00 AM 10.16 50.288 0.247 5.74 191.7 9.75
11/1/2022 2:15:00 AM 10.16 50.288 0.247 5.76 213.8 9.75
11/1/2022 2:30:00 AM 10.18 50.324 0.247 5.72 198.4 9.69
11/1/2022 2:45:00 AM 10.19 50.342 0.247 5.73 228 9.7
11/1/2022 3:00:00 AM 10.2 50.36 0.247 5.73 200 9.67
11/1/2022 3:15:00 AM 10.21 50.378 0.247 5.71 194.4 9.67
11/1/2022 3:30:00 AM 10.23 50.414 0.246 5.68 181.4 9.65
11/1/2022 3:45:00 AM 10.24 50.432 0.246 5.73 195 9.62
11/1/2022 4:00:00 AM 10.26 50.468 0.246 5.72 188.9 9.58
11/1/2022 4:15:00 AM 10.27 50.486 0.246 5.73 176.6 9.55
11/1/2022 4:30:00 AM 10.28 50.504 0.246 5.73 174.1 9.49
11/1/2022 4:45:00 AM 10.29 50.522 0.246 5.76 175.1 9.47
11/1/2022 5:00:00 AM 10.31 50.558 0.246 5.73 161 9.46
11/1/2022 5:15:00 AM 10.32 50.576 0.246 5.76 171.2 9.42
11/1/2022 5:30:00 AM 10.34 50.612 0.246 5.74 151.9 9.38
11/1/2022 5:45:00 AM 10.35 50.63 0.246 5.73 150.2 9.35
11/1/2022 6:00:00 AM 10.37 50.666 0.246 5.75 147.7 9.29
11/1/2022 6:15:00 AM 10.38 50.684 0.246 5.74 169.8 9.25
11/1/2022 6:30:00 AM 10.4 50.72 0.246 5.74 155.7 9.21
11/1/2022 6:45:00 AM 10.41 50.738 0.246 5.72 139.9 9.17
11/1/2022 7:00:00 AM 10.42 50.756 0.245 5.73 129.7 9.11
11/1/2022 7:15:00 AM 10.43 50.774 0.245 5.75 142.6 9.11
11/1/2022 7:30:00 AM 10.45 50.81 0.245 5.74 157.3 9.11
11/1/2022 7:45:00 AM 10.46 50.828 0.245 5.75 164.1 9.08
11/1/2022 8:00:00 AM 10.47 50.846 0.245 5.75 152.8 9.03
11/1/2022 8:15:00 AM 10.48 50.864 0.245 5.76 156 9.03
11/1/2022 8:30:00 AM 10.5 50.9 0.245 5.74 144.1 9
11/1/2022 8:45:00 AM 10.53 50.954 0.245 5.76 155.8 8.96
11/1/2022 9:00:00 AM 10.55 50.99 0.245 5.78 169 9.07
11/1/2022 9:15:00 AM 10.59 51.062 0.244 5.77 164.3 9.12
11/1/2022 9:30:00 AM 10.62 51.116 0.244 5.75 180.6 9.1
11/1/2022 9:45:00 AM 10.66 51.188 0.244 5.78 175.7 9.18
11/1/2022 10:00:00 AM 10.7 51.26 0.244 5.76 154.3 9.21
11/1/2022 10:15:00 AM 10.75 51.35 0.244 5.79 144.6 9.3
11/1/2022 10:30:00 AM 10.8 51.44 0.244 5.77 171.8 9.26
11/1/2022 10:45:00 AM 10.89 51.602 0.244 5.76 159.9 9.34
11/1/2022 11:00:00 AM 11.02 51.836 0.244 5.76 157.7 9.52
11/1/2022 11:15:00 AM 11.06 51.908 0.244 5.81 154.6 9.54
11/1/2022 11:30:00 AM 11.1 51.98 0.244 5.83 173.3 9.57
11/1/2022 11:45:00 AM 11.21 52.178 0.244 5.85 149.5 9.58
11/1/2022 12:00:00 PM 11.41 52.538 0.244 5.81 153.1 9.54
11/1/2022 12:15:00 PM 11.59 52.862 0.245 5.8 179.9 9.82
11/1/2022 12:30:00 PM 11.62 52.916 0.246 5.91 154.9 9.89
11/1/2022 12:45:00 PM 11.77 53.186 0.246 5.95 140.4 9.99
11/1/2022 1:00:00 PM 11.83 53.294 0.247 5.97 195.8 10.09
11/1/2022 1:15:00 PM 11.86 53.348 0.247 5.98 177 10.18
11/1/2022 1:30:00 PM 12.01 53.618 0.248 6.02 168.5 10.26
11/1/2022 1:45:00 PM 12.11 53.798 0.248 6.03 174.5 10.33
11/1/2022 2:00:00 PM 12.16 53.888 0.249 6.05 185.8 10.35
11/1/2022 2:15:00 PM 12.2 53.96 0.249 6.14 181.2 10.41
11/1/2022 2:30:00 PM 12.24 54.032 0.249 6.16 177.2 10.49
11/1/2022 2:45:00 PM 12.28 54.104 0.25 6.17 112.9 10.47
11/1/2022 3:00:00 PM 12.4 54.32 0.25 6.19 160.1 10.54
11/1/2022 3:15:00 PM 12.46 54.428 0.25 6.2 172.5 10.6
11/1/2022 3:30:00 PM 12.51 54.518 0.25 6.22 157.4 10.63
11/1/2022 3:45:00 PM 12.55 54.59 0.25 6.23 146.9 10.62
11/1/2022 4:00:00 PM 12.56 54.608 0.251 6.28 228.6 10.55
11/1/2022 4:15:00 PM 12.55 54.59 0.251 6.26 149.8 10.52
11/1/2022 4:30:00 PM 12.55 54.59 0.251 6.27 128.7 10.4
11/1/2022 4:45:00 PM 12.57 54.626 0.251 6.28 178.4 10.4
11/1/2022 5:00:00 PM 12.57 54.626 0.251 6.28 156.5 10.4
11/1/2022 5:15:00 PM 12.58 54.644 0.251 6.27 189.1 10.32
11/1/2022 5:30:00 PM 12.56 54.608 0.251 6.27 167.5 10.35
11/1/2022 5:45:00 PM 12.54 54.572 0.251 6.24 153.8 10.26
11/1/2022 6:00:00 PM 12.51 54.518 0.251 6.25 139.2 10.17
11/1/2022 6:15:00 PM 12.48 54.464 0.251 6.24 155.4 10.11
11/1/2022 6:30:00 PM 12.46 54.428 0.251 6.22 153.8 10.03
11/1/2022 6:45:00 PM 12.45 54.41 0.251 6.23 152.6 9.97
11/1/2022 7:00:00 PM 12.42 54.356 0.251 6.18 160.1 9.95
11/1/2022 7:15:00 PM 12.38 54.284 0.251 6.19 169.9 9.9
11/1/2022 7:30:00 PM 12.36 54.248 0.251 6.16 145 9.84
11/1/2022 7:45:00 PM 12.33 54.194 0.251 6.15 143.5 9.77
11/1/2022 8:00:00 PM 12.29 54.122 0.251 6.15 130.3 9.68
11/1/2022 8:15:00 PM 12.28 54.104 0.251 6.11 144.5 9.64
11/1/2022 8:30:00 PM 12.25 54.05 0.251 6.12 137.4 9.59
11/1/2022 8:45:00 PM 12.23 54.014 0.251 6.1 143.8 9.55
11/1/2022 9:00:00 PM 12.21 53.978 0.251 6.1 145.9 9.52
11/1/2022 9:15:00 PM 12.18 53.924 0.251 6.09 139.2 9.52
11/1/2022 9:30:00 PM 12.16 53.888 0.251 6.1 141.1 9.48
11/1/2022 9:45:00 PM 12.14 53.852 0.251 6.07 137.8 9.47
11/1/2022 10:00:00 PM 12.12 53.816 0.251 6.08 136.9 9.42
11/1/2022 10:15:00 PM 12.11 53.798 0.251 6.04 139.4 9.41
11/1/2022 10:30:00 PM 12.09 53.762 0.251 6.06 141.5 9.38
11/1/2022 10:45:00 PM 12.07 53.726 0.251 6.07 142.1 9.38
11/1/2022 11:00:00 PM 12.06 53.708 0.251 6.06 144.6 9.38
11/1/2022 11:15:00 PM 12.05 53.69 0.251 6.06 136.9 9.36
11/1/2022 11:30:00 PM 12.03 53.654 0.25 6.01 138.3 9.37
11/1/2022 11:45:00 PM 12.02 53.636 0.25 6.03 140.1 9.37
11/2/2022 12:00:00 AM 12 53.6 0.25 6.04 138.9 9.37
11/2/2022 12:15:00 AM 11.99 53.582 0.25 6.05 131.5 9.38
11/2/2022 12:30:00 AM 11.98 53.564 0.25 6.04 145.7 9.38
11/2/2022 12:45:00 AM 11.97 53.546 0.25 6.03 135.9 9.35
11/2/2022 1:00:00 AM 11.97 53.546 0.25 6.04 134.1 9.34
11/2/2022 1:15:00 AM 11.95 53.51 0.25 6.04 129.1 9.35
11/2/2022 1:30:00 AM 11.93 53.474 0.25 6.01 118 9.36
11/2/2022 1:45:00 AM 11.92 53.456 0.251 6.05 119.3 9.34
11/2/2022 2:00:00 AM 11.92 53.456 0.251 6.05 124.6 9.32
11/2/2022 2:15:00 AM 11.91 53.438 0.251 6.05 128 9.31
11/2/2022 2:30:00 AM 11.89 53.402 0.252 6.03 122.3 9.31
11/2/2022 2:45:00 AM 11.88 53.384 0.253 6.01 129 9.28
11/2/2022 3:00:00 AM 11.87 53.366 0.253 6.05 121.3 9.26
11/2/2022 3:15:00 AM 11.86 53.348 0.254 6.01 124.9 9.23
11/2/2022 3:30:00 AM 11.85 53.33 0.255 6.04 128.9 9.21
11/2/2022 3:45:00 AM 11.84 53.312 0.256 6.05 127.6 9.19
11/2/2022 4:00:00 AM 11.83 53.294 0.256 6.04 132.7 9.16
11/2/2022 4:15:00 AM 11.81 53.258 0.257 6.05 126.7 9.12
11/2/2022 4:30:00 AM 11.8 53.24 0.258 6.05 127.1 9.08
11/2/2022 4:45:00 AM 11.79 53.222 0.259 6.05 128.9 9.06
11/2/2022 5:00:00 AM 11.77 53.186 0.26 6.02 123 9.04
11/2/2022 5:15:00 AM 11.76 53.168 0.26 6.01 143.6 9.01
11/2/2022 5:30:00 AM 11.75 53.15 0.261 6 142 8.98
11/2/2022 5:45:00 AM 11.73 53.114 0.262 6.03 132.5 8.96
11/2/2022 6:00:00 AM 11.72 53.096 0.263 6.05 122.2 8.93
11/2/2022 6:15:00 AM 11.71 53.078 0.264 6 134.3 8.93
11/2/2022 6:30:00 AM 11.69 53.042 0.264 6.02 134.1 8.91
11/2/2022 6:45:00 AM 11.67 53.006 0.265 6.02 124.7 8.88
11/2/2022 7:00:00 AM 11.65 52.97 0.266 6.02 133.8 8.86
11/2/2022 7:15:00 AM 11.63 52.934 0.266 6 134.4 8.84
11/2/2022 7:30:00 AM 11.61 52.898 0.267 6.01 129.1 8.82
11/2/2022 7:45:00 AM 11.59 52.862 0.268 6.02 139.7 8.81
11/2/2022 8:00:00 AM 11.57 52.826 0.268 6.01 144.8 8.8
11/2/2022 8:15:00 AM 11.56 52.808 0.269 6.03 154.4 8.79
11/2/2022 8:30:00 AM 11.55 52.79 0.269 5.99 149 8.77
11/2/2022 8:45:00 AM 11.54 52.772 0.27 5.97 146.6 8.78
11/2/2022 9:00:00 AM 11.55 52.79 0.27 5.99 153.1 8.8
11/2/2022 9:15:00 AM 11.55 52.79 0.271 6.05 158.3 8.81
11/2/2022 9:30:00 AM 11.57 52.826 0.271 5.96 151.8 8.85
11/2/2022 9:45:00 AM 11.59 52.862 0.272 5.99 157.4 8.88
11/2/2022 10:00:00 AM 11.62 52.916 0.272 6 171.4 8.92
11/2/2022 10:15:00 AM 11.68 53.024 0.273 5.99 157.4 8.96
11/2/2022 10:30:00 AM 11.75 53.15 0.273 6.03 144.9 9.07
11/2/2022 10:45:00 AM 11.84 53.312 0.274 6.01 157.5 9.15
11/2/2022 11:00:00 AM 11.93 53.474 0.274 6.05 165.4 9.21
11/2/2022 11:15:00 AM 12.03 53.654 0.274 6.03 170.4 9.28
11/2/2022 11:30:00 AM 12.14 53.852 0.275 6.06 163.3 9.37
11/2/2022 11:45:00 AM 12.23 54.014 0.275 6.08 128.3 9.42
11/2/2022 12:00:00 PM 12.33 54.194 0.275 6.1 160.8 9.49
11/2/2022 12:15:00 PM 12.44 54.392 0.275 6.1 181.9 9.57
11/2/2022 12:30:00 PM 12.51 54.518 0.276 6.15 148 9.61
11/2/2022 12:45:00 PM 12.63 54.734 0.276 6.15 143.9 9.7
11/2/2022 1:00:00 PM 12.73 54.914 0.276 6.2 138.9 9.78
11/2/2022 1:15:00 PM 12.78 55.004 0.276 6.21 151.6 9.83
11/2/2022 1:30:00 PM 12.87 55.166 0.276 6.24 156.6 9.89
11/2/2022 1:45:00 PM 12.96 55.328 0.276 6.27 154.6 9.97
11/2/2022 2:00:00 PM 13.05 55.49 0.276 6.26 149 10.03
11/2/2022 2:15:00 PM 13.11 55.598 0.276 6.3 151.3 10.11
11/2/2022 2:30:00 PM 13.17 55.706 0.276 6.26 149.3 10.15
11/2/2022 2:45:00 PM 13.25 55.85 0.276 6.29 150.5 10.26
11/2/2022 3:00:00 PM 13.31 55.958 0.276 6.33 142.6 10.28
11/2/2022 3:15:00 PM 13.35 56.03 0.275 6.33 153.6 10.33
11/2/2022 3:30:00 PM 13.39 56.102 0.275 6.37 148.5 10.38
11/2/2022 3:45:00 PM 13.42 56.156 0.275 6.39 141.3 10.4
11/2/2022 4:00:00 PM 13.46 56.228 0.275 6.42 138.2 10.39
11/2/2022 4:15:00 PM 13.49 56.282 0.274 6.42 149.4 10.4
11/2/2022 4:30:00 PM 13.51 56.318 0.274 6.44 144.9 10.4
11/2/2022 4:45:00 PM 13.52 56.336 0.274 6.45 144.5 10.41
11/2/2022 5:00:00 PM 13.51 56.318 0.273 6.48 161.3 10.39
11/2/2022 5:15:00 PM 13.49 56.282 0.273 6.49 149.4 10.33
11/2/2022 5:30:00 PM 13.46 56.228 0.273 6.47 151.6 10.25
11/2/2022 5:45:00 PM 13.41 56.138 0.272 6.45 160.9 10.18
11/2/2022 6:00:00 PM 13.35 56.03 0.272 6.42 165.5 10.11
11/2/2022 6:15:00 PM 13.3 55.94 0.272 6.42 155.1 10.05
11/2/2022 6:30:00 PM 13.24 55.832 0.271 6.4 171.1 9.98
11/2/2022 6:45:00 PM 13.17 55.706 0.271 6.4 173 9.92
11/2/2022 7:00:00 PM 13.11 55.598 0.271 6.36 176.8 9.85
11/2/2022 7:15:00 PM 13.05 55.49 0.27 6.35 175 9.8
11/2/2022 7:30:00 PM 12.99 55.382 0.27 6.32 129.6 9.74
11/2/2022 7:45:00 PM 12.93 55.274 0.269 6.3 178.6 9.68
11/2/2022 8:00:00 PM 12.88 55.184 0.269 6.27 149.7 9.63
11/2/2022 8:15:00 PM 12.83 55.094 0.269 6.28 153.5 9.57
11/2/2022 8:30:00 PM 12.79 55.022 0.268 6.25 169.3 9.5
11/2/2022 8:45:00 PM 12.74 54.932 0.268 6.22 162.7 9.45
11/2/2022 9:00:00 PM 12.7 54.86 0.267 6.2 150.8 9.38
11/2/2022 9:15:00 PM 12.67 54.806 0.267 6.21 143.7 9.3
11/2/2022 9:30:00 PM 12.63 54.734 0.267 6.21 167.6 9.3
11/2/2022 9:45:00 PM 12.6 54.68 0.266 6.18 165.4 9.32
11/2/2022 10:00:00 PM 12.57 54.626 0.266 6.18 156.6 9.27
11/2/2022 10:15:00 PM 12.55 54.59 0.265 6.16 161.2 9.26
11/2/2022 10:30:00 PM 12.51 54.518 0.265 6.15 170.3 9.22
11/2/2022 10:45:00 PM 12.49 54.482 0.265 6.14 179 9.2
11/2/2022 11:00:00 PM 12.46 54.428 0.264 6.13 179.7 9.18
11/2/2022 11:15:00 PM 12.43 54.374 0.264 6.11 169.3 9.14
11/2/2022 11:30:00 PM 12.4 54.32 0.264 6.13 170.4 9.17
11/2/2022 11:45:00 PM 12.37 54.266 0.263 6.15 184.9 9.18
11/3/2022 12:00:00 AM 12.34 54.212 0.263 6.12 177.2 9.17
11/3/2022 12:15:00 AM 12.32 54.176 0.263 6.13 162.4 9.2
11/3/2022 12:30:00 AM 12.28 54.104 0.263 6.14 168.4 9.17
11/3/2022 12:45:00 AM 12.25 54.05 0.262 6.14 161.9 9.13
11/3/2022 1:00:00 AM 12.22 53.996 0.262 6.14 167.9 9.13
11/3/2022 1:15:00 AM 12.17 53.906 0.262 6.13 167.4 9.11
11/3/2022 1:30:00 AM 12.14 53.852 0.262 6.05 166.2 9.05
11/3/2022 1:45:00 AM 12.1 53.78 0.261 6.1 170.6 9.04
11/3/2022 2:00:00 AM 12.07 53.726 0.261 6.06 160.8 9.04
11/3/2022 2:15:00 AM 12.02 53.636 0.261 6.09 166.5 9.02
11/3/2022 2:30:00 AM 11.98 53.564 0.261 6.07 163.2 9.01
11/3/2022 2:45:00 AM 11.94 53.492 0.26 6.06 134.4 9.02
11/3/2022 3:00:00 AM 11.91 53.438 0.26 6.05 114.8 8.97
11/3/2022 3:15:00 AM 11.86 53.348 0.26 6.05 115.7 8.96
11/3/2022 3:30:00 AM 11.81 53.258 0.26 6.06 112.1 8.96
11/3/2022 3:45:00 AM 11.78 53.204 0.26 6.04 114.1 8.97
11/3/2022 4:00:00 AM 11.74 53.132 0.259 6.08 108.7 8.95
11/3/2022 4:15:00 AM 11.7 53.06 0.259 6.02 110.6 8.92
11/3/2022 4:30:00 AM 11.66 52.988 0.259 6.02 110.3 8.92
11/3/2022 4:45:00 AM 11.63 52.934 0.259 6 114.1 8.9
11/3/2022 5:00:00 AM 11.59 52.862 0.259 6.03 124.9 8.88
11/3/2022 5:15:00 AM 11.54 52.772 0.259 5.99 128.2 8.86
11/3/2022 5:30:00 AM 11.5 52.7 0.259 6.02 107.3 8.86
11/3/2022 5:45:00 AM 11.46 52.628 0.259 6.04 114.2 8.83
11/3/2022 6:00:00 AM 11.42 52.556 0.258 6.03 127.3 8.83
11/3/2022 6:15:00 AM 11.37 52.466 0.258 6.04 108.7 8.81
11/3/2022 6:30:00 AM 11.32 52.376 0.258 6.03 118.5 8.8
11/3/2022 6:45:00 AM 11.27 52.286 0.258 6.06 107.7 8.79
11/3/2022 7:00:00 AM 11.24 52.232 0.258 6.01 115.8 8.79
11/3/2022 7:15:00 AM 11.21 52.178 0.258 6.02 128.4 8.76
11/3/2022 7:30:00 AM 11.15 52.07 0.258 6.04 119.8 8.7
11/3/2022 7:45:00 AM 11.11 51.998 0.257 6.04 124.1 8.69
11/3/2022 8:00:00 AM 11.07 51.926 0.257 6.01 137.7 8.7
11/3/2022 8:15:00 AM 11.02 51.836 0.257 6.01 140.7 8.75
11/3/2022 8:30:00 AM 10.99 51.782 0.257 6 135.7 8.8
11/3/2022 8:45:00 AM 10.97 51.746 0.257 5.94 139.3 8.84
11/3/2022 9:00:00 AM 10.96 51.728 0.257 5.94 138 8.86
11/3/2022 9:15:00 AM 10.94 51.692 0.257 5.97 142 8.93
11/3/2022 9:30:00 AM 10.94 51.692 0.256 5.97 147.5 8.99
11/3/2022 9:45:00 AM 10.95 51.71 0.256 5.95 141.9 8.98
11/3/2022 10:00:00 AM 10.97 51.746 0.256 5.94 137.3 9.09
11/3/2022 10:15:00 AM 11.04 51.872 0.256 5.92 132.2 9.14
11/3/2022 10:30:00 AM 11.15 52.07 0.255 5.92 125.8 9.27
11/3/2022 10:45:00 AM 11.26 52.268 0.255 5.92 128.9 9.37
11/3/2022 11:00:00 AM 11.41 52.538 0.255 5.91 132.1 9.53
11/3/2022 11:15:00 AM 11.57 52.826 0.255 5.94 145.1 9.7
11/3/2022 11:30:00 AM 11.68 53.024 0.255 5.94 142.8 9.78
11/3/2022 11:45:00 AM 11.84 53.312 0.254 5.93 136.3 9.83
11/3/2022 12:00:00 PM 11.97 53.546 0.254 5.96 137 9.91
11/3/2022 12:15:00 PM 12.09 53.762 0.254 5.94 143.8 10
11/3/2022 12:30:00 PM 12.23 54.014 0.254 5.96 138.5 10.14
11/3/2022 12:45:00 PM 12.36 54.248 0.254 5.98 141.8 10.3
11/3/2022 1:00:00 PM 12.5 54.5 0.253 6.01 145 10.36
11/3/2022 1:15:00 PM 12.56 54.608 0.253 6.05 147.8 10.42
11/3/2022 1:30:00 PM 12.65 54.77 0.253 6.04 154.3 10.47
11/3/2022 1:45:00 PM 12.67 54.806 0.253 6.01 154 10.57
11/3/2022 2:00:00 PM 12.78 55.004 0.253 6.04 149.4 10.63
11/3/2022 2:15:00 PM 12.85 55.13 0.253 6.07 154.2 10.73
11/3/2022 2:30:00 PM 12.92 55.256 0.253 6.07 152.3 10.77
11/3/2022 2:45:00 PM 12.94 55.292 0.253 6.09 152.1 10.86
11/3/2022 3:00:00 PM 12.99 55.382 0.253 6.17 155.1 10.9
11/3/2022 3:15:00 PM 12.99 55.382 0.252 6.19 143 10.95
11/3/2022 3:30:00 PM 13.02 55.436 0.252 6.24 151.4 10.97
11/3/2022 3:45:00 PM 13.06 55.508 0.252 6.22 155.1 10.98
11/3/2022 4:00:00 PM 13.08 55.544 0.252 6.23 156.5 11.04
11/3/2022 4:15:00 PM 13.1 55.58 0.252 6.28 150.1 11
11/3/2022 4:30:00 PM 13.11 55.598 0.252 6.3 146.1 11
11/3/2022 4:45:00 PM 13.12 55.616 0.252 6.32 144.9 11
11/3/2022 5:00:00 PM 13.12 55.616 0.252 6.33 152.4 10.95
11/3/2022 5:15:00 PM 13.12 55.616 0.252 6.33 162.6 10.91
11/3/2022 5:30:00 PM 13.11 55.598 0.253 6.33 156.2 10.84
11/3/2022 5:45:00 PM 13.09 55.562 0.253 6.34 138.7 10.79
11/3/2022 6:00:00 PM 13.05 55.49 0.253 6.37 138.8 10.69
11/3/2022 6:15:00 PM 13 55.4 0.253 6.4 139.4 10.6
11/3/2022 6:30:00 PM 12.95 55.31 0.253 6.38 145.2 10.51
11/3/2022 6:45:00 PM 12.88 55.184 0.253 6.4 138.7 10.42
11/3/2022 7:00:00 PM 12.81 55.058 0.253 6.39 139.8 10.34
11/3/2022 7:15:00 PM 12.74 54.932 0.254 6.38 133.7 10.24
11/3/2022 7:30:00 PM 12.66 54.788 0.254 6.35 139.7 10.13
11/3/2022 7:45:00 PM 12.59 54.662 0.254 6.32 143.7 10.04
11/3/2022 8:00:00 PM 12.51 54.518 0.254 6.32 151.6 9.93
11/3/2022 8:15:00 PM 12.43 54.374 0.254 6.3 159.9 9.88
11/3/2022 8:30:00 PM 12.36 54.248 0.254 6.3 159.6 9.75
11/3/2022 8:45:00 PM 12.28 54.104 0.254 6.29 145.5 9.7
11/3/2022 9:00:00 PM 12.22 53.996 0.254 6.29 159.8 9.63
11/3/2022 9:15:00 PM 12.16 53.888 0.254 6.27 150.7 9.58
11/3/2022 9:30:00 PM 12.1 53.78 0.254 6.32 143.6 9.53
11/3/2022 9:45:00 PM 12.04 53.672 0.254 6.28 165.5 9.48
11/3/2022 10:00:00 PM 11.98 53.564 0.254 6.26 162.2 9.45
11/3/2022 10:15:00 PM 11.93 53.474 0.254 6.27 166.2 9.39
11/3/2022 10:30:00 PM 11.89 53.402 0.254 6.27 171.8 9.36
11/3/2022 10:45:00 PM 11.86 53.348 0.254 6.29 172.1 9.37
11/3/2022 11:00:00 PM 11.8 53.24 0.254 6.32 169.4 9.33
11/3/2022 11:15:00 PM 11.77 53.186 0.254 6.27 176.5 9.28
11/3/2022 11:30:00 PM 11.73 53.114 0.254 6.27 156.6 9.31
11/3/2022 11:45:00 PM 11.7 53.06 0.254 6.26 180.1 9.28
11/4/2022 12:00:00 AM 11.68 53.024 0.254 6.26 174.9 9.29
11/4/2022 12:15:00 AM 11.65 52.97 0.254 6.27 187.1 9.29
11/4/2022 12:30:00 AM 11.62 52.916 0.255 6.25 186.7 9.32
11/4/2022 12:45:00 AM 11.59 52.862 0.255 6.27 179.6 9.3
11/4/2022 1:00:00 AM 11.56 52.808 0.255 6.26 177.7 9.3
11/4/2022 1:15:00 AM 11.52 52.736 0.255 6.27 178.9 9.27
11/4/2022 1:30:00 AM 11.49 52.682 0.255 6.25 181.1 9.28
11/4/2022 1:45:00 AM 11.46 52.628 0.255 6.27 183.1 9.29
11/4/2022 2:00:00 AM 11.43 52.574 0.255 6.25 180.9 9.27
11/4/2022 2:15:00 AM 11.41 52.538 0.255 6.25 188.3 9.3
11/4/2022 2:30:00 AM 11.36 52.448 0.255 6.25 184.8 9.28
11/4/2022 2:45:00 AM 11.33 52.394 0.255 6.29 184.4 9.27
11/4/2022 3:00:00 AM 11.3 52.34 0.255 6.29 184.4 9.28
11/4/2022 3:15:00 AM 11.26 52.268 0.255 6.29 181.8 9.3
11/4/2022 3:30:00 AM 11.22 52.196 0.255 6.3 189.8 9.26
11/4/2022 3:45:00 AM 11.18 52.124 0.256 6.3 188.2 9.27
11/4/2022 4:00:00 AM 11.13 52.034 0.256 6.29 193.6 9.24
11/4/2022 4:15:00 AM 11.1 51.98 0.256 6.28 197.3 9.25
11/4/2022 4:30:00 AM 11.06 51.908 0.256 6.27 206.5 9.24
11/4/2022 4:45:00 AM 11.02 51.836 0.256 6.3 192.7 9.23
11/4/2022 5:00:00 AM 10.98 51.764 0.256 6.3 199.6 9.2
11/4/2022 5:15:00 AM 10.94 51.692 0.256 6.29 178.1 9.19
11/4/2022 5:30:00 AM 10.9 51.62 0.256 6.3 192.2 9.18
11/4/2022 5:45:00 AM 10.86 51.548 0.256 6.3 187 9.16
11/4/2022 6:00:00 AM 10.82 51.476 0.256 6.28 188.7 9.13
11/4/2022 6:15:00 AM 10.79 51.422 0.256 6.28 182.4 9.15
11/4/2022 6:30:00 AM 10.75 51.35 0.257 6.28 186.5 9.15
11/4/2022 6:45:00 AM 10.71 51.278 0.256 6.27 182.4 9.12
11/4/2022 7:00:00 AM 10.68 51.224 0.257 6.29 182.4 9.11
11/4/2022 7:15:00 AM 10.64 51.152 0.257 6.28 185.9 9.1
11/4/2022 7:30:00 AM 10.61 51.098 0.257 6.26 176.4 9.04
11/4/2022 7:45:00 AM 10.56 51.008 0.257 6.29 176.3 9.05
11/4/2022 8:00:00 AM 10.54 50.972 0.257 6.29 188.2 9.07
11/4/2022 8:15:00 AM 10.54 50.972 0.257 6.28 201.1 9.08
11/4/2022 8:30:00 AM 10.55 50.99 0.257 6.31 185.3 9.11
11/4/2022 8:45:00 AM 10.56 51.008 0.257 6.31 199.6 9.15
11/4/2022 9:00:00 AM 10.56 51.008 0.257 6.3 196.2 9.22
11/4/2022 9:15:00 AM 10.59 51.062 0.257 6.26 182.6 9.26
11/4/2022 9:30:00 AM 10.61 51.098 0.257 6.22 187.2 9.35
11/4/2022 9:45:00 AM 10.65 51.17 0.257 6.18 165.9 9.44
11/4/2022 10:00:00 AM 10.69 51.242 0.257 6.13 212 9.49
11/4/2022 10:15:00 AM 10.73 51.314 0.257 6.08 169.8 9.62
11/4/2022 10:30:00 AM 10.77 51.386 0.257 6.04 195.4 9.71
11/4/2022 10:45:00 AM 10.82 51.476 0.257 5.98 169.6 9.84
11/4/2022 11:00:00 AM 10.9 51.62 0.257 5.97 178.2 9.98
11/4/2022 11:15:00 AM 10.96 51.728 0.257 5.88 199.7 10.13
11/4/2022 11:30:00 AM 11.07 51.926 0.256 5.86 169 10.27
11/4/2022 11:45:00 AM 11.26 52.268 0.256 5.8 172.9 10.4
11/4/2022 12:00:00 PM 11.42 52.556 0.256 5.69 174.6 10.57
11/4/2022 12:15:00 PM 11.6 52.88 0.256 5.72 176.6 10.65
11/4/2022 12:30:00 PM 11.76 53.168 0.256 5.74 172 10.84
11/4/2022 12:45:00 PM 11.95 53.51 0.256 5.74 207.8 11.01
11/4/2022 1:00:00 PM 12.07 53.726 0.256 5.7 207 11.1
11/4/2022 1:15:00 PM 12.21 53.978 0.256 5.76 199 11.23
11/4/2022 1:30:00 PM 12.36 54.248 0.256 5.78 201.1 11.32
11/4/2022 1:45:00 PM 12.48 54.464 0.256 5.82 204 11.44
11/4/2022 2:00:00 PM 12.59 54.662 0.256 5.89 199.5 11.5
11/4/2022 2:15:00 PM 12.66 54.788 0.256 5.89 214.6 11.63
11/4/2022 2:30:00 PM 12.72 54.896 0.256 5.94 224.7 11.7
11/4/2022 2:45:00 PM 12.79 55.022 0.256 5.94 219.3 11.76
11/4/2022 3:00:00 PM 12.82 55.076 0.256 5.98 227.2 11.81
11/4/2022 3:15:00 PM 12.86 55.148 0.256 6.01 195.8 11.81
11/4/2022 3:30:00 PM 12.89 55.202 0.256 6.06 215.6 11.81
11/4/2022 3:45:00 PM 12.91 55.238 0.255 6.07 202.6 11.89
11/4/2022 4:00:00 PM 12.97 55.346 0.255 6.08 219.1 11.87
11/4/2022 4:15:00 PM 12.96 55.328 0.256 6.17 202 11.82
11/4/2022 4:30:00 PM 12.95 55.31 0.256 6.21 218.5 11.76
11/4/2022 4:45:00 PM 12.94 55.292 0.256 6.2 218.9 11.67
11/4/2022 5:00:00 PM 12.95 55.31 0.256 6.24 217.7 11.67
11/4/2022 5:15:00 PM 12.95 55.31 0.256 6.2 214.1 11.61
11/4/2022 5:30:00 PM 12.96 55.328 0.256 6.2 201.7 11.52
11/4/2022 5:45:00 PM 12.95 55.31 0.256 6.25 206.5 11.45
11/4/2022 6:00:00 PM 12.93 55.274 0.256 6.32 208.9 11.37
11/4/2022 6:15:00 PM 12.9 55.22 0.256 6.32 207.4 11.18
11/4/2022 6:30:00 PM 12.87 55.166 0.256 6.36 208 11.06
11/4/2022 6:45:00 PM 12.82 55.076 0.256 6.41 205.6 10.91
11/4/2022 7:00:00 PM 12.77 54.986 0.256 6.39 226.1 10.84
11/4/2022 7:15:00 PM 12.71 54.878 0.257 6.37 214.8 10.74
11/4/2022 7:30:00 PM 12.65 54.77 0.257 6.4 208.7 10.59
11/4/2022 7:45:00 PM 12.57 54.626 0.257 6.38 220.8 10.45
11/4/2022 8:00:00 PM 12.52 54.536 0.257 6.39 219.9 10.35
11/4/2022 8:15:00 PM 12.46 54.428 0.257 6.35 213.3 10.27
11/4/2022 8:30:00 PM 12.4 54.32 0.257 6.36 213.8 10.14
11/4/2022 8:45:00 PM 12.36 54.248 0.257 6.33 213.3 10.01
11/4/2022 9:00:00 PM 12.3 54.14 0.257 6.32 210.8 9.97
11/4/2022 9:15:00 PM 12.25 54.05 0.257 6.35 204 9.89
11/4/2022 9:30:00 PM 12.2 53.96 0.257 6.33 221.3 9.82
11/4/2022 9:45:00 PM 12.17 53.906 0.257 6.35 220.6 9.73
11/4/2022 10:00:00 PM 12.11 53.798 0.258 6.3 233.3 9.67
11/4/2022 10:15:00 PM 12.08 53.744 0.257 6.3 203.2 9.59
11/4/2022 10:30:00 PM 12.03 53.654 0.258 6.3 207.1 9.56
11/4/2022 10:45:00 PM 12 53.6 0.258 6.3 184.3 9.51
11/4/2022 11:00:00 PM 11.97 53.546 0.258 6.31 163.9 9.47
11/4/2022 11:15:00 PM 11.94 53.492 0.258 6.31 190.7 9.44
11/4/2022 11:30:00 PM 11.91 53.438 0.258 6.29 199 9.38
11/4/2022 11:45:00 PM 11.88 53.384 0.258 6.28 203.5 9.36
11/5/2022 12:00:00 AM 11.86 53.348 0.258 6.3 196.7 9.34
11/5/2022 12:15:00 AM 11.83 53.294 0.258 6.31 207.7 9.32
11/5/2022 12:30:00 AM 11.8 53.24 0.258 6.3 196.2 9.31
11/5/2022 12:45:00 AM 11.78 53.204 0.258 6.31 199.4 9.31
11/5/2022 1:00:00 AM 11.78 53.204 0.258 6.35 206.6 9.32
11/5/2022 1:15:00 AM 11.75 53.15 0.258 6.34 203.8 9.32
11/5/2022 1:30:00 AM 11.74 53.132 0.258 6.37 201.5 9.31
11/5/2022 1:45:00 AM 11.72 53.096 0.258 6.39 201.1 9.29
11/5/2022 2:00:00 AM 11.71 53.078 0.258 6.38 195.6 9.3
11/5/2022 2:15:00 AM 11.69 53.042 0.258 6.37 187.4 9.26
11/5/2022 2:30:00 AM 11.69 53.042 0.258 6.39 180.8 9.26
11/5/2022 2:45:00 AM 11.68 53.024 0.258 6.39 188.8 9.3
11/5/2022 3:00:00 AM 11.69 53.042 0.258 6.4 181.9 9.27
11/5/2022 3:15:00 AM 11.69 53.042 0.258 6.36 183.6 9.24
11/5/2022 3:30:00 AM 11.7 53.06 0.258 6.34 177.8 9.27
11/5/2022 3:45:00 AM 11.7 53.06 0.258 6.3 189.6 9.19
11/5/2022 4:00:00 AM 11.7 53.06 0.258 6.26 193.4 9.2
11/5/2022 4:15:00 AM 11.7 53.06 0.258 6.23 180.2 9.21
11/5/2022 4:30:00 AM 11.71 53.078 0.258 6.24 182.2 9.17
11/5/2022 4:45:00 AM 11.72 53.096 0.258 6.19 178 9.14
11/5/2022 5:00:00 AM 11.72 53.096 0.258 6.17 184.3 9.17
11/5/2022 5:15:00 AM 11.73 53.114 0.258 6.15 195.8 9.15
11/5/2022 5:30:00 AM 11.74 53.132 0.258 6.12 202 9.13
11/5/2022 5:45:00 AM 11.74 53.132 0.258 6.11 187.3 9.08
11/5/2022 6:00:00 AM 11.75 53.15 0.258 6.11 189 9.12
11/5/2022 6:15:00 AM 11.75 53.15 0.258 6.02 188.3 9.03
11/5/2022 6:30:00 AM 11.76 53.168 0.258 6.02 179.9 9.05
11/5/2022 6:45:00 AM 11.77 53.186 0.258 6.04 196.2 8.99
11/5/2022 7:00:00 AM 11.77 53.186 0.258 6.04 184.7 8.98
11/5/2022 7:15:00 AM 11.78 53.204 0.258 5.98 201 8.9
11/5/2022 7:30:00 AM 11.78 53.204 0.258 5.99 171.8 8.93
11/5/2022 7:45:00 AM 11.79 53.222 0.258 5.95 209.6 8.89
11/5/2022 8:00:00 AM 11.79 53.222 0.259 5.95 204.4 8.9
11/5/2022 8:15:00 AM 11.81 53.258 0.258 5.96 204.5 8.83
11/5/2022 8:30:00 AM 11.82 53.276 0.259 5.92 213.3 8.83
11/5/2022 8:45:00 AM 11.85 53.33 0.259 5.93 156.4 8.9
11/5/2022 9:00:00 AM 11.88 53.384 0.259 5.95 161.1 9.03
11/5/2022 9:15:00 AM 11.91 53.438 0.259 5.89 192.9 9.12
11/5/2022 9:30:00 AM 11.97 53.546 0.258 5.88 180.5 9.27
11/5/2022 9:45:00 AM 12.03 53.654 0.258 5.81 178.3 9.36
11/5/2022 10:00:00 AM 12.1 53.78 0.258 5.75 165.6 9.41
11/5/2022 10:15:00 AM 12.17 53.906 0.258 5.68 178.9 9.56
11/5/2022 10:30:00 AM 12.25 54.05 0.258 5.61 174.9 9.65
11/5/2022 10:45:00 AM 12.34 54.212 0.258 5.67 174.4 9.86
11/5/2022 11:00:00 AM 12.45 54.41 0.258 5.63 168.5 9.91
11/5/2022 11:15:00 AM 12.48 54.464 0.258 5.62 185.6 10.03
11/5/2022 11:30:00 AM 12.6 54.68 0.258 5.63 173.9 10.14
11/5/2022 11:45:00 AM 12.83 55.094 0.257 5.52 182.8 10.38
11/5/2022 12:00:00 PM 13.03 55.454 0.257 5.55 176.9 10.55
11/5/2022 12:15:00 PM 13.25 55.85 0.257 5.56 178.1 10.57
11/5/2022 12:30:00 PM 13.28 55.904 0.257 5.67 170.5 10.55
11/5/2022 12:45:00 PM 13.38 56.084 0.257 5.7 179 10.82
11/5/2022 1:00:00 PM 13.44 56.192 0.257 5.69 177.3 10.87
11/5/2022 1:15:00 PM 13.5 56.3 0.257 5.81 187.4 10.82
11/5/2022 1:30:00 PM 13.52 56.336 0.257 5.93 181.7 10.97
11/5/2022 1:45:00 PM 13.62 56.516 0.257 5.86 191.8 10.99
11/5/2022 2:00:00 PM 13.7 56.66 0.257 5.85 181.9 11.15
11/5/2022 2:15:00 PM 13.79 56.822 0.257 5.91 188.6 11.31
11/5/2022 2:30:00 PM 13.87 56.966 0.256 5.89 178 11.44
11/5/2022 2:45:00 PM 13.98 57.164 0.256 6.02 182.4 11.53
11/5/2022 3:00:00 PM 14.04 57.272 0.256 6.09 189.6 11.5
11/5/2022 3:15:00 PM 14.1 57.38 0.256 6.15 199 11.67
11/5/2022 3:30:00 PM 14.17 57.506 0.256 6.17 184.7 11.65
11/5/2022 3:45:00 PM 14.24 57.632 0.256 6.2 184.9 11.71
11/5/2022 4:00:00 PM 14.31 57.758 0.256 6.22 182.4 11.7
11/5/2022 4:15:00 PM 14.37 57.866 0.256 6.28 178.6 11.73
11/5/2022 4:30:00 PM 14.43 57.974 0.256 6.29 171.6 11.52
11/5/2022 4:45:00 PM 14.5 58.1 0.256 6.35 172.6 11.62
11/5/2022 5:00:00 PM 14.53 58.154 0.256 6.36 167 11.69
11/5/2022 5:15:00 PM 14.58 58.244 0.256 6.42 160.9 11.63
11/5/2022 5:30:00 PM 14.58 58.244 0.256 6.44 161 11.55
11/5/2022 5:45:00 PM 14.57 58.226 0.256 6.46 163.3 11.38
11/5/2022 6:00:00 PM 14.56 58.208 0.256 6.45 162.8 11.26
11/5/2022 6:15:00 PM 14.55 58.19 0.256 6.64 161.8 11.09
11/5/2022 6:30:00 PM 14.54 58.172 0.256 6.66 163.5 10.83
11/5/2022 6:45:00 PM 14.51 58.118 0.257 6.65 165.3 10.75
11/5/2022 7:00:00 PM 14.5 58.1 0.257 6.67 170.8 10.71
11/5/2022 7:15:00 PM 14.47 58.046 0.257 6.68 175.8 10.67
11/5/2022 7:30:00 PM 14.45 58.01 0.257 6.62 179.3 10.46
11/5/2022 7:45:00 PM 14.42 57.956 0.257 6.62 172 10.3
11/5/2022 8:00:00 PM 14.4 57.92 0.257 6.64 168.6 9.98
11/5/2022 8:15:00 PM 14.39 57.902 0.257 6.59 180.7 9.97
11/5/2022 8:30:00 PM 14.38 57.884 0.257 6.55 187.3 9.71
11/5/2022 8:45:00 PM 14.36 57.848 0.257 6.54 196.8 9.46
11/5/2022 9:00:00 PM 14.35 57.83 0.257 6.56 175.3 9.37
11/5/2022 9:15:00 PM 14.34 57.812 0.257 6.52 189.8 9.13
11/5/2022 9:30:00 PM 14.31 57.758 0.257 6.52 194.5 9.27
11/5/2022 9:45:00 PM 14.29 57.722 0.258 6.49 188.2 8.96
11/5/2022 10:00:00 PM 14.27 57.686 0.257 6.46 188.1 9.07
11/5/2022 10:15:00 PM 14.24 57.632 0.257 6.5 193.4 9.12
11/5/2022 10:30:00 PM 14.23 57.614 0.257 6.45 180.9 8.92
11/5/2022 10:45:00 PM 14.22 57.596 0.257 6.46 182.6 8.84
11/5/2022 11:00:00 PM 14.21 57.578 0.257 6.43 190 8.82
11/5/2022 11:15:00 PM 14.2 57.56 0.257 6.42 187.6 8.61
11/5/2022 11:30:00 PM 14.21 57.578 0.258 6.43 211.2 8.41
11/5/2022 11:45:00 PM 14.23 57.614 0.257 6.42 209.3 8.5
11/6/2022 12:00:00 AM 14.23 57.614 0.257 6.41 208.2 8.5
11/6/2022 12:15:00 AM 14.21 57.578 0.257 6.42 178.6 8.59
11/6/2022 12:30:00 AM 14.19 57.542 0.257 6.4 190.4 8.75
11/6/2022 12:45:00 AM 14.19 57.542 0.257 6.39 196.9 8.72
11/6/2022 1:00:00 AM 14.18 57.524 0.256 6.4 197.5 8.67
11/6/2022 1:15:00 AM 14.16 57.488 0.257 6.4 190.5 8.63
11/6/2022 1:30:00 AM 14.16 57.488 0.255 6.4 198.9 8.61
11/6/2022 1:45:00 AM 14.15 57.47 0.257 6.45 192.3 8.44
11/6/2022 2:00:00 AM 14.14 57.452 0.257 6.41 187.1 8.42
11/6/2022 2:15:00 AM 14.13 57.434 0.257 6.44 181.3 8.57
11/6/2022 2:30:00 AM 14.12 57.416 0.257 6.44 185.1 8.65
11/6/2022 2:45:00 AM 14.12 57.416 0.257 6.41 185.1 8.59
11/6/2022 3:00:00 AM 14.11 57.398 0.257 6.44 173.5 8.5
11/6/2022 3:15:00 AM 14.1 57.38 0.257 6.44 189 8.46
11/6/2022 3:30:00 AM 14.09 57.362 0.257 6.43 191.9 8.29
11/6/2022 3:45:00 AM 14.08 57.344 0.257 6.42 164.2 8.42
11/6/2022 4:00:00 AM 14.07 57.326 0.257 6.39 168.4 8.44
11/6/2022 4:15:00 AM 14.06 57.308 0.257 6.38 160.2 8.47
11/6/2022 4:30:00 AM 14.05 57.29 0.257 6.44 161.1 8.47
11/6/2022 4:45:00 AM 14.04 57.272 0.257 6.48 182.4 8.37
11/6/2022 5:00:00 AM 14.04 57.272 0.257 6.47 182 8.38
11/6/2022 5:15:00 AM 14.04 57.272 0.257 6.45 186.5 8.39
11/6/2022 5:30:00 AM 14.04 57.272 0.257 6.45 167 8.28
11/6/2022 5:45:00 AM 14.05 57.29 0.257 6.45 175.1 8.19
11/6/2022 6:00:00 AM 14.05 57.29 0.258 6.43 166.1 8.22
11/6/2022 6:15:00 AM 14.05 57.29 0.258 6.42 167.4 8.29
11/6/2022 6:30:00 AM 14.05 57.29 0.258 6.43 167.8 8.3
11/6/2022 6:45:00 AM 14.05 57.29 0.258 6.43 166.9 8.26
11/6/2022 7:00:00 AM 14.05 57.29 0.258 6.43 173.3 8.24
11/6/2022 7:15:00 AM 14.05 57.29 0.258 6.43 164.9 8.13
11/6/2022 7:30:00 AM 14.06 57.308 0.258 6.38 167.5 8.06
11/6/2022 7:45:00 AM 14.06 57.308 0.258 6.38 163.3 8.14
11/6/2022 8:00:00 AM 14.06 57.308 0.258 6.41 164.5 8.09
11/6/2022 8:15:00 AM 14.07 57.326 0.259 6.4 166.5 8.11
11/6/2022 8:30:00 AM 14.08 57.344 0.259 6.35 165.5 7.94
11/6/2022 8:45:00 AM 14.09 57.362 0.259 6.35 176.7 7.92
11/6/2022 9:00:00 AM 14.1 57.38 0.259 6.34 176.4 7.93
11/6/2022 9:15:00 AM 14.12 57.416 0.259 6.37 179.5 8.01
11/6/2022 9:30:00 AM 14.13 57.434 0.259 6.33 189.6 7.9
11/6/2022 9:45:00 AM 14.15 57.47 0.259 6.34 188.9 7.9
11/6/2022 10:00:00 AM 14.17 57.506 0.259 6.33 186.5 7.94
11/6/2022 10:15:00 AM 14.2 57.56 0.26 6.31 175 7.89
11/6/2022 10:30:00 AM 14.24 57.632 0.26 6.34 184.6 8.1
11/6/2022 10:45:00 AM 14.26 57.668 0.26 6.32 184.5 8.06
11/6/2022 11:00:00 AM 14.3 57.74 0.26 6.35 182.5 8.11
11/6/2022 11:15:00 AM 14.31 57.758 0.26 6.34 198 8.12
11/6/2022 11:30:00 AM 14.34 57.812 0.26 6.34 184.5 8.14
11/6/2022 11:45:00 AM 14.37 57.866 0.26 6.34 186.7 8.27
11/6/2022 12:00:00 PM 14.38 57.884 0.26 6.36 191.6 7.94
11/6/2022 12:15:00 PM 14.43 57.974 0.26 6.34 185.7 8.15
11/6/2022 12:30:00 PM 14.47 58.046 0.26 6.34 191.5 8.36
11/6/2022 12:45:00 PM 14.51 58.118 0.26 6.33 189.4 8.52
11/6/2022 1:00:00 PM 14.56 58.208 0.26 6.34 193.3 8.63
11/6/2022 1:15:00 PM 14.59 58.262 0.26 6.32 194.3 8.66
11/6/2022 1:30:00 PM 14.63 58.334 0.26 6.34 191.7 8.66
11/6/2022 1:45:00 PM 14.66 58.388 0.26 6.32 188.7 8.81
11/6/2022 2:00:00 PM 14.71 58.478 0.26 6.35 200.4 8.79
11/6/2022 2:15:00 PM 14.73 58.514 0.26 6.35 188.9 8.98
11/6/2022 2:30:00 PM 14.78 58.604 0.26 6.38 198.6 9.04
11/6/2022 2:45:00 PM 14.85 58.73 0.26 6.35 190.6 9.17
11/6/2022 3:00:00 PM 14.88 58.784 0.261 6.34 188.4 9.11
11/6/2022 3:15:00 PM 14.94 58.892 0.261 6.34 191.3 9.22
11/6/2022 3:30:00 PM 14.96 58.928 0.261 6.36 191.2 9.1
11/6/2022 3:45:00 PM 15 59 0.261 6.39 204.1 9.28
11/6/2022 4:00:00 PM 15.03 59.054 0.261 6.41 192.4 9.06
11/6/2022 4:15:00 PM 15.06 59.108 0.261 6.42 193.1 9.06
11/6/2022 4:30:00 PM 15.12 59.216 0.261 6.41 188.7 9.26
11/6/2022 4:45:00 PM 15.17 59.306 0.261 6.44 185.6 9.5
11/6/2022 5:00:00 PM 15.21 59.378 0.261 6.5 186.8 9.34
11/6/2022 5:15:00 PM 15.24 59.432 0.262 6.46 198 9.29
11/6/2022 5:30:00 PM 15.27 59.486 0.262 6.53 197 9.25
11/6/2022 5:45:00 PM 15.28 59.504 0.262 6.54 197.2 9.28
11/6/2022 6:00:00 PM 15.31 59.558 0.262 6.56 197.7 9.13
11/6/2022 6:15:00 PM 15.31 59.558 0.263 6.55 199.9 9.05
11/6/2022 6:30:00 PM 15.31 59.558 0.263 6.56 193.7 9.01
11/6/2022 6:45:00 PM 15.32 59.576 0.263 6.56 189.2 8.89
11/6/2022 7:00:00 PM 15.33 59.594 0.263 6.58 191.6 8.83
11/6/2022 7:15:00 PM 15.32 59.576 0.263 6.61 161.3 8.68
11/6/2022 7:30:00 PM 15.32 59.576 0.264 6.55 175.9 8.67
11/6/2022 7:45:00 PM 15.32 59.576 0.263 6.56 188.6 8.53
11/6/2022 8:00:00 PM 15.32 59.576 0.264 6.4 173.9 8.46
11/6/2022 8:15:00 PM 15.31 59.558 0.264 6.4 165 8.43
11/6/2022 8:30:00 PM 15.31 59.558 0.264 6.42 162.3 8.39
11/6/2022 8:45:00 PM 15.3 59.54 0.264 6.41 165.8 8.31
11/6/2022 9:00:00 PM 15.3 59.54 0.264 6.42 167.7 8.23
11/6/2022 9:15:00 PM 15.29 59.522 0.264 6.4 162.5 8.16
11/6/2022 9:30:00 PM 15.28 59.504 0.264 6.42 165.1 8.11
11/6/2022 9:45:00 PM 15.27 59.486 0.265 6.4 168.4 8.02
11/6/2022 10:00:00 PM 15.25 59.45 0.265 6.39 165.2 7.95
11/6/2022 10:15:00 PM 15.24 59.432 0.265 6.4 170.2 7.87
11/6/2022 10:30:00 PM 15.25 59.45 0.265 6.38 175 7.8
11/6/2022 10:45:00 PM 15.23 59.414 0.265 6.4 178.6 7.75
11/6/2022 11:00:00 PM 15.22 59.396 0.265 6.41 180.1 7.61
11/6/2022 11:15:00 PM 15.22 59.396 0.265 6.37 177.9 7.65
11/6/2022 11:30:00 PM 15.21 59.378 0.265 6.42 170.6 7.64
11/6/2022 11:45:00 PM 15.2 59.36 0.265 6.4 167.1 7.66
11/7/2022 12:00:00 AM 15.19 59.342 0.267 6.41 169.8 7.67
11/7/2022 12:15:00 AM 15.18 59.324 0.265 6.4 177 7.57
11/7/2022 12:30:00 AM 15.17 59.306 0.265 6.39 168.8 7.53
11/7/2022 12:45:00 AM 15.16 59.288 0.265 6.39 175.2 7.54
11/7/2022 1:00:00 AM 15.14 59.252 0.265 6.42 177 7.55
11/7/2022 1:15:00 AM 15.13 59.234 0.265 6.4 170.9 7.56
11/7/2022 1:30:00 AM 15.12 59.216 0.27 6.4 167.6 7.59
11/7/2022 1:45:00 AM 15.11 59.198 0.265 6.4 179.6 7.58
11/7/2022 2:00:00 AM 15.1 59.18 0.265 6.42 174.6 7.4
11/7/2022 2:15:00 AM 15.1 59.18 0.265 6.41 169.6 7.46
11/7/2022 2:30:00 AM 15.1 59.18 0.265 6.42 156.7 7.57
11/7/2022 2:45:00 AM 15.1 59.18 0.265 6.43 167.2 7.5
11/7/2022 3:00:00 AM 15.11 59.198 0.265 6.41 174.7 7.53
11/7/2022 3:15:00 AM 15.1 59.18 0.265 6.41 172.9 7.6
11/7/2022 3:30:00 AM 15.1 59.18 0.265 6.41 163.8 7.48
11/7/2022 3:45:00 AM 15.1 59.18 0.265 6.39 171.8 7.43
11/7/2022 4:00:00 AM 15.1 59.18 0.265 6.38 178.1 7.47
11/7/2022 4:15:00 AM 15.11 59.198 0.266 6.36 180.2 7.5
11/7/2022 4:30:00 AM 15.11 59.198 0.265 6.34 164.3 7.42
11/7/2022 4:45:00 AM 15.11 59.198 0.265 6.34 167 7.48
11/7/2022 5:00:00 AM 15.12 59.216 0.265 6.36 171.8 7.46
11/7/2022 5:15:00 AM 15.12 59.216 0.265 6.35 177 7.41
11/7/2022 5:30:00 AM 15.13 59.234 0.266 6.35 176.2 7.43
11/7/2022 5:45:00 AM 15.13 59.234 0.265 6.33 153.8 7.41
11/7/2022 6:00:00 AM 15.13 59.234 0.266 6.34 163.8 7.48
11/7/2022 6:15:00 AM 15.12 59.216 0.266 6.35 160.7 7.44
11/7/2022 6:30:00 AM 15.12 59.216 0.266 6.33 149.2 7.43
11/7/2022 6:45:00 AM 15.12 59.216 0.266 6.34 119.9 7.39
11/7/2022 7:00:00 AM 15.12 59.216 0.266 6.33 116.3 7.46
11/7/2022 7:15:00 AM 15.12 59.216 0.266 6.33 119.7 7.36
11/7/2022 7:30:00 AM 15.13 59.234 0.266 6.31 119.8 7.34
11/7/2022 7:45:00 AM 15.13 59.234 0.266 6.31 120.7 7.44
11/7/2022 8:00:00 AM 15.12 59.216 0.266 6.31 117.5 7.32
11/7/2022 8:15:00 AM 15.1 59.18 0.266 6.32 177.7 7.35
11/7/2022 8:30:00 AM 15.09 59.162 0.266 6.33 177.8 7.38
11/7/2022 8:45:00 AM 15.07 59.126 0.266 6.36 183.5 7.33
11/7/2022 9:00:00 AM 15.07 59.126 0.266 6.39 196 7.43
11/7/2022 9:15:00 AM 15.06 59.108 0.266 6.35 179.9 7.5
11/7/2022 9:30:00 AM 15.05 59.09 0.266 6.45 180.7 7.58
11/7/2022 9:45:00 AM 15.06 59.108 0.266 6.47 183 7.62
11/7/2022 10:00:00 AM 15.07 59.126 0.266 6.49 141.1 7.72
11/7/2022 10:15:00 AM 15.15 59.27 0.266 6.48 135 7.83
11/7/2022 10:30:00 AM 15.21 59.378 0.266 6.47 162 8.08
11/7/2022 10:45:00 AM 15.3 59.54 0.265 6.46 137.9 8.28
11/7/2022 11:00:00 AM 15.35 59.63 0.266 6.43 136.5 8.44
11/7/2022 11:15:00 AM 15.44 59.792 0.265 6.36 139.2 8.6
11/7/2022 11:30:00 AM 15.56 60.008 0.265 6.32 140.9 8.64
11/7/2022 11:45:00 AM 15.64 60.152 0.265 6.25 140.5 8.78
11/7/2022 12:00:00 PM 16.12 61.016 0.264 6.26 135.3 9.51
11/7/2022 12:15:00 PM 16.15 61.07 0.264 6.3 136.1 9.8
11/7/2022 12:30:00 PM 16.23 61.214 0.264 6.3 140.4 9.92
11/7/2022 12:45:00 PM 16.36 61.448 0.264 6.29 136.6 10.03
11/7/2022 1:00:00 PM 16.4 61.52 0.264 6.36 142.9 10.14
11/7/2022 1:15:00 PM 16.43 61.574 0.263 6.44 141.5 10.27
11/7/2022 1:30:00 PM 16.5 61.7 0.263 6.43 141.1 10.49
11/7/2022 1:45:00 PM 16.5 61.7 0.263 6.52 132 10.69
11/7/2022 2:00:00 PM 16.51 61.718 0.263 6.62 134.3 10.74
11/7/2022 2:15:00 PM 16.51 61.718 0.263 6.62 136.5 10.81
11/7/2022 2:30:00 PM 16.52 61.736 0.263 6.68 127.1 10.85
11/7/2022 2:45:00 PM 16.56 61.808 0.262 6.74 140.5 10.92
11/7/2022 3:00:00 PM 16.59 61.862 0.262 6.78 133.5 10.87
11/7/2022 3:15:00 PM 16.6 61.88 0.262 6.83 135.1 11.02
11/7/2022 3:30:00 PM 16.6 61.88 0.262 6.89 162.7 11.05
11/7/2022 3:45:00 PM 16.62 61.916 0.262 6.94 157.6 11.04
11/7/2022 4:00:00 PM 16.62 61.916 0.262 7 162.3 10.91
11/7/2022 4:15:00 PM 16.61 61.898 0.262 7.03 163.5 10.59
11/7/2022 4:30:00 PM 16.61 61.898 0.262 7.02 156.1 10.67
11/7/2022 4:45:00 PM 16.62 61.916 0.262 7.04 148.1 10.57
11/7/2022 5:00:00 PM 16.58 61.844 0.263 7.1 145.3 10.53
11/7/2022 5:15:00 PM 16.52 61.736 0.262 7.11 148.1 10.46
11/7/2022 5:30:00 PM 16.44 61.592 0.263 7.15 143.9 10.35
11/7/2022 5:45:00 PM 16.38 61.484 0.263 7.15 142.8 10.18
11/7/2022 6:00:00 PM 16.29 61.322 0.263 7.18 144.2 10.08
11/7/2022 6:15:00 PM 16.21 61.178 0.263 7.21 145.8 9.93
11/7/2022 6:30:00 PM 16.14 61.052 0.263 7.18 147.7 9.77
11/7/2022 6:45:00 PM 16.05 60.89 0.263 7.14 144 9.64
11/7/2022 7:00:00 PM 15.97 60.746 0.263 7.12 151.1 9.48
11/7/2022 7:15:00 PM 15.86 60.548 0.263 7.11 142.7 9.33
11/7/2022 7:30:00 PM 15.77 60.386 0.263 7.06 142.3 9.2
11/7/2022 7:45:00 PM 15.68 60.224 0.263 7.06 144.8 9.07
11/7/2022 8:00:00 PM 15.6 60.08 0.263 7.08 143.7 9
11/7/2022 8:15:00 PM 15.51 59.918 0.263 7.15 141.5 8.87
11/7/2022 8:30:00 PM 15.44 59.792 0.263 7.18 146 8.81
11/7/2022 8:45:00 PM 15.37 59.666 0.263 7.36 149.9 8.7
11/7/2022 9:00:00 PM 15.29 59.522 0.263 7.38 142.7 8.65
11/7/2022 9:15:00 PM 15.21 59.378 0.263 7.45 154.8 8.56
11/7/2022 9:30:00 PM 15.14 59.252 0.262 7.4 152 8.47
11/7/2022 9:45:00 PM 15.09 59.162 0.262 7.46 151.9 8.5
11/7/2022 10:00:00 PM 15.02 59.036 0.262 7.58 152.4 8.48
11/7/2022 10:15:00 PM 14.94 58.892 0.262 7.59 135 8.44
11/7/2022 10:30:00 PM 14.88 58.784 0.261 7.58 129.8 8.39
11/7/2022 10:45:00 PM 14.83 58.694 0.262 7.58 133.8 8.37
11/7/2022 11:00:00 PM 14.77 58.586 0.262 7.6 143.4 8.37
11/7/2022 11:15:00 PM 14.72 58.496 0.262 7.62 143.2 8.38
11/7/2022 11:30:00 PM 14.66 58.388 0.262 7.62 137.4 8.33
11/7/2022 11:45:00 PM 14.62 58.316 0.262 7.61 137 8.33
11/8/2022 12:00:00 AM 14.55 58.19 0.261 7.61 139.1 8.38
11/8/2022 12:15:00 AM 14.5 58.1 0.261 7.62 138.8 8.47
11/8/2022 12:30:00 AM 14.46 58.028 0.261 7.63 140.8 8.45
11/8/2022 12:45:00 AM 14.41 57.938 0.261 7.64 140.7 8.42
11/8/2022 1:00:00 AM 14.35 57.83 0.261 7.63 140.3 8.41
11/8/2022 1:15:00 AM 14.3 57.74 0.261 7.63 136.9 8.41
11/8/2022 1:30:00 AM 14.25 57.65 0.26 7.64 155.6 8.37
11/8/2022 1:45:00 AM 14.21 57.578 0.26 7.64 154.3 8.34
11/8/2022 2:00:00 AM 14.15 57.47 0.26 7.66 145.3 8.41
11/8/2022 2:15:00 AM 14.09 57.362 0.259 7.65 139.9 8.35
11/8/2022 2:30:00 AM 14.04 57.272 0.259 7.66 139.2 8.45
11/8/2022 2:45:00 AM 13.96 57.128 0.259 7.66 140.6 8.39
11/8/2022 3:00:00 AM 13.91 57.038 0.259 7.66 138.2 8.36
11/8/2022 3:15:00 AM 13.85 56.93 0.258 7.66 139.9 8.32
11/8/2022 3:30:00 AM 13.78 56.804 0.258 7.66 138.1 8.36
11/8/2022 3:45:00 AM 13.73 56.714 0.258 7.67 138 8.26
11/8/2022 4:00:00 AM 13.66 56.588 0.258 7.67 139.6 8.33
11/8/2022 4:15:00 AM 13.59 56.462 0.258 7.67 134.3 8.32
11/8/2022 4:30:00 AM 13.51 56.318 0.257 7.67 138.5 8.27
11/8/2022 4:45:00 AM 13.49 56.282 0.257 7.67 135.9 8.29
11/8/2022 5:00:00 AM 13.41 56.138 0.257 7.67 130.9 8.22
11/8/2022 5:15:00 AM 13.36 56.048 0.256 7.67 137.3 8.19
11/8/2022 5:30:00 AM 13.3 55.94 0.256 7.68 139 8.25
11/8/2022 5:45:00 AM 13.23 55.814 0.256 7.68 144.4 8.14
11/8/2022 6:00:00 AM 13.19 55.742 0.256 7.68 136.4 8.1
11/8/2022 6:15:00 AM 13.14 55.652 0.255 7.68 136.8 8.12
11/8/2022 6:30:00 AM 13.07 55.526 0.255 7.68 143 7.99
11/8/2022 6:45:00 AM 13 55.4 0.255 7.68 145.8 7.98
11/8/2022 7:00:00 AM 12.95 55.31 0.255 7.68 145.2 7.96
11/8/2022 7:15:00 AM 12.89 55.202 0.253 7.68 143.9 8.02
11/8/2022 7:30:00 AM 12.84 55.112 0.254 7.69 141 8.01
11/8/2022 7:45:00 AM 12.78 55.004 0.254 7.69 148.2 8.08
11/8/2022 8:00:00 AM 12.75 54.95 0.253 7.69 134.6 8.12
11/8/2022 8:15:00 AM 12.72 54.896 0.253 7.7 139.7 8.15
11/8/2022 8:30:00 AM 12.69 54.842 0.253 7.69 171 8.18
11/8/2022 8:45:00 AM 12.68 54.824 0.253 7.7 247.7 8.2
11/8/2022 9:00:00 AM 12.69 54.842 0.253 7.71 168.5 8.49
11/8/2022 9:15:00 AM 12.7 54.86 0.252 7.71 84.31 8.53
11/8/2022 9:30:00 AM 12.75 54.95 0.252 7.74 267.1 8.7
11/8/2022 9:45:00 AM 12.82 55.076 0.252 7.74 61.58 8.99
11/8/2022 10:00:00 AM 12.85 55.13 0.252 7.76 114.1 9.08
11/8/2022 10:15:00 AM 12.96 55.328 0.252 7.77 108.7 9.21
11/8/2022 10:30:00 AM 13 55.4 0.252 7.77 115.4 9.43
11/8/2022 10:45:00 AM 13.1 55.58 0.252 7.51 116.8 9.61
11/8/2022 11:00:00 AM 13.16 55.688 0.252 7.51 121.4 9.82
11/8/2022 11:15:00 AM 13.26 55.868 0.252 7.46 104.9 9.86
11/8/2022 11:30:00 AM 13.34 56.012 0.252 7.45 112.8 10.12
11/8/2022 11:45:00 AM 13.46 56.228 0.252 7.25 124.8 10.37
11/8/2022 12:00:00 PM 13.56 56.408 0.252 7.24 130.2 10.56
11/8/2022 12:15:00 PM 13.64 56.552 0.252 7.03 118 10.62
11/8/2022 12:30:00 PM 13.67 56.606 0.252 7 106.1 10.84
11/8/2022 12:45:00 PM 13.74 56.732 0.252 6.96 102.6 10.91
11/8/2022 1:00:00 PM 13.77 56.786 0.252 6.84 61.36 11.13
11/8/2022 1:15:00 PM 13.85 56.93 0.252 6.72 63.2 11.2
11/8/2022 1:30:00 PM 13.9 57.02 0.252 6.61 64.51 11.35
11/8/2022 1:45:00 PM 13.95 57.11 0.252 6.22 64.77 11.24
11/8/2022 2:00:00 PM 13.9 57.02 0.252 6.26 67.41 11.6
11/8/2022 2:15:00 PM 13.89 57.002 0.252 6.23 63.79 11.48
11/8/2022 2:30:00 PM 13.88 56.984 0.25 6.25 63.62 11.55
11/8/2022 2:45:00 PM 13.9 57.02 0.25 6.23 68.05 11.74
11/8/2022 3:00:00 PM 13.89 57.002 0.25 6.25 67.02 11.74
11/8/2022 3:15:00 PM 13.88 56.984 0.252 6.37 65.66 11.75
11/8/2022 3:30:00 PM 13.89 57.002 0.252 6.46 66.82 11.67
11/8/2022 3:45:00 PM 13.9 57.02 0.252 6.53 66.13 11.85
11/8/2022 4:00:00 PM 13.9 57.02 0.252 6.73 66.25 11.76
11/8/2022 4:15:00 PM 13.89 57.002 0.252 6.98 68.59 11.58
11/8/2022 4:30:00 PM 13.87 56.966 0.252 7.21 65.39 11.48
11/8/2022 4:45:00 PM 13.85 56.93 0.253 7.68 63.25 11.48
11/8/2022 5:00:00 PM 13.81 56.858 0.253 7.94 63.22 11.35
11/8/2022 5:15:00 PM 13.76 56.768 0.253 8.2 57.56 11.42
11/8/2022 5:30:00 PM 13.71 56.678 0.253 8.35 53.43 11.27
11/8/2022 5:45:00 PM 13.63 56.534 0.254 8.35 58.77 11.1
11/8/2022 6:00:00 PM 13.56 56.408 0.254 8.35 59.95 11
11/8/2022 6:15:00 PM 13.51 56.318 0.254 8.31 54.8 10.72
11/8/2022 6:30:00 PM 13.4 56.12 0.254 8.28 55.13 10.76
11/8/2022 6:45:00 PM 13.35 56.03 0.254 8.28 57.36 10.49
11/8/2022 7:00:00 PM 13.19 55.742 0.255 8.27 55.07 10.5
11/8/2022 7:15:00 PM 13.13 55.634 0.255 8.24 54.33 10.39
11/8/2022 7:30:00 PM 13.03 55.454 0.255 8.2 56.22 10.19
11/8/2022 7:45:00 PM 12.95 55.31 0.256 8.19 55.33 10.1
11/8/2022 8:00:00 PM 12.85 55.13 0.256 8.15 57.98 9.92
11/8/2022 8:15:00 PM 12.77 54.986 0.256 8.13 55.12 9.7
11/8/2022 8:30:00 PM 12.67 54.806 0.257 8.09 52.3 9.58
11/8/2022 8:45:00 PM 12.59 54.662 0.257 8.08 50.13 9.55
11/8/2022 9:00:00 PM 12.51 54.518 0.257 8.06 51.24 9.54
11/8/2022 9:15:00 PM 12.4 54.32 0.257 8.04 50.49 9.4
11/8/2022 9:30:00 PM 12.34 54.212 0.257 8.01 50.37 9.24
11/8/2022 9:45:00 PM 12.26 54.068 0.258 7.99 51.36 9.29
11/8/2022 10:00:00 PM 12.19 53.942 0.257 7.98 52.76 9.28
11/8/2022 10:15:00 PM 12.14 53.852 0.257 7.97 51.52 9.07
11/8/2022 10:30:00 PM 12.05 53.69 0.258 7.96 50.44 9.17
11/8/2022 10:45:00 PM 12 53.6 0.257 7.94 52.75 8.96
11/8/2022 11:00:00 PM 11.88 53.384 0.258 7.94 58.09 9.11
11/8/2022 11:15:00 PM 11.84 53.312 0.257 7.93 56.5 9.02
11/8/2022 11:30:00 PM 11.79 53.222 0.257 7.93 55.4 9.15
11/8/2022 11:45:00 PM 11.72 53.096 0.257 7.92 51.46 9.04
11/9/2022 12:00:00 AM 11.64 52.952 0.258 7.92 54.12 9.11
11/9/2022 12:15:00 AM 11.57 52.826 0.258 7.92 56.57 9.03
11/9/2022 12:30:00 AM 11.51 52.718 0.258 7.93 55.22 9.25
11/9/2022 12:45:00 AM 11.44 52.592 0.258 7.92 53.49 9.05
11/9/2022 1:00:00 AM 11.41 52.538 0.258 7.92 53.83 9.24
11/9/2022 1:15:00 AM 11.37 52.466 0.257 7.93 51.84 9.2
11/9/2022 1:30:00 AM 11.28 52.304 0.258 7.93 54.06 9.03
11/9/2022 1:45:00 AM 11.23 52.214 0.258 7.93 52.34 9.15
11/9/2022 2:00:00 AM 11.17 52.106 0.258 7.94 52.8 9.19
11/9/2022 2:15:00 AM 11.09 51.962 0.258 7.95 51.27 9.33
11/9/2022 2:30:00 AM 11.05 51.89 0.258 7.95 52.93 9.35
11/9/2022 2:45:00 AM 10.98 51.764 0.258 7.95 53.38 9.21
11/9/2022 3:00:00 AM 10.92 51.656 0.258 7.96 50.79 9.25
11/9/2022 3:15:00 AM 10.91 51.638 0.258 7.95 48.83 9.29
11/9/2022 3:30:00 AM 10.81 51.458 0.258 7.96 49.07 9.36
11/9/2022 3:45:00 AM 10.73 51.314 0.258 7.97 39.13 9.33
11/9/2022 4:00:00 AM 10.67 51.206 0.258 7.97 45.71 9.35
11/9/2022 4:15:00 AM 10.6 51.08 0.259 7.98 49.23 9.34
11/9/2022 4:30:00 AM 10.54 50.972 0.259 7.98 49.23 9.29
11/9/2022 4:45:00 AM 10.47 50.846 0.259 7.99 45.76 9.35
11/9/2022 5:00:00 AM 10.41 50.738 0.259 7.99 42.88 9.38
11/9/2022 5:15:00 AM 10.35 50.63 0.259 8 42.47 9.3
11/9/2022 5:30:00 AM 10.29 50.522 0.259 8 43.04 9.4
11/9/2022 5:45:00 AM 10.21 50.378 0.259 8 41.72 9.37
11/9/2022 6:00:00 AM 10.16 50.288 0.259 8 40.8 9.36
11/9/2022 6:15:00 AM 10.08 50.144 0.259 8 39.99 9.41
11/9/2022 6:30:00 AM 10.03 50.054 0.259 8 40.53 9.36
11/9/2022 6:45:00 AM 9.96 49.928 0.259 8 45.16 9.25
11/9/2022 7:00:00 AM 9.89 49.802 0.259 8 38.83 9.34
11/9/2022 7:15:00 AM 9.85 49.73 0.259 8 46.99 9.33
11/9/2022 7:30:00 AM 9.82 49.676 0.259 7.99 46.85 9.38
11/9/2022 7:45:00 AM 9.77 49.586 0.259 8 45.77 9.42
11/9/2022 8:00:00 AM 9.73 49.514 0.259 8.02 39.72 9.41
11/9/2022 8:15:00 AM 9.7 49.46 0.259 8.01 39.93 9.56
11/9/2022 8:30:00 AM 9.67 49.406 0.259 8.02 40.15 9.65
11/9/2022 8:45:00 AM 9.67 49.406 0.258 8.01 41.64 9.79
11/9/2022 9:00:00 AM 9.7 49.46 0.258 8.02 40.71 9.82
11/9/2022 9:15:00 AM 9.77 49.586 0.258 8.02 39.63 9.96
11/9/2022 9:30:00 AM 9.82 49.676 0.258 8.05 37.81 10.28
11/9/2022 9:45:00 AM 9.89 49.802 0.258 8.05 73.65 10.31
11/9/2022 10:00:00 AM 9.97 49.946 0.258 8.07 71.03 10.59
11/9/2022 10:15:00 AM 10.05 50.09 0.257 8.08 66.65 10.75
11/9/2022 10:30:00 AM 10.15 50.27 0.257 8.08 65.54 10.86
11/9/2022 10:45:00 AM 10.28 50.504 0.257 8.08 63.77 10.96
11/9/2022 11:00:00 AM 10.36 50.648 0.257 8.09 60.31 11.13
11/9/2022 11:15:00 AM 10.46 50.828 0.257 8.05 60.03 11.24
11/9/2022 11:30:00 AM 10.56 51.008 0.257 7.62 67.64 11.44
11/9/2022 11:45:00 AM 10.63 51.134 0.256 7.74 75.53 11.65
11/9/2022 12:00:00 PM 10.74 51.332 0.256 7.24 75.4 11.76
11/9/2022 12:15:00 PM 10.81 51.458 0.256 6.71 69.2 11.89
11/9/2022 12:30:00 PM 10.89 51.602 0.256 6.44 70.77 12.04
11/9/2022 12:45:00 PM 10.98 51.764 0.255 5.97 63.87 12.18
11/9/2022 1:00:00 PM 11.01 51.818 0.255 5.81 65.45 12.3
11/9/2022 1:15:00 PM 11.02 51.836 0.255 5.77 64.44 12.51
11/9/2022 1:30:00 PM 11.09 51.962 0.255 5.72 72.85 12.6
11/9/2022 1:45:00 PM 11.13 52.034 0.255 5.69 70.62 12.74
11/9/2022 2:00:00 PM 11.12 52.016 0.254 5.67 72.02 12.91
11/9/2022 2:15:00 PM 11.16 52.088 0.254 5.39 68.6 13.03
11/9/2022 2:30:00 PM 11.18 52.124 0.254 5.22 70.13 13.11
11/9/2022 2:45:00 PM 11.22 52.196 0.254 5.23 59.51 13.16
11/9/2022 3:00:00 PM 11.22 52.196 0.253 5.19 60.42 13.19
11/9/2022 3:15:00 PM 11.24 52.232 0.253 5.28 62.2 13.18
11/9/2022 3:30:00 PM 11.28 52.304 0.253 5.15 54.99 13.29
11/9/2022 3:45:00 PM 11.33 52.394 0.253 4.97 55.52 13.32
11/9/2022 4:00:00 PM 11.33 52.394 0.253 4.46 58.06 13.38
11/9/2022 4:15:00 PM 11.35 52.43 0.253 4.51 59.51 13.27
11/9/2022 4:30:00 PM 11.36 52.448 0.253 4.63 60.06 13.23
11/9/2022 4:45:00 PM 11.35 52.43 0.253 4.79 57.78 13.1
11/9/2022 5:00:00 PM 11.33 52.394 0.253 5.87 39.14 13
11/9/2022 5:15:00 PM 11.3 52.34 0.253 6.85 37.05 12.9
11/9/2022 5:30:00 PM 11.24 52.232 0.253 7.45 42.03 12.82
11/9/2022 5:45:00 PM 11.2 52.16 0.254 7.76 40.81 12.73
11/9/2022 6:00:00 PM 11.14 52.052 0.254 8.05 39.66 12.62
11/9/2022 6:15:00 PM 11.06 51.908 0.254 8.15 41.29 12.48
11/9/2022 6:30:00 PM 10.98 51.764 0.254 8.2 41.3 12.36
11/9/2022 6:45:00 PM 10.9 51.62 0.254 8.25 41.56 12.19
11/9/2022 7:00:00 PM 10.82 51.476 0.255 8.26 41.8 12.06
11/9/2022 7:15:00 PM 10.72 51.296 0.255 8.27 41.78 11.93
11/9/2022 7:30:00 PM 10.64 51.152 0.255 8.33 41.28 11.8
11/9/2022 7:45:00 PM 10.55 50.99 0.255 8.45 41.84 11.68
11/9/2022 8:00:00 PM 10.45 50.81 0.255 8.44 42.08 11.54
11/9/2022 8:15:00 PM 10.37 50.666 0.255 8.4 42.28 11.4
11/9/2022 8:30:00 PM 10.3 50.54 0.256 8.38 42.27 11.3
11/9/2022 8:45:00 PM 10.22 50.396 0.256 8.35 42.81 11.15
11/9/2022 9:00:00 PM 10.14 50.252 0.256 8.32 41.96 11.07
11/9/2022 9:15:00 PM 10.06 50.108 0.256 8.29 43.57 10.96
11/9/2022 9:30:00 PM 9.99 49.982 0.256 8.27 42.91 10.87
11/9/2022 9:45:00 PM 9.92 49.856 0.256 8.25 41.7 10.73
11/9/2022 10:00:00 PM 9.85 49.73 0.257 8.23 41.9 10.67
11/9/2022 10:15:00 PM 9.78 49.604 0.257 8.21 41.55 10.61
11/9/2022 10:30:00 PM 9.71 49.478 0.257 8.18 42.63 10.56
11/9/2022 10:45:00 PM 9.66 49.388 0.257 8.15 41.26 10.49
11/9/2022 11:00:00 PM 9.59 49.262 0.257 8.14 41.31 10.48
11/9/2022 11:15:00 PM 9.54 49.172 0.257 8.12 41.66 10.44
11/9/2022 11:30:00 PM 9.48 49.064 0.257 8.11 46.09 10.42
11/9/2022 11:45:00 PM 9.43 48.974 0.257 8.11 41.96 10.42
11/10/2022 12:00:00 AM 9.38 48.884 0.257 8.09 42.55 10.42
11/10/2022 12:15:00 AM 9.32 48.776 0.257 8.08 44.94 10.4
11/10/2022 12:30:00 AM 9.29 48.722 0.257 8.08 43.66 10.36
11/10/2022 12:45:00 AM 9.23 48.614 0.257 8.07 43.69 10.39
11/10/2022 1:00:00 AM 9.19 48.542 0.257 8.07 51.03 10.35
11/10/2022 1:15:00 AM 9.16 48.488 0.257 8.07 41.3 10.37
11/10/2022 1:30:00 AM 9.11 48.398 0.257 8.06 41.55 10.36
11/10/2022 1:45:00 AM 9.07 48.326 0.257 8.06 41.53 10.36
11/10/2022 2:00:00 AM 9.03 48.254 0.257 8.06 41.93 10.37
11/10/2022 2:15:00 AM 8.98 48.164 0.257 8.06 44.01 10.36
11/10/2022 2:30:00 AM 8.94 48.092 0.257 8.06 43.37 10.34
11/10/2022 2:45:00 AM 8.9 48.02 0.257 8.06 43.76 10.37
11/10/2022 3:00:00 AM 8.87 47.966 0.257 8.06 44.2 10.38
11/10/2022 3:15:00 AM 8.83 47.894 0.257 8.06 42.92 10.39
11/10/2022 3:30:00 AM 8.78 47.804 0.257 8.06 41.93 10.41
11/10/2022 3:45:00 AM 8.75 47.75 0.257 8.06 41.7 10.39
11/10/2022 4:00:00 AM 8.72 47.696 0.257 8.07 41.75 10.4
11/10/2022 4:15:00 AM 8.68 47.624 0.257 8.07 42.24 10.4
11/10/2022 4:30:00 AM 8.63 47.534 0.258 8.07 45.08 10.41
11/10/2022 4:45:00 AM 8.59 47.462 0.257 8.07 44.31 10.4
11/10/2022 5:00:00 AM 8.54 47.372 0.258 8.07 44.9 10.41
11/10/2022 5:15:00 AM 8.5 47.3 0.257 8.07 44.69 10.39
11/10/2022 5:30:00 AM 8.45 47.21 0.257 8.07 44.77 10.39
11/10/2022 5:45:00 AM 8.41 47.138 0.258 8.07 44.64 10.37
11/10/2022 6:00:00 AM 8.35 47.03 0.258 8.08 42.32 10.37
11/10/2022 6:15:00 AM 8.31 46.958 0.258 8.07 43.04 10.37
11/10/2022 6:30:00 AM 8.27 46.886 0.257 8.07 43.86 10.38
11/10/2022 6:45:00 AM 8.23 46.814 0.258 8.07 47.92 10.24
11/10/2022 7:00:00 AM 8.2 46.76 0.258 8.06 47.85 10.26
11/10/2022 7:15:00 AM 8.15 46.67 0.258 8.09 35 10.3
11/10/2022 7:30:00 AM 8.11 46.598 0.258 8.07 17.02 10.35
11/10/2022 7:45:00 AM 8.1 46.58 0.258 8.06 31.05 10.45
11/10/2022 8:00:00 AM 8.08 46.544 0.258 8.07 17.61 10.54
11/10/2022 8:15:00 AM 8.07 46.526 0.258 8.07 18.56 10.53
11/10/2022 8:30:00 AM 8.06 46.508 0.258 8.08 36.31 10.68
11/10/2022 8:45:00 AM 8.08 46.544 0.258 8.05 29.78 10.75
11/10/2022 9:00:00 AM 8.14 46.652 0.258 8.07 27.99 10.89
11/10/2022 9:15:00 AM 8.21 46.778 0.259 8.06 29.28 11.15
11/10/2022 9:30:00 AM 8.32 46.976 0.258 8 30.06 11.3
11/10/2022 9:45:00 AM 8.4 47.12 0.258 7.77 39.12 11.43
11/10/2022 10:00:00 AM 8.51 47.318 0.258 7.46 34.91 11.57
11/10/2022 10:15:00 AM 8.65 47.57 0.258 6.91 28.37 11.75
11/10/2022 10:30:00 AM 8.74 47.732 0.258 5.74 28.62 11.87
11/10/2022 10:45:00 AM 8.92 48.056 0.258 5.72 29.55 11.97
11/10/2022 11:00:00 AM 9.01 48.218 0.258 5.39 29.58 12.11
11/10/2022 11:15:00 AM 9.17 48.506 0.258 5.09 28.86 12.36
11/10/2022 11:30:00 AM 9.26 48.668 0.258 5.02 31.12 12.49
11/10/2022 11:45:00 AM 9.43 48.974 0.258 5 31.76 12.56
11/10/2022 12:00:00 PM 9.52 49.136 0.258 5.16 33.26 12.75
11/10/2022 12:15:00 PM 9.65 49.37 0.258 5.39 32.58 12.87
11/10/2022 12:30:00 PM 9.78 49.604 0.258 5.55 33.57 12.92
11/10/2022 12:45:00 PM 9.83 49.694 0.258 5.74 31.54 13.07
11/10/2022 1:00:00 PM 10.01 50.018 0.258 6.11 30.97 13.25
11/10/2022 1:15:00 PM 10.05 50.09 0.258 6.45 32.54 13.33
11/10/2022 1:30:00 PM 10.13 50.234 0.258 6.86 16.87 13.41
11/10/2022 1:45:00 PM 10.22 50.396 0.258 7.02 27.07 13.47
11/10/2022 2:00:00 PM 10.23 50.414 0.258 7.2 23.71 13.78
11/10/2022 2:15:00 PM 10.28 50.504 0.258 7.15 13.42 13.89
11/10/2022 2:30:00 PM 10.32 50.576 0.258 6.97 14.36 13.96
11/10/2022 2:45:00 PM 10.36 50.648 0.258 6.94 14.08 14.01
11/10/2022 3:00:00 PM 10.4 50.72 0.258 6.92 25.36 14.05
11/10/2022 3:15:00 PM 10.44 50.792 0.258 6.68 22.21 14.09
11/10/2022 3:30:00 PM 10.48 50.864 0.259 6.36 23.76 14.1
11/10/2022 3:45:00 PM 10.53 50.954 0.258 6.12 25.06 14.07
11/10/2022 4:00:00 PM 10.57 51.026 0.258 5.96 25.5 14.08
11/10/2022 4:15:00 PM 10.6 51.08 0.259 5.74 25.94 14.03
11/10/2022 4:30:00 PM 10.64 51.152 0.259 5.42 26.67 13.94
11/10/2022 4:45:00 PM 10.69 51.242 0.259 5.21 19.71 13.86
11/10/2022 5:00:00 PM 10.72 51.296 0.257 4.98 26.45 13.7
11/10/2022 5:15:00 PM 10.74 51.332 0.259 5.05 10.69 13.63
11/10/2022 5:30:00 PM 10.73 51.314 0.26 5.29 9.68 13.54
11/10/2022 5:45:00 PM 10.72 51.296 0.26 5.12 10.07 13.43
11/10/2022 6:00:00 PM 10.71 51.278 0.26 5.09 11.29 13.31
11/10/2022 6:15:00 PM 10.69 51.242 0.26 4.88 13.7 13.18
11/10/2022 6:30:00 PM 10.66 51.188 0.261 4.87 10.62 13.01
11/10/2022 6:45:00 PM 10.61 51.098 0.261 4.79 9.57 12.88
11/10/2022 7:00:00 PM 10.58 51.044 0.262 4.85 9.53 12.73
11/10/2022 7:15:00 PM 10.54 50.972 0.262 4.83 9.69 12.57
11/10/2022 7:30:00 PM 10.49 50.882 0.262 4.69 9.57 12.43
11/10/2022 7:45:00 PM 10.45 50.81 0.262 4.72 9.77 12.28
11/10/2022 8:00:00 PM 10.42 50.756 0.263 4.58 10.03 12.12
11/10/2022 8:15:00 PM 10.38 50.684 0.263 4.53 9.85 12
11/10/2022 8:30:00 PM 10.34 50.612 0.263 4.85 9.68 11.84
11/10/2022 8:45:00 PM 10.32 50.576 0.263 4.63 9.77 11.68
11/10/2022 9:00:00 PM 10.29 50.522 0.264 4.55 7.23 11.55
11/10/2022 9:15:00 PM 10.26 50.468 0.264 4.51 7.36 11.41
11/10/2022 9:30:00 PM 10.23 50.414 0.264 4.49 7.68 11.32
11/10/2022 9:45:00 PM 10.21 50.378 0.265 4.37 8.25 11.21
11/10/2022 10:00:00 PM 10.19 50.342 0.265 4.35 8.7 11.08
11/10/2022 10:15:00 PM 10.16 50.288 0.265 -9.25 9.41 11.01
11/10/2022 10:30:00 PM 10.14 50.252 0.263 -7.4 7.91 10.92
11/10/2022 10:45:00 PM 10.13 50.234 0.263 -6.85 8.06 10.84
11/10/2022 11:00:00 PM 10.12 50.216 0.265 0.06 7.59 10.78
11/10/2022 11:15:00 PM 10.11 50.198 0.263 3.61 8.74 10.73
11/10/2022 11:30:00 PM 10.1 50.18 0.265 3.78 11.14 10.64
11/10/2022 11:45:00 PM 10.09 50.162 0.266 -6.02 9.44 10.59
11/11/2022 12:00:00 AM 10.07 50.126 0.266 -9.67 9.69 10.57
11/11/2022 12:15:00 AM 10.06 50.108 0.266 -4.41 7.55 10.55
11/11/2022 12:30:00 AM 10.05 50.09 0.266 -7 8.72 10.51
11/11/2022 12:45:00 AM 10.05 50.09 0.266 -6.64 7.55 10.49
11/11/2022 1:00:00 AM 10.05 50.09 0.266 -3.52 7.14 10.46
11/11/2022 1:15:00 AM 10.06 50.108 0.266 3.38 7.29 10.43
11/11/2022 1:30:00 AM 10.07 50.126 0.266 2.79 7.43 10.43
11/11/2022 1:45:00 AM 10.06 50.108 0.265 -2.65 6.64 10.4
11/11/2022 2:00:00 AM 10.05 50.09 0.266 0.89 6.69 10.39
11/11/2022 2:15:00 AM 10.05 50.09 0.266 0.95 5.98 10.37
11/11/2022 2:30:00 AM 10.07 50.126 0.266 -0.34 5.58 10.35
11/11/2022 2:45:00 AM 10.08 50.144 0.266 -3.04 5.63 10.34
11/11/2022 3:00:00 AM 10.09 50.162 0.266 1.79 5.86 10.34
11/11/2022 3:15:00 AM 10.1 50.18 0.265 -10.12 5.81 10.3
11/11/2022 3:30:00 AM 10.11 50.198 0.266 -5.43 5.67 10.27
11/11/2022 3:45:00 AM 10.11 50.198 0.266 -3.23 5.85 10.28
11/11/2022 4:00:00 AM 10.12 50.216 0.266 -5.27 5.54 10.26
11/11/2022 4:15:00 AM 10.12 50.216 0.266 -1.06 5.69 10.23
11/11/2022 4:30:00 AM 10.12 50.216 0.266 -0.6 6.5 10.2
11/11/2022 4:45:00 AM 10.13 50.234 0.266 1.24 6.43 10.22
11/11/2022 5:00:00 AM 10.13 50.234 0.266 0.53 6.29 10.2
11/11/2022 5:15:00 AM 10.13 50.234 0.266 1.52 6.02 10.16
11/11/2022 5:30:00 AM 10.14 50.252 0.266 -1.41 5.8 10.14
11/11/2022 5:45:00 AM 10.14 50.252 0.266 1.62 6.29 10.13
11/11/2022 6:00:00 AM 10.15 50.27 0.266 0.35 9.32 10.1
11/11/2022 6:15:00 AM 10.15 50.27 0.266 -2.64 6.52 10.08
11/11/2022 6:30:00 AM 10.16 50.288 0.266 -1.49 6.4 10.08
11/11/2022 6:45:00 AM 10.16 50.288 0.266 1.82 6.8 10
11/11/2022 7:00:00 AM 10.17 50.306 0.266 2.51 6.18 10.01
11/11/2022 7:15:00 AM 10.17 50.306 0.266 -2.25 8.22 9.93
11/11/2022 7:30:00 AM 10.18 50.324 0.266 3.41 7.04 9.99
11/11/2022 7:45:00 AM 10.2 50.36 0.266 0.91 7.01 9.99
11/11/2022 8:00:00 AM 10.21 50.378 0.265 3.72 6.71 9.98
11/11/2022 8:15:00 AM 10.23 50.414 0.265 3.82 8.13 9.99
11/11/2022 8:30:00 AM 10.24 50.432 0.266 -2.37 6.39 10.01
11/11/2022 8:45:00 AM 10.27 50.486 0.265 3.4 6.82 10.03
11/11/2022 9:00:00 AM 10.29 50.522 0.265 3.67 7.29 10.05
11/11/2022 9:15:00 AM 10.31 50.558 0.265 4.2 13.73 10.09
11/11/2022 9:30:00 AM 10.34 50.612 0.264 4.37 5.67 10.08
11/11/2022 9:45:00 AM 10.36 50.648 0.264 4.44 5.77 10.13
11/11/2022 10:00:00 AM 10.39 50.702 0.264 4.38 6.19 10.14
11/11/2022 10:15:00 AM 10.42 50.756 0.264 2.48 5.86 10.23
11/11/2022 10:30:00 AM 10.46 50.828 0.263 4.3 5.83 10.2
11/11/2022 10:45:00 AM 10.49 50.882 0.263 4.32 6.06 10.23
11/11/2022 11:00:00 AM 10.52 50.936 0.263 4.3 7.55 10.31
11/11/2022 11:15:00 AM 10.58 51.044 0.261 4.36 6 10.38
11/11/2022 11:30:00 AM 10.6 51.08 0.261 4.43 6 10.33
11/11/2022 11:45:00 AM 10.65 51.17 0.26 4.49 6.46 10.41
11/11/2022 12:00:00 PM 10.68 51.224 0.259 4.51 6.13 10.35
11/11/2022 12:15:00 PM 10.72 51.296 0.258 0.94 6.51 10.34
11/11/2022 12:30:00 PM 10.74 51.332 0.257 3.17 5.99 10.3
11/11/2022 12:45:00 PM 10.79 51.422 0.255 4.26 6.27 10.19
11/11/2022 1:00:00 PM 10.83 51.494 0.254 4.26 6.11 10.05
11/11/2022 1:15:00 PM 10.88 51.584 0.254 4.26 6.96 9.87
11/11/2022 1:30:00 PM 10.9 51.62 0.253 4.23 16.52 10.16
11/11/2022 1:45:00 PM 10.99 51.782 0.249 4.32 6.76 10.13
11/11/2022 2:00:00 PM 11.07 51.926 0.243 3.95 9.01 9.77
11/11/2022 2:15:00 PM 11.29 52.322 0.233 3.84 15.84 9.39
11/11/2022 2:30:00 PM 11.55 52.79 0.22 -7.41 28.94 9.01
11/11/2022 2:45:00 PM 11.77 53.186 0.209 -2.34 44.86 8.85
11/11/2022 3:00:00 PM 11.89 53.402 0.202 -3.34 45.4 8.79
11/11/2022 3:15:00 PM 12.13 53.834 0.195 1.58 56.19 8.69
11/11/2022 3:30:00 PM 12.3 54.14 0.189 1.75 58.33 8.54
11/11/2022 3:45:00 PM 12.29 54.122 0.191 2.27 44.11 8.36
11/11/2022 4:00:00 PM 12.39 54.302 0.19 2.7 55.3 8.23
11/11/2022 4:15:00 PM 12.41 54.338 0.19 2.91 42.67 7.97
11/11/2022 4:30:00 PM 12.32 54.176 0.194 2.88 46.73 8.01
11/11/2022 4:45:00 PM 12.15 53.87 0.203 3.39 48.05 8.69
11/11/2022 5:00:00 PM 12.07 53.726 0.209 3.34 43.84 8.89
11/11/2022 5:15:00 PM 12.03 53.654 0.212 2.14 38.54 8.84
11/11/2022 5:30:00 PM 11.97 53.546 0.216 2.94 36.76 8.96
11/11/2022 5:45:00 PM 11.88 53.384 0.222 3.15 36.06 9
11/11/2022 6:00:00 PM 11.89 53.402 0.227 3.74 30.83 8.99
11/11/2022 6:15:00 PM 11.87 53.366 0.231 3.68 41.76 8.92
11/11/2022 6:30:00 PM 11.89 53.402 0.233 3.22 40.38 8.87
11/11/2022 6:45:00 PM 11.96 53.528 0.234 3.57 40.21 8.81
11/11/2022 7:00:00 PM 12.01 53.618 0.235 3.6 41.22 8.73
11/11/2022 7:15:00 PM 12.09 53.762 0.234 3.6 42.01 8.64
11/11/2022 7:30:00 PM 12.17 53.906 0.234 3.99 40.7 8.58
11/11/2022 7:45:00 PM 12.22 53.996 0.233 3.86 46.6 8.53
11/11/2022 8:00:00 PM 12.27 54.086 0.232 3.79 42.28 8.49
11/11/2022 8:15:00 PM 12.3 54.14 0.232 3.9 39.22 8.46
11/11/2022 8:30:00 PM 12.38 54.284 0.231 1.99 40.52 8.4
11/11/2022 8:45:00 PM 12.44 54.392 0.232 2.89 33.34 8.35
11/11/2022 9:00:00 PM 12.45 54.41 0.234 3.5 39.17 8.33
11/11/2022 9:15:00 PM 12.49 54.482 0.234 3.75 34.6 8.28
11/11/2022 9:30:00 PM 12.55 54.59 0.232 4.09 40.57 8.18
11/11/2022 9:45:00 PM 12.6 54.68 0.232 4.11 38.8 8.16
11/11/2022 10:00:00 PM 12.62 54.716 0.231 3.04 36.31 8.17
11/11/2022 10:15:00 PM 12.65 54.77 0.231 3.21 36.92 8.13
11/11/2022 10:30:00 PM 12.69 54.842 0.229 3.3 38.98 8.17
11/11/2022 10:45:00 PM 12.73 54.914 0.229 2.22 34.71 8.19
11/11/2022 11:00:00 PM 12.77 54.986 0.229 2.4 35.44 8.16
11/11/2022 11:15:00 PM 12.8 55.04 0.228 1.38 41.36 8.13
11/11/2022 11:30:00 PM 12.83 55.094 0.229 1.99 33.86 8.17
11/11/2022 11:45:00 PM 12.86 55.148 0.227 1.62 33.52 8.18
11/12/2022 12:00:00 AM 12.88 55.184 0.227 1.45 33.14 8.14
11/12/2022 12:15:00 AM 12.89 55.202 0.229 1.94 33.97 8.2
11/12/2022 12:30:00 AM 12.93 55.274 0.229 1.89 30.86 8.22
11/12/2022 12:45:00 AM 12.95 55.31 0.229 2.12 34.1 8.25
11/12/2022 1:00:00 AM 12.95 55.31 0.23 2.45 32.05 8.27
11/12/2022 1:15:00 AM 12.98 55.364 0.23 2.9 31.52 8.26
11/12/2022 1:30:00 AM 12.96 55.328 0.231 3.14 37.98 8.29
11/12/2022 1:45:00 AM 12.98 55.364 0.232 3.32 37.02 8.32
11/12/2022 2:00:00 AM 12.98 55.364 0.232 3.41 48.55 8.32
11/12/2022 2:15:00 AM 12.97 55.346 0.233 3.52 39.27 8.32
11/12/2022 2:30:00 AM 12.99 55.382 0.233 3.65 40.96 8.28
11/12/2022 2:45:00 AM 12.99 55.382 0.234 3.89 36.45 8.29
11/12/2022 3:00:00 AM 12.99 55.382 0.235 3.97 45.02 8.3
11/12/2022 3:15:00 AM 13.02 55.436 0.235 3.92 45.27 8.32
11/12/2022 3:30:00 AM 13 55.4 0.23 3.93 45.85 8.29
11/12/2022 3:45:00 AM 12.99 55.382 0.237 3.9 62.13 8.32
11/12/2022 4:00:00 AM 12.98 55.364 0.237 3.83 63.67 8.28
11/12/2022 4:15:00 AM 12.98 55.364 0.237 3.83 64.13 8.27
11/12/2022 4:30:00 AM 12.98 55.364 0.238 3.88 73.53 8.29
11/12/2022 4:45:00 AM 12.97 55.346 0.238 3.93 59.76 8.26
11/12/2022 5:00:00 AM 12.96 55.328 0.238 3.83 66.12 8.27
11/12/2022 5:15:00 AM 12.94 55.292 0.238 3.83 77.28 8.2
11/12/2022 5:30:00 AM 12.92 55.256 0.239 3.83 62.77 8.25
11/12/2022 5:45:00 AM 12.92 55.256 0.239 3.97 75.71 8.22
11/12/2022 6:00:00 AM 12.94 55.292 0.239 3.87 68.76 8.27
11/12/2022 6:15:00 AM 12.93 55.274 0.238 3.78 79.09 8.26
11/12/2022 6:30:00 AM 12.92 55.256 0.238 3.85 69.58 8.18
11/12/2022 6:45:00 AM 12.93 55.274 0.238 3.74 96.22 8.2
11/12/2022 7:00:00 AM 12.91 55.238 0.238 3.91 107.3 8.17
11/12/2022 7:15:00 AM 12.93 55.274 0.238 3.97 74.1 8.18
11/12/2022 7:30:00 AM 12.91 55.238 0.238 3.96 76.22 8.14
11/12/2022 7:45:00 AM 12.91 55.238 0.239 3.97 83.14 8.11
11/12/2022 8:00:00 AM 12.91 55.238 0.239 3.74 79.52 8.1
11/12/2022 8:15:00 AM 12.93 55.274 0.24 3.92 83.77 8.11
11/12/2022 8:30:00 AM 12.95 55.31 0.24 3.77 177.7 8.13
11/12/2022 8:45:00 AM 12.96 55.328 0.241 3.91 170.9 8.1
11/12/2022 9:00:00 AM 12.97 55.346 0.241 3.88 84.23 8.08
11/12/2022 9:15:00 AM 12.99 55.382 0.242 3.91 83.83 8.07
11/12/2022 9:30:00 AM 13 55.4 0.242 3.9 82.15 8.05
11/12/2022 9:45:00 AM 13.05 55.49 0.243 3.88 84.32 8.05
11/12/2022 10:00:00 AM 13.08 55.544 0.244 3.93 96.38 8.05
11/12/2022 10:15:00 AM 13.14 55.652 0.245 3.84 105.4 8.06
11/12/2022 10:30:00 AM 13.18 55.724 0.246 3.96 354.9 8.01
11/12/2022 10:45:00 AM 13.27 55.886 0.248 3.93 154.3 8.06
11/12/2022 11:00:00 AM 13.34 56.012 0.25 3.94 119.1 8
11/12/2022 11:15:00 AM 13.32 55.976 0.252 4.02 119.3 7.95
11/12/2022 11:30:00 AM 13.37 56.066 0.254 4.03 138.3 7.91
11/12/2022 11:45:00 AM 13.39 56.102 0.256 4.02 128.3 7.87
11/12/2022 12:00:00 PM 13.44 56.192 0.257 4.08 112.4 7.84
11/12/2022 12:15:00 PM 13.56 56.408 0.257 4.16 109 7.85
11/12/2022 12:30:00 PM 13.63 56.534 0.257 4.07 152.2 7.83
11/12/2022 12:45:00 PM 13.63 56.534 0.257 4.1 126 7.79
11/12/2022 1:00:00 PM 13.67 56.606 0.256 4.17 116.9 7.77
11/12/2022 1:15:00 PM 13.7 56.66 0.254 4.22 159.8 7.79
11/12/2022 1:30:00 PM 13.75 56.75 0.252 4.25 211.1 7.78
11/12/2022 1:45:00 PM 13.74 56.732 0.25 4.2 154.1 7.74
11/12/2022 2:00:00 PM 13.79 56.822 0.247 4.27 150.1 7.76
11/12/2022 2:15:00 PM 13.84 56.912 0.244 4.26 142.4 7.72
11/12/2022 2:30:00 PM 13.86 56.948 0.241 4.36 145.2 7.76
11/12/2022 2:45:00 PM 13.9 57.02 0.238 4.43 145.7 7.84
11/12/2022 3:00:00 PM 13.92 57.056 0.236 4.44 140.8 7.95
11/12/2022 3:15:00 PM 13.93 57.074 0.232 4.45 155.3 7.96
11/12/2022 3:30:00 PM 13.93 57.074 0.23 4.49 147.8 7.95
11/12/2022 3:45:00 PM 13.92 57.056 0.227 4.52 156 8
11/12/2022 4:00:00 PM 13.93 57.074 0.225 4.58 218.4 7.97
11/12/2022 4:15:00 PM 13.92 57.056 0.223 4.59 166.5 8.03
11/12/2022 4:30:00 PM 13.93 57.074 0.22 4.54 164.1 8.04
11/12/2022 4:45:00 PM 13.91 57.038 0.218 4.55 185.6 8.06
11/12/2022 5:00:00 PM 13.91 57.038 0.217 4.58 235.5 8.07
11/12/2022 5:15:00 PM 13.9 57.02 0.215 4.59 226.2 8.08
11/12/2022 5:30:00 PM 13.89 57.002 0.214 4.6 222.3 8.06
11/12/2022 5:45:00 PM 13.88 56.984 0.213 4.59 223.3 8.09
11/12/2022 6:00:00 PM 13.87 56.966 0.212 4.61 244.1 8.09
11/12/2022 6:15:00 PM 13.87 56.966 0.211 4.57 281 8.08
11/12/2022 6:30:00 PM 13.86 56.948 0.21 4.63 143.4 8.11
11/12/2022 6:45:00 PM 13.85 56.93 0.21 4.71 172.2 8.15
11/12/2022 7:00:00 PM 13.84 56.912 0.209 4.68 289.5 8.07
11/12/2022 7:15:00 PM 13.83 56.894 0.209 4.69 232.4 8.03
11/12/2022 7:30:00 PM 13.83 56.894 0.209 4.65 240.7 8
11/12/2022 7:45:00 PM 13.82 56.876 0.208 4.63 227.8 7.97
11/12/2022 8:00:00 PM 13.82 56.876 0.208 4.65 213.3 7.96
11/12/2022 8:15:00 PM 13.82 56.876 0.207 4.67 262.1 7.96
11/12/2022 8:30:00 PM 13.82 56.876 0.207 4.65 308.4 7.96
11/12/2022 8:45:00 PM 13.82 56.876 0.206 4.68 260.9 7.97
11/12/2022 9:00:00 PM 13.83 56.894 0.205 4.66 183.6 7.97
11/12/2022 9:15:00 PM 13.83 56.894 0.205 4.43 305.2 7.95
11/12/2022 9:30:00 PM 13.83 56.894 0.204 4.6 271.3 7.94
11/12/2022 9:45:00 PM 13.84 56.912 0.203 4.48 268.8 7.9
11/12/2022 10:00:00 PM 13.84 56.912 0.202 4.55 279.4 7.96
11/12/2022 10:15:00 PM 13.84 56.912 0.201 4.6 282.1 7.98
11/12/2022 10:30:00 PM 13.83 56.894 0.199 4.62 267.7 7.97
11/12/2022 10:45:00 PM 13.83 56.894 0.198 4.54 319.1 7.93
11/12/2022 11:00:00 PM 13.82 56.876 0.197 4.47 333 7.96
11/12/2022 11:15:00 PM 13.81 56.858 0.195 4.54 197.2 7.96
11/12/2022 11:30:00 PM 13.79 56.822 0.194 4.6 320.9 7.95
11/12/2022 11:45:00 PM 13.77 56.786 0.189 4.62 286.4 7.95
11/13/2022 12:00:00 AM 13.76 56.768 0.192 4.62 205.6 7.91
11/13/2022 12:15:00 AM 13.73 56.714 0.19 4.65 206.8 7.95
11/13/2022 12:30:00 AM 13.7 56.66 0.189 4.7 148.6 7.97
11/13/2022 12:45:00 AM 13.67 56.606 0.188 4.66 142.4 7.95
11/13/2022 1:00:00 AM 13.64 56.552 0.186 4.67 140.8 7.97
11/13/2022 1:15:00 AM 13.61 56.498 0.184 4.68 234.6 7.98
11/13/2022 1:30:00 AM 13.59 56.462 0.171 4.77 400.3 7.99
11/13/2022 1:45:00 AM 13.55 56.39 0.173 4.78 480.3 7.96
11/13/2022 2:00:00 AM 13.52 56.336 0.172 4.72 461.5 7.96
11/13/2022 2:15:00 AM 13.49 56.282 0.172 4.78 563.9 7.97
11/13/2022 2:30:00 AM 13.45 56.21 0.174 4.71 753.7 7.97
11/13/2022 2:45:00 AM 13.42 56.156 0.179 4.69 342.2 7.97
11/13/2022 3:00:00 AM 13.38 56.084 0.162 4.72 491.4 8.02
11/13/2022 3:15:00 AM 13.33 55.994 0.164 4.71 359.1 7.98
11/13/2022 3:30:00 AM 13.31 55.958 0.174 4.78 251.1 8
11/13/2022 3:45:00 AM 13.26 55.868 0.172 4.84 375.4 7.99
11/13/2022 4:00:00 AM 13.23 55.814 0.178 4.84 356.1 8.02
11/13/2022 4:15:00 AM 13.19 55.742 0.174 4.85 330.9 8.01
11/13/2022 4:30:00 AM 13.15 55.67 0.179 4.81 341.3 8.03
11/13/2022 4:45:00 AM 13.11 55.598 0.171 4.82 343.6 8.07
11/13/2022 5:00:00 AM 13.07 55.526 0.179 4.82 57.04 8.08
11/13/2022 5:15:00 AM 13.03 55.454 0.16 4.79 128.2 8.08
11/13/2022 5:30:00 AM 12.99 55.382 0.171 4.81 292.8 8.09
11/13/2022 5:45:00 AM 12.96 55.328 0.178 4.88 154.7 8.12
11/13/2022 6:00:00 AM 12.91 55.238 0.178 4.79 281.4 8.13
11/13/2022 6:15:00 AM 12.87 55.166 0.178 4.8 110.9 8.13
11/13/2022 6:30:00 AM 12.84 55.112 0.178 4.86 133.4 8.19
11/13/2022 6:45:00 AM 12.78 55.004 0.178 4.9 103.1 8.21
11/13/2022 7:00:00 AM 12.74 54.932 0.178 4.85 283.1 8.21
11/13/2022 7:15:00 AM 12.71 54.878 0.178 4.9 258.8 8.21
11/13/2022 7:30:00 AM 12.65 54.77 0.178 4.8 312.4 8.21
11/13/2022 7:45:00 AM 12.63 54.734 0.178 4.74 358.5 8.22
11/13/2022 8:00:00 AM 12.6 54.68 0.178 4.7 193.1 8.24
11/13/2022 8:15:00 AM 12.57 54.626 0.178 4.87 232.1 8.26
11/13/2022 8:30:00 AM 12.55 54.59 0.178 4.87 366.5 8.31
11/13/2022 8:45:00 AM 12.52 54.536 0.178 4.77 367.1 8.34
11/13/2022 9:00:00 AM 12.49 54.482 0.178 4.9 254.4 8.35
11/13/2022 9:15:00 AM 12.47 54.446 0.178 4.81 154.9 8.36
11/13/2022 9:30:00 AM 12.44 54.392 0.178 4.92 287.1 8.37
11/13/2022 9:45:00 AM 12.41 54.338 0.177 4.9 445 8.41
11/13/2022 10:00:00 AM 12.42 54.356 0.177 4.85 66.99 8.45
11/13/2022 10:15:00 AM 12.42 54.356 0.177 4.84 171.7 8.52
11/13/2022 10:30:00 AM 12.47 54.446 0.177 4.95 284.3 8.52
11/13/2022 10:45:00 AM 12.47 54.446 0.177 4.84 515.8 8.59
11/13/2022 11:00:00 AM 12.52 54.536 0.177 4.91 469.4 8.66
11/13/2022 11:15:00 AM 12.53 54.554 0.177 4.92 516.3 8.66
11/13/2022 11:30:00 AM 12.48 54.464 0.177 4.96 724 8.66
11/13/2022 11:45:00 AM 12.46 54.428 0.177 5 436.9 8.74
11/13/2022 12:00:00 PM 12.44 54.392 0.177 5.01 650.4 8.76
11/13/2022 12:15:00 PM 12.45 54.41 0.176 5.04 733.1 8.83
11/13/2022 12:30:00 PM 12.49 54.482 0.176 4.93 737.5 8.88
11/13/2022 12:45:00 PM 12.48 54.464 0.176 4.98 781.5 8.92
11/13/2022 1:00:00 PM 12.46 54.428 0.176 5.07 774.4 8.94
11/13/2022 1:15:00 PM 12.45 54.41 0.176 5 896.6 8.98
11/13/2022 1:30:00 PM 12.43 54.374 0.176 4.98 545.7 9.03
11/13/2022 1:45:00 PM 12.42 54.356 0.176 5.01 712 9.07
11/13/2022 2:00:00 PM 12.37 54.266 0.176 5.01 737.7 9.08
11/13/2022 2:15:00 PM 12.32 54.176 0.176 5.01 992.4 9.1
11/13/2022 2:30:00 PM 12.29 54.122 0.176 5.12 575.1 9.1
11/13/2022 2:45:00 PM 12.25 54.05 0.175 5 654.9 9.16
11/13/2022 3:00:00 PM 12.21 53.978 0.176 4.95 758.1 9.19
11/13/2022 3:15:00 PM 12.2 53.96 0.175 4.95 737.9 9.19
11/13/2022 3:30:00 PM 12.13 53.834 0.176 4.58 618.3 9.15
11/13/2022 3:45:00 PM 12.09 53.762 0.175 4.7 772.9 9.19
11/13/2022 4:00:00 PM 12.04 53.672 0.175 4.92 412.9 9.21
11/13/2022 4:15:00 PM 11.98 53.564 0.175 4.9 500.8 9.23
11/13/2022 4:30:00 PM 11.92 53.456 0.175 4.94 394.2 9.24
11/13/2022 4:45:00 PM 11.86 53.348 0.175 4.99 780.9 9.21
11/13/2022 5:00:00 PM 11.8 53.24 0.175 4.99 874 9.24
11/13/2022 5:15:00 PM 11.76 53.168 0.175 5.06 1085 9.23
11/13/2022 5:30:00 PM 11.7 53.06 0.175 5.02 593.1 9.24
11/13/2022 5:45:00 PM 11.65 52.97 0.175 5.01 1069 9.26
11/13/2022 6:00:00 PM 11.6 52.88 0.175 4.99 557.3 9.28
11/13/2022 6:15:00 PM 11.54 52.772 0.175 4.99 680.1 9.3
11/13/2022 6:30:00 PM 11.49 52.682 0.175 4.99 676.2 9.35
11/13/2022 6:45:00 PM 11.43 52.574 0.175 5.09 781.9 9.36
11/13/2022 7:00:00 PM 11.38 52.484 0.175 5.05 685.3 9.34
11/13/2022 7:15:00 PM 11.33 52.394 0.175 5.05 592.3 9.37
11/13/2022 7:30:00 PM 11.28 52.304 0.175 5.05 541.7 9.36
11/13/2022 7:45:00 PM 11.22 52.196 0.175 5.08 774 9.38
11/13/2022 8:00:00 PM 11.18 52.124 0.175 5.06 1124 9.38
11/13/2022 8:15:00 PM 11.13 52.034 0.175 5.07 610.6 9.4
11/13/2022 8:30:00 PM 11.09 51.962 0.175 5.09 722.6 9.35
11/13/2022 8:45:00 PM 11.03 51.854 0.175 5.17 654.8 9.35
11/13/2022 9:00:00 PM 10.98 51.764 0.175 5.07 866 9.38
11/13/2022 9:15:00 PM 10.93 51.674 0.175 5.17 914.7 9.39
11/13/2022 9:30:00 PM 10.88 51.584 0.175 5.05 919.1 9.38
11/13/2022 9:45:00 PM 10.82 51.476 0.175 5.15 953 9.39
11/13/2022 10:00:00 PM 10.76 51.368 0.175 5.09 858.1 9.41
11/13/2022 10:15:00 PM 10.72 51.296 0.175 5.09 893.6 9.43
11/13/2022 10:30:00 PM 10.66 51.188 0.175 5.07 1178 9.42
11/13/2022 10:45:00 PM 10.61 51.098 0.175 5.16 979 9.44
11/13/2022 11:00:00 PM 10.55 50.99 0.176 5.04 1005 9.44
11/13/2022 11:15:00 PM 10.51 50.918 0.176 5.08 914.7 9.46
11/13/2022 11:30:00 PM 10.47 50.846 0.176 5.06 428.7 9.45
11/13/2022 11:45:00 PM 10.44 50.792 0.176 5.09 732.7 9.47
11/14/2022 12:00:00 AM 10.39 50.702 0.176 5.16 575.8 9.46
11/14/2022 12:15:00 AM 10.34 50.612 0.176 5.1 577.5 9.48
11/14/2022 12:30:00 AM 10.28 50.504 0.176 5 614.5 9.5
11/14/2022 12:45:00 AM 10.23 50.414 0.176 5.01 724.9 9.49
11/14/2022 1:00:00 AM 10.19 50.342 0.176 5.04 623.1 9.52
11/14/2022 1:15:00 AM 10.13 50.234 0.176 5.03 853.1 9.52
11/14/2022 1:30:00 AM 10.08 50.144 0.176 5.05 873.6 9.55
11/14/2022 1:45:00 AM 10.04 50.072 0.176 5.03 1266 9.55
11/14/2022 2:00:00 AM 9.99 49.982 0.177 5.01 888.3 9.55
11/14/2022 2:15:00 AM 9.93 49.874 0.177 5.07 1235 9.57
11/14/2022 2:30:00 AM 9.87 49.766 0.177 5.02 982.1 9.59
11/14/2022 2:45:00 AM 9.83 49.694 0.177 5.01 1089 9.6
11/14/2022 3:00:00 AM 9.78 49.604 0.177 4.99 976.8 9.6
11/14/2022 3:15:00 AM 9.73 49.514 0.177 4.98 816.3 9.62
11/14/2022 3:30:00 AM 9.68 49.424 0.177 4.98 1214 9.62
11/14/2022 3:45:00 AM 9.62 49.316 0.178 4.95 687.4 9.6
11/14/2022 4:00:00 AM 9.55 49.19 0.178 4.93 918.5 9.61
11/14/2022 4:15:00 AM 9.49 49.082 0.178 4.93 859.9 9.62
11/14/2022 4:30:00 AM 9.43 48.974 0.179 4.92 750.7 9.64
11/14/2022 4:45:00 AM 9.39 48.902 0.179 5 926.5 9.64
11/14/2022 5:00:00 AM 9.35 48.83 0.179 4.89 1052 9.64
11/14/2022 5:15:00 AM 9.3 48.74 0.179 4.92 988.6 9.66
11/14/2022 5:30:00 AM 9.27 48.686 0.179 4.89 780.4 9.67
11/14/2022 5:45:00 AM 9.23 48.614 0.179 4.86 672 9.68
11/14/2022 6:00:00 AM 9.17 48.506 0.18 4.86 680.4 9.71
11/14/2022 6:15:00 AM 9.14 48.452 0.18 4.93 612 9.7
11/14/2022 6:30:00 AM 9.11 48.398 0.18 4.85 673.7 9.71
11/14/2022 6:45:00 AM 9.07 48.326 0.18 4.84 924.8 9.71
11/14/2022 7:00:00 AM 9.04 48.272 0.18 4.88 898.2 9.74
11/14/2022 7:15:00 AM 9 48.2 0.18 4.84 935.4 9.76
11/14/2022 7:30:00 AM 8.96 48.128 0.18 4.87 806.3 9.78
11/14/2022 7:45:00 AM 8.92 48.056 0.181 4.88 842.8 9.8
11/14/2022 8:00:00 AM 8.91 48.038 0.181 4.84 858.8 9.82
11/14/2022 8:15:00 AM 8.88 47.984 0.181 4.93 890.6 9.85
11/14/2022 8:30:00 AM 8.87 47.966 0.181 4.81 953.5 9.9
11/14/2022 8:45:00 AM 8.82 47.876 0.181 4.8 816.7 9.93
11/14/2022 9:00:00 AM 8.81 47.858 0.181 4.76 750.9 9.98
11/14/2022 9:15:00 AM 8.79 47.822 0.181 4.76 874.1 10.05
11/14/2022 9:30:00 AM 8.79 47.822 0.181 4.77 872.7 10.1
11/14/2022 9:45:00 AM 8.8 47.84 0.181 4.76 833.2 10.18
11/14/2022 10:00:00 AM 8.78 47.804 0.182 4.74 890.3 10.25
11/14/2022 10:15:00 AM 8.77 47.786 0.182 4.79 850 10.32
11/14/2022 10:30:00 AM 8.8 47.84 0.182 4.81 824.1 10.4
11/14/2022 10:45:00 AM 8.79 47.822 0.182 4.87 797.8 10.47
11/14/2022 11:00:00 AM 8.8 47.84 0.182 4.88 768.6 10.55
11/14/2022 11:15:00 AM 8.81 47.858 0.182 4.89 872.7 10.63
11/14/2022 11:30:00 AM 8.84 47.912 0.182 4.98 881.5 10.69
11/14/2022 11:45:00 AM 8.91 48.038 0.182 4.86 866.2 10.78
11/14/2022 12:00:00 PM 9.03 48.254 0.182 4.98 852.8 10.86
11/14/2022 12:15:00 PM 9.01 48.218 0.182 4.92 866.5 10.91
11/14/2022 12:30:00 PM 9.08 48.344 0.182 4.98 910.7 10.98
11/14/2022 12:45:00 PM 9.1 48.38 0.182 5.05 903 11.06
11/14/2022 1:00:00 PM 9.15 48.47 0.181 5 913.3 11.14
11/14/2022 1:15:00 PM 9.14 48.452 0.182 5.02 866.4 11.2
11/14/2022 1:30:00 PM 9.19 48.542 0.181 5.04 904.4 11.26
11/14/2022 1:45:00 PM 9.19 48.542 0.182 5.06 899.3 11.32
11/14/2022 2:00:00 PM 9.15 48.47 0.182 5.17 868.2 11.35
11/14/2022 2:15:00 PM 9.13 48.434 0.182 5.2 870.3 11.36
11/14/2022 2:30:00 PM 9.08 48.344 0.183 5.1 920.4 11.35
11/14/2022 2:45:00 PM 9.04 48.272 0.183 5.25 858.4 11.38
11/14/2022 3:00:00 PM 9.02 48.236 0.183 5.35 834.5 11.41
11/14/2022 3:15:00 PM 9 48.2 0.183 5.26 784.8 11.43
11/14/2022 3:30:00 PM 9 48.2 0.183 5.26 816.8 11.45
11/14/2022 3:45:00 PM 8.97 48.146 0.184 5.34 855.7 11.46
11/14/2022 4:00:00 PM 8.95 48.11 0.184 5.28 853 11.46
11/14/2022 4:15:00 PM 8.92 48.056 0.184 5.26 787.3 11.45
11/14/2022 4:30:00 PM 8.9 48.02 0.184 5.28 911 11.42
11/14/2022 4:45:00 PM 8.86 47.948 0.184 5.31 866.1 11.43
11/14/2022 5:00:00 PM 8.82 47.876 0.185 5.3 867.3 11.41
11/14/2022 5:15:00 PM 8.77 47.786 0.186 5.27 857.4 11.36
11/14/2022 5:30:00 PM 8.73 47.714 0.186 5.26 821 11.34
11/14/2022 5:45:00 PM 8.69 47.642 0.186 5.29 732.1 11.3
11/14/2022 6:00:00 PM 8.65 47.57 0.187 5.32 832.5 11.29
11/14/2022 6:15:00 PM 8.6 47.48 0.187 5.3 784.8 11.26
11/14/2022 6:30:00 PM 8.56 47.408 0.187 5.33 376.9 11.23
11/14/2022 6:45:00 PM 8.52 47.336 0.187 5.35 1109 11.2
11/14/2022 7:00:00 PM 8.48 47.264 0.187 5.35 623.5 11.2
11/14/2022 7:15:00 PM 8.44 47.192 0.188 5.28 470.2 11.15
11/14/2022 7:30:00 PM 8.4 47.12 0.188 5.26 460.7 11.15
11/14/2022 7:45:00 PM 8.35 47.03 0.188 5.2 471.1 11.14
11/14/2022 8:00:00 PM 8.31 46.958 0.188 5.24 416 11.13
11/14/2022 8:15:00 PM 8.28 46.904 0.188 5.23 410.3 11.13
11/14/2022 8:30:00 PM 8.24 46.832 0.189 5.27 415 11.14
11/14/2022 8:45:00 PM 8.2 46.76 0.189 5.19 607.3 11.16
11/14/2022 9:00:00 PM 8.17 46.706 0.189 5.26 453.6 11.14
11/14/2022 9:15:00 PM 8.13 46.634 0.189 5.26 344.9 11.13
11/14/2022 9:30:00 PM 8.08 46.544 0.189 4.82 101.2 11.12
11/14/2022 9:45:00 PM 8.05 46.49 0.189 4.74 418.9 11.13
11/14/2022 10:00:00 PM 8 46.4 0.189 4.73 485.6 11.13
11/14/2022 10:15:00 PM 7.96 46.328 0.189 4.72 425.7 11.11
11/14/2022 10:30:00 PM 7.92 46.256 0.19 4.73 140.9 11.11
11/14/2022 10:45:00 PM 7.88 46.184 0.19 4.71 387 11.1
11/14/2022 11:00:00 PM 7.83 46.094 0.19 4.74 389.8 11.1
11/14/2022 11:15:00 PM 7.79 46.022 0.19 4.78 246.7 11.09
11/14/2022 11:30:00 PM 7.74 45.932 0.19 4.71 268.7 11.07
11/14/2022 11:45:00 PM 7.7 45.86 0.19 4.72 247.9 11.08
11/15/2022 12:00:00 AM 7.67 45.806 0.19 4.68 234.9 11.06
11/15/2022 12:15:00 AM 7.61 45.698 0.19 4.71 259.7 11.05
11/15/2022 12:30:00 AM 7.58 45.644 0.19 4.74 667.5 10.97
11/15/2022 12:45:00 AM 7.53 45.554 0.19 4.77 284.8 11.02
11/15/2022 1:00:00 AM 7.48 45.464 0.19 4.72 291.7 11.05
11/15/2022 1:15:00 AM 7.43 45.374 0.191 4.71 343.1 11.04
11/15/2022 1:30:00 AM 7.38 45.284 0.191 4.74 383.3 11.02
11/15/2022 1:45:00 AM 7.35 45.23 0.191 4.69 343.1 11.02
11/15/2022 2:00:00 AM 7.28 45.104 0.191 4.65 358.4 11.03
11/15/2022 2:15:00 AM 7.25 45.05 0.191 4.68 597.7 11.03
11/15/2022 2:30:00 AM 7.21 44.978 0.191 4.67 346.5 11.03
11/15/2022 2:45:00 AM 7.14 44.852 0.191 4.72 327 11.02
11/15/2022 3:00:00 AM 7.1 44.78 0.191 4.66 104.1 11.02
11/15/2022 3:15:00 AM 7.05 44.69 0.192 4.67 138.9 11.02
11/15/2022 3:30:00 AM 7.01 44.618 0.191 4.65 87.37 11.02
11/15/2022 3:45:00 AM 6.96 44.528 0.192 4.64 89.3 11.03
11/15/2022 4:00:00 AM 6.92 44.456 0.192 4.64 85.47 11.03
11/15/2022 4:15:00 AM 6.88 44.384 0.192 4.64 85.3 11.02
11/15/2022 4:30:00 AM 6.84 44.312 0.192 4.69 90.27 11.02
11/15/2022 4:45:00 AM 6.78 44.204 0.192 4.59 86.13 11.02
11/15/2022 5:00:00 AM 6.75 44.15 0.192 4.61 107.5 10.98
11/15/2022 5:15:00 AM 6.71 44.078 0.193 4.61 89.04 10.96
11/15/2022 5:30:00 AM 6.67 44.006 0.193 4.57 90.28 10.97
11/15/2022 5:45:00 AM 6.63 43.934 0.193 4.55 96.78 11.02
11/15/2022 6:00:00 AM 6.58 43.844 0.193 4.55 165.1 11.03
11/15/2022 6:15:00 AM 6.57 43.826 0.193 4.55 131.7 11.01
11/15/2022 6:30:00 AM 6.5 43.7 0.193 4.56 116.5 11.02
11/15/2022 6:45:00 AM 6.46 43.628 0.193 4.52 131.6 11.01
11/15/2022 7:00:00 AM 6.42 43.556 0.193 4.5 129.9 11
11/15/2022 7:15:00 AM 6.4 43.52 0.193 4.52 101.4 11.01
11/15/2022 7:30:00 AM 6.35 43.43 0.193 4.51 102.9 11.04
11/15/2022 7:45:00 AM 6.33 43.394 0.193 4.5 140.8 11.08
11/15/2022 8:00:00 AM 6.31 43.358 0.193 4.49 103.5 11.11
11/15/2022 8:15:00 AM 6.27 43.286 0.193 4.47 106.1 11.16
11/15/2022 8:30:00 AM 6.27 43.286 0.193 4.5 102.8 11.21
11/15/2022 8:45:00 AM 6.26 43.268 0.193 4.48 100.1 11.24
11/15/2022 9:00:00 AM 6.28 43.304 0.193 4.48 105.6 11.33
11/15/2022 9:15:00 AM 6.29 43.322 0.193 4.47 93.22 11.42
11/15/2022 9:30:00 AM 6.32 43.376 0.193 4.47 96.78 11.47
11/15/2022 9:45:00 AM 6.36 43.448 0.193 4.45 108.4 11.56
11/15/2022 10:00:00 AM 6.39 43.502 0.193 4.48 108.4 11.65
11/15/2022 10:15:00 AM 6.39 43.502 0.193 4.5 128.3 11.72
11/15/2022 10:30:00 AM 6.42 43.556 0.193 4.51 115.3 11.81
11/15/2022 10:45:00 AM 6.44 43.592 0.193 4.52 119.7 11.91
11/15/2022 11:00:00 AM 6.44 43.592 0.193 4.59 124 11.97
11/15/2022 11:15:00 AM 6.44 43.592 0.193 4.58 118 12.04
11/15/2022 11:30:00 AM 6.44 43.592 0.193 4.58 119.1 12.08
11/15/2022 11:45:00 AM 6.45 43.61 0.193 4.59 121.3 12.14
11/15/2022 12:00:00 PM 6.45 43.61 0.193 4.61 114.5 12.17
11/15/2022 12:15:00 PM 6.44 43.592 0.193 4.62 103 12.19
11/15/2022 12:30:00 PM 6.42 43.556 0.193 4.66 115.4 12.23
11/15/2022 12:45:00 PM 6.44 43.592 0.193 4.61 103.5 12.27
11/15/2022 1:00:00 PM 6.43 43.574 0.193 4.65 109.5 12.28
11/15/2022 1:15:00 PM 6.43 43.574 0.193 4.61 101.5 12.27
11/15/2022 1:30:00 PM 6.43 43.574 0.193 4.62 110.4 12.28
11/15/2022 1:45:00 PM 6.43 43.574 0.193 4.61 100.6 12.3
11/15/2022 2:00:00 PM 6.43 43.574 0.193 4.64 101.2 12.34
11/15/2022 2:15:00 PM 6.42 43.556 0.194 4.61 108.6 12.34
11/15/2022 2:30:00 PM 6.4 43.52 0.194 4.65 100.4 12.36
11/15/2022 2:45:00 PM 6.4 43.52 0.194 4.66 113 12.35
11/15/2022 3:00:00 PM 6.39 43.502 0.194 4.58 117.8 12.32
11/15/2022 3:15:00 PM 6.37 43.466 0.194 4.57 122.9 12.31
11/15/2022 3:30:00 PM 6.36 43.448 0.195 4.53 110.6 12.29
11/15/2022 3:45:00 PM 6.34 43.412 0.195 4.59 307.4 12.28
11/15/2022 4:00:00 PM 6.33 43.394 0.194 4.56 158.1 12.27
11/15/2022 4:15:00 PM 6.3 43.34 0.195 4.56 190.5 12.23
11/15/2022 4:30:00 PM 6.27 43.286 0.195 4.53 191.1 12.22
11/15/2022 4:45:00 PM 6.23 43.214 0.195 4.54 160.3 12.22
11/15/2022 5:00:00 PM 6.23 43.214 0.194 4.53 162.1 12.21
11/15/2022 5:15:00 PM 6.13 43.034 0.195 4.53 148.4 12.2
11/15/2022 5:30:00 PM 6.02 42.836 0.195 4.6 156.5 12.14
11/15/2022 5:45:00 PM 5.97 42.746 0.195 4.58 154.5 12.13
11/15/2022 6:00:00 PM 5.88 42.584 0.195 4.56 167.3 12.11
11/15/2022 6:15:00 PM 5.83 42.494 0.195 4.57 155.1 12.1
11/15/2022 6:30:00 PM 5.72 42.296 0.195 4.54 156.1 12.08
11/15/2022 6:45:00 PM 5.66 42.188 0.194 4.54 187 12.08
11/15/2022 7:00:00 PM 5.64 42.152 0.194 4.52 157.6 12.04
11/15/2022 7:15:00 PM 5.62 42.116 0.194 4.48 142 12.05
11/15/2022 7:30:00 PM 5.61 42.098 0.194 4.48 121.8 12.03
11/15/2022 7:45:00 PM 5.61 42.098 0.194 4.44 179.5 12.01
11/15/2022 8:00:00 PM 5.59 42.062 0.194 4.46 124 12.01
11/15/2022 8:15:00 PM 5.57 42.026 0.193 4.47 178 12.01
11/15/2022 8:30:00 PM 5.56 42.008 0.193 4.51 189.9 12
11/15/2022 8:45:00 PM 5.56 42.008 0.193 4.5 238.4 11.99
11/15/2022 9:00:00 PM 5.52 41.936 0.194 4.5 214 12.01
11/15/2022 9:15:00 PM 5.51 41.918 0.194 4.48 248.9 11.98
11/15/2022 9:30:00 PM 5.47 41.846 0.195 4.46 185.7 11.98
11/15/2022 9:45:00 PM 5.39 41.702 0.195 4.45 201.1 11.99
11/15/2022 10:00:00 PM 5.38 41.684 0.195 4.45 249.7 11.98
11/15/2022 10:15:00 PM 5.26 41.468 0.196 4.44 68.78 11.99
11/15/2022 10:30:00 PM 5.2 41.36 0.196 4.44 126.2 11.96
11/15/2022 10:45:00 PM 5.17 41.306 0.195 4.49 83.02 11.93
11/15/2022 11:00:00 PM 5.19 41.342 0.193 4.44 102.9 11.89
11/15/2022 11:15:00 PM 5.21 41.378 0.191 4.44 88.53 11.82
11/15/2022 11:30:00 PM 5.24 41.432 0.19 4.38 91.84 11.78
11/15/2022 11:45:00 PM 5.21 41.378 0.188 4.38 88.25 11.77
11/16/2022 12:00:00 AM 5.2 41.36 0.186 4.35 84.06 11.75
11/16/2022 12:15:00 AM 5.19 41.342 0.185 4.38 82.75 11.73
11/16/2022 12:30:00 AM 5.22 41.396 0.183 4.37 95.12 11.73
11/16/2022 12:45:00 AM 5.21 41.378 0.182 4.34 178.5 11.7
11/16/2022 1:00:00 AM 5.25 41.45 0.182 4.34 124.5 11.67
11/16/2022 1:15:00 AM 5.29 41.522 0.18 4.32 82.2 11.66
11/16/2022 1:30:00 AM 5.33 41.594 0.183 4.32 147 11.64
11/16/2022 1:45:00 AM 5.38 41.684 0.183 4.3 220.1 11.61
11/16/2022 2:00:00 AM 5.39 41.702 0.182 4.3 116.2 11.56
11/16/2022 2:15:00 AM 5.43 41.774 0.181 4.3 106.8 11.55
11/16/2022 2:30:00 AM 5.45 41.81 0.182 4.33 88.36 11.52
11/16/2022 2:45:00 AM 5.48 41.864 0.182 4.31 74.77 11.52
11/16/2022 3:00:00 AM 5.5 41.9 0.183 4.33 61.94 11.53
11/16/2022 3:15:00 AM 5.51 41.918 0.185 4.35 86.06 11.48
11/16/2022 3:30:00 AM 5.53 41.954 0.187 4.33 85.14 11.49
11/16/2022 3:45:00 AM 5.54 41.972 0.188 4.32 79.76 11.47
11/16/2022 4:00:00 AM 5.55 41.99 0.183 4.34 964.4 11.45
11/16/2022 4:15:00 AM 5.56 42.008 0.19 4.33 61.41 11.45
11/16/2022 4:30:00 AM 5.57 42.026 0.18 4.33 67.65 11.45
11/16/2022 4:45:00 AM 5.58 42.044 0.188 4.35 61.85 11.47
11/16/2022 5:00:00 AM 5.58 42.044 0.195 4.32 54.66 11.46
11/16/2022 5:15:00 AM 5.59 42.062 0.193 4.35 74.02 11.39
11/16/2022 5:30:00 AM 5.59 42.062 0.195 4.31 78.02 11.4
11/16/2022 5:45:00 AM 5.6 42.08 0.196 4.35 86.4 11.4
11/16/2022 6:00:00 AM 5.62 42.116 0.195 4.33 99.37 11.4
11/16/2022 6:15:00 AM 5.62 42.116 0.195 4.31 64.87 11.41
11/16/2022 6:30:00 AM 5.64 42.152 0.196 4.32 60.78 11.38
11/16/2022 6:45:00 AM 5.64 42.152 0.197 4.34 100.5 11.35
11/16/2022 7:00:00 AM 5.65 42.17 0.197 4.34 63.65 11.38
11/16/2022 7:15:00 AM 5.65 42.17 0.196 4.37 69.16 11.36
11/16/2022 7:30:00 AM 5.65 42.17 0.197 4.33 63.63 11.38
11/16/2022 7:45:00 AM 5.65 42.17 0.197 4.38 67.67 11.38
11/16/2022 8:00:00 AM 5.67 42.206 0.197 4.34 69.14 11.35
11/16/2022 8:15:00 AM 5.68 42.224 0.198 4.33 82.79 11.35
11/16/2022 8:30:00 AM 5.68 42.224 0.199 4.33 98.46 11.38
11/16/2022 8:45:00 AM 5.71 42.278 0.199 4.34 100 11.37
11/16/2022 9:00:00 AM 5.74 42.332 0.199 4.33 93.86 11.4
11/16/2022 9:15:00 AM 5.77 42.386 0.199 4.34 96.53 11.45
11/16/2022 9:30:00 AM 5.81 42.458 0.199 4.38 80.93 11.46
11/16/2022 9:45:00 AM 5.86 42.548 0.2 4.39 86.91 11.53
11/16/2022 10:00:00 AM 5.9 42.62 0.2 4.35 130.1 11.55
11/16/2022 10:15:00 AM 5.95 42.71 0.2 4.37 88.49 11.62
11/16/2022 10:30:00 AM 6.02 42.836 0.201 4.36 102.4 11.65
11/16/2022 10:45:00 AM 6.11 42.998 0.2 4.38 103.7 11.71
11/16/2022 11:00:00 AM 6.14 43.052 0.201 4.37 94.79 11.73
11/16/2022 11:15:00 AM 6.19 43.142 0.201 4.44 106.9 11.79
11/16/2022 11:30:00 AM 6.22 43.196 0.201 4.43 177.9 11.79
11/16/2022 11:45:00 AM 6.32 43.376 0.201 4.44 121.9 11.83
11/16/2022 12:00:00 PM 6.38 43.484 0.202 4.42 129.1 11.86
11/16/2022 12:15:00 PM 6.44 43.592 0.203 4.37 153.2 11.88
11/16/2022 12:30:00 PM 6.44 43.592 0.204 4.47 157.2 11.86
11/16/2022 12:45:00 PM 6.49 43.682 0.205 4.49 158.7 11.84
11/16/2022 1:00:00 PM 6.52 43.736 0.206 4.47 175.5 11.86
11/16/2022 1:15:00 PM 6.52 43.736 0.208 4.48 179.9 11.82
11/16/2022 1:30:00 PM 6.51 43.718 0.21 4.54 161.5 11.81
11/16/2022 1:45:00 PM 6.52 43.736 0.212 4.52 211.4 11.79
11/16/2022 2:00:00 PM 6.52 43.736 0.214 4.51 171.3 11.77
11/16/2022 2:15:00 PM 6.52 43.736 0.217 4.52 175.6 11.77
11/16/2022 2:30:00 PM 6.52 43.736 0.219 4.53 196.6 11.71
11/16/2022 2:45:00 PM 6.52 43.736 0.222 4.49 235.4 11.68
11/16/2022 3:00:00 PM 6.54 43.772 0.224 4.52 227.7 11.66
11/16/2022 3:15:00 PM 6.54 43.772 0.226 4.51 405.8 11.64
11/16/2022 3:30:00 PM 6.57 43.826 0.228 4.5 169.5 11.62
11/16/2022 3:45:00 PM 6.57 43.826 0.23 4.52 245.2 11.61
11/16/2022 4:00:00 PM 6.58 43.844 0.231 4.48 709.8 11.58
11/16/2022 4:15:00 PM 6.58 43.844 0.232 4.53 240.8 11.53
11/16/2022 4:30:00 PM 6.57 43.826 0.232 4.53 287 11.48
11/16/2022 4:45:00 PM 6.56 43.808 0.232 4.54 261.8 11.45
11/16/2022 5:00:00 PM 6.55 43.79 0.232 4.6 259.2 11.43
11/16/2022 5:15:00 PM 6.54 43.772 0.232 4.54 311.7 11.38
11/16/2022 5:30:00 PM 6.52 43.736 0.231 4.53 255.2 11.35
11/16/2022 5:45:00 PM 6.52 43.736 0.231 4.51 505.8 11.3
11/16/2022 6:00:00 PM 6.5 43.7 0.23 4.48 479.9 11.3
11/16/2022 6:15:00 PM 6.5 43.7 0.229 4.49 1054 11.3
11/16/2022 6:30:00 PM 6.48 43.664 0.228 4.49 470.4 11.25
11/16/2022 6:45:00 PM 6.47 43.646 0.227 4.48 311.1 11.19
11/16/2022 7:00:00 PM 6.47 43.646 0.225 4.49 313 11.22
11/16/2022 7:15:00 PM 6.45 43.61 0.225 4.44 323.8 11.2
11/16/2022 7:30:00 PM 6.46 43.628 0.215 4.45 253.6 11.2
11/16/2022 7:45:00 PM 6.46 43.628 0.216 4.43 275.6 11.16
11/16/2022 8:00:00 PM 6.46 43.628 0.22 4.44 386.7 11.11
11/16/2022 8:15:00 PM 6.46 43.628 0.214 4.44 456.5 11.11
11/16/2022 8:30:00 PM 6.46 43.628 0.218 4.45 418.7 11.08
11/16/2022 8:45:00 PM 6.47 43.646 0.216 4.42 514.7 11.07
11/16/2022 9:00:00 PM 6.46 43.628 0.216 4.45 395.1 11.08
11/16/2022 9:15:00 PM 6.46 43.628 0.215 4.44 617.9 11.08
11/16/2022 9:30:00 PM 6.46 43.628 0.214 4.43 395.6 11.05
11/16/2022 9:45:00 PM 6.46 43.628 0.213 4.42 320.8 11.07
11/16/2022 10:00:00 PM 6.46 43.628 0.211 4.42 275.9 11.04
11/16/2022 10:15:00 PM 6.46 43.628 0.211 4.41 402.3 11.03
11/16/2022 10:30:00 PM 6.46 43.628 0.21 4.41 340.4 11.03
11/16/2022 10:45:00 PM 6.45 43.61 0.21 4.41 380.4 11
11/16/2022 11:00:00 PM 6.45 43.61 0.21 4.39 341.6 10.99
11/16/2022 11:15:00 PM 6.45 43.61 0.201 4.38 437.3 11
11/16/2022 11:30:00 PM 6.44 43.592 0.195 4.39 355 10.95
11/16/2022 11:45:00 PM 6.44 43.592 0.207 4.42 331.1 10.97
11/17/2022 12:00:00 AM 6.43 43.574 0.197 4.38 353.6 10.98
11/17/2022 12:15:00 AM 6.42 43.556 0.195 4.39 314.9 10.96
11/17/2022 12:30:00 AM 6.41 43.538 0.206 4.4 352.2 10.96
11/17/2022 12:45:00 AM 6.4 43.52 0.206 4.38 329.7 10.95
11/17/2022 1:00:00 AM 6.38 43.484 0.205 4.37 242.6 10.95
11/17/2022 1:15:00 AM 6.37 43.466 0.203 4.41 299.4 10.94
11/17/2022 1:30:00 AM 6.34 43.412 0.201 4.37 313.4 10.95
11/17/2022 1:45:00 AM 6.33 43.394 0.198 4.39 335.3 10.93
11/17/2022 2:00:00 AM 6.3 43.34 0.193 4.38 403.6 10.92
11/17/2022 2:15:00 AM 6.28 43.304 0.202 4.41 453.6 10.92
11/17/2022 2:30:00 AM 6.26 43.268 0.201 4.34 228.5 10.92
11/17/2022 2:45:00 AM 6.24 43.232 0.201 4.39 261.8 10.92
11/17/2022 3:00:00 AM 6.23 43.214 0.2 4.36 295.2 10.91
11/17/2022 3:15:00 AM 6.22 43.196 0.2 4.36 328.3 10.92
11/17/2022 3:30:00 AM 6.2 43.16 0.199 4.38 273.4 10.9
11/17/2022 3:45:00 AM 6.19 43.142 0.197 4.38 124.3 10.9
11/17/2022 4:00:00 AM 6.17 43.106 0.198 4.35 444.3 10.91
11/17/2022 4:15:00 AM 6.16 43.088 0.197 4.33 132.6 10.91
11/17/2022 4:30:00 AM 6.14 43.052 0.197 4.32 149.6 10.9
11/17/2022 4:45:00 AM 6.13 43.034 0.193 4.31 145.7 10.89
11/17/2022 5:00:00 AM 6.12 43.016 0.192 4.33 136.9 10.89
11/17/2022 5:15:00 AM 6.1 42.98 0.196 4.33 151.7 10.91
11/17/2022 5:30:00 AM 6.09 42.962 0.194 4.32 210.9 10.9
11/17/2022 5:45:00 AM 6.07 42.926 0.196 4.28 142.6 10.9
11/17/2022 6:00:00 AM 6.06 42.908 0.196 4.26 143.3 10.9
11/17/2022 6:15:00 AM 6.03 42.854 0.194 4.31 149 10.91
11/17/2022 6:30:00 AM 6.01 42.818 0.194 4.31 136.7 10.92
11/17/2022 6:45:00 AM 5.99 42.782 0.194 4.28 222.2 10.92
11/17/2022 7:00:00 AM 5.97 42.746 0.192 4.27 239.3 10.91
11/17/2022 7:15:00 AM 5.94 42.692 0.195 4.27 1134 10.93
11/17/2022 7:30:00 AM 5.92 42.656 0.195 4.25 988 10.96
11/17/2022 7:45:00 AM 5.91 42.638 0.195 4.26 209.7 10.94
11/17/2022 8:00:00 AM 5.9 42.62 0.193 4.23 243.2 10.95
11/17/2022 8:15:00 AM 5.9 42.62 0.193 4.23 289.1 10.98
11/17/2022 8:30:00 AM 5.88 42.584 0.193 4.22 366.4 11
11/17/2022 8:45:00 AM 5.87 42.566 0.193 4.24 304.4 11
11/17/2022 9:00:00 AM 5.87 42.566 0.193 4.23 384.3 11.01
11/17/2022 9:15:00 AM 5.87 42.566 0.192 4.18 313.3 11.04
11/17/2022 9:30:00 AM 5.91 42.638 0.192 4.22 502 11.07
11/17/2022 9:45:00 AM 5.93 42.674 0.192 4.19 556 11.13
11/17/2022 10:00:00 AM 5.95 42.71 0.192 4.22 476.1 11.14
11/17/2022 10:15:00 AM 5.97 42.746 0.191 4.25 467.2 11.16
11/17/2022 10:30:00 AM 5.98 42.764 0.191 4.26 484.6 11.19
11/17/2022 10:45:00 AM 6.02 42.836 0.191 4.25 445.9 11.22
11/17/2022 11:00:00 AM 6.07 42.926 0.19 4.26 699.1 11.27
11/17/2022 11:15:00 AM 6.1 42.98 0.19 4.29 667.1 11.31
11/17/2022 11:30:00 AM 6.14 43.052 0.19 4.26 601.5 11.33
11/17/2022 11:45:00 AM 6.16 43.088 0.19 4.24 433.4 11.35
11/17/2022 12:00:00 PM 6.15 43.07 0.19 4.26 486.2 11.41
11/17/2022 12:15:00 PM 6.15 43.07 0.19 4.28 907.6 11.42
11/17/2022 12:30:00 PM 6.16 43.088 0.19 4.33 463.1 11.44
11/17/2022 12:45:00 PM 6.21 43.178 0.19 4.36 489.5 11.47
11/17/2022 1:00:00 PM 6.22 43.196 0.189 4.32 532.9 11.49
11/17/2022 1:15:00 PM 6.23 43.214 0.19 4.31 550.4 11.51
11/17/2022 1:30:00 PM 6.24 43.232 0.189 4.34 608.3 11.54
11/17/2022 1:45:00 PM 6.26 43.268 0.189 4.31 569.5 11.57
11/17/2022 2:00:00 PM 6.27 43.286 0.189 4.36 783.4 11.59
11/17/2022 2:15:00 PM 6.28 43.304 0.189 4.29 552.9 11.58
11/17/2022 2:30:00 PM 6.28 43.304 0.188 4.34 500.5 11.6
11/17/2022 2:45:00 PM 6.3 43.34 0.189 4.36 506.2 11.63
11/17/2022 3:00:00 PM 6.31 43.358 0.188 4.37 498.7 11.66
11/17/2022 3:15:00 PM 6.3 43.34 0.189 4.38 588.6 11.67
11/17/2022 3:30:00 PM 6.3 43.34 0.187 4.4 618.3 11.65
11/17/2022 3:45:00 PM 6.3 43.34 0.188 4.41 631.4 11.64
11/17/2022 4:00:00 PM 6.29 43.322 0.188 4.38 669 11.65
11/17/2022 4:15:00 PM 6.29 43.322 0.187 4.39 916.7 11.65
11/17/2022 4:30:00 PM 6.29 43.322 0.188 4.43 534.9 11.64
11/17/2022 4:45:00 PM 6.29 43.322 0.188 4.44 402.6 11.64
11/17/2022 5:00:00 PM 6.28 43.304 0.188 4.46 473.9 11.63
11/17/2022 5:15:00 PM 6.27 43.286 0.187 4.41 413.6 11.63
11/17/2022 5:30:00 PM 6.27 43.286 0.188 4.4 496.5 11.63
11/17/2022 5:45:00 PM 6.26 43.268 0.188 4.41 498.8 11.62
11/17/2022 6:00:00 PM 6.25 43.25 0.188 4.38 429.2 11.57
11/17/2022 6:15:00 PM 6.24 43.232 0.187 4.4 406.3 11.6
11/17/2022 6:30:00 PM 6.23 43.214 0.179 4.41 460.1 11.59
11/17/2022 6:45:00 PM 6.22 43.196 0.18 4.37 679.2 11.58
11/17/2022 7:00:00 PM 6.21 43.178 0.181 4.35 174.5 11.57
11/17/2022 7:15:00 PM 6.2 43.16 0.186 4.36 214.4 11.56
11/17/2022 7:30:00 PM 6.19 43.142 0.188 4.37 262.8 11.57
11/17/2022 7:45:00 PM 6.18 43.124 0.189 4.36 210.9 11.56
11/17/2022 8:00:00 PM 6.17 43.106 0.188 4.4 238.5 11.55
11/17/2022 8:15:00 PM 6.16 43.088 0.187 4.39 368.8 11.54
11/17/2022 8:30:00 PM 6.14 43.052 0.188 4.4 144.3 11.55
11/17/2022 8:45:00 PM 6.13 43.034 0.188 4.36 341 11.55
11/17/2022 9:00:00 PM 6.11 42.998 0.187 4.38 224.5 11.54
11/17/2022 9:15:00 PM 6.1 42.98 0.177 4.35 175.1 11.55
11/17/2022 9:30:00 PM 6.09 42.962 0.188 4.33 184.7 11.54
11/17/2022 9:45:00 PM 6.06 42.908 0.185 4.34 637 11.54
11/17/2022 10:00:00 PM 6.04 42.872 0.185 4.33 127.8 11.53
11/17/2022 10:15:00 PM 6.01 42.818 0.188 4.34 108.5 11.52
11/17/2022 10:30:00 PM 5.98 42.764 0.188 4.34 141.5 11.51
11/17/2022 10:45:00 PM 5.96 42.728 0.187 4.31 79.2 11.53
11/17/2022 11:00:00 PM 5.94 42.692 0.188 4.32 91.53 11.5
11/17/2022 11:15:00 PM 5.9 42.62 0.184 4.33 122.7 11.5
11/17/2022 11:30:00 PM 5.88 42.584 0.182 4.32 85.78 11.48
11/17/2022 11:45:00 PM 5.85 42.53 0.188 4.33 85.53 11.5
11/18/2022 12:00:00 AM 5.81 42.458 0.187 4.37 99.72 11.5
11/18/2022 12:15:00 AM 5.8 42.44 0.18 4.37 315.8 11.48
11/18/2022 12:30:00 AM 5.76 42.368 0.188 4.36 247.5 11.47
11/18/2022 12:45:00 AM 5.73 42.314 0.188 4.36 256.4 11.46
11/18/2022 1:00:00 AM 5.72 42.296 0.188 4.35 71.83 11.38
11/18/2022 1:15:00 AM 5.69 42.242 0.188 4.31 90.41 11.43
11/18/2022 1:30:00 AM 5.68 42.224 0.18 4.34 111.1 11.45
11/18/2022 1:45:00 AM 5.66 42.188 0.186 4.33 249.9 11.44
11/18/2022 2:00:00 AM 5.65 42.17 0.187 4.33 103.5 11.45
11/18/2022 2:15:00 AM 5.64 42.152 0.189 4.29 78.9 11.43
11/18/2022 2:30:00 AM 5.62 42.116 0.188 4.3 137.8 11.44
11/18/2022 2:45:00 AM 5.6 42.08 0.187 4.33 93.48 11.42
11/18/2022 3:00:00 AM 5.58 42.044 0.176 4.3 148.8 11.41
11/18/2022 3:15:00 AM 5.56 42.008 0.184 4.26 131.4 11.41
11/18/2022 3:30:00 AM 5.55 41.99 0.186 4.31 136.5 11.41
11/18/2022 3:45:00 AM 5.54 41.972 0.183 4.31 122.6 11.4
11/18/2022 4:00:00 AM 5.52 41.936 0.186 4.3 1089 11.4
11/18/2022 4:15:00 AM 5.5 41.9 0.188 4.27 103.5 11.41
11/18/2022 4:30:00 AM 5.47 41.846 0.188 4.28 97.59 11.41
11/18/2022 4:45:00 AM 5.47 41.846 0.188 4.29 98.39 11.38
11/18/2022 5:00:00 AM 5.45 41.81 0.188 4.27 115.5 11.39
11/18/2022 5:15:00 AM 5.43 41.774 0.185 4.24 115.4 11.39
11/18/2022 5:30:00 AM 5.4 41.72 0.188 4.25 96.08 11.4
11/18/2022 5:45:00 AM 5.38 41.684 0.187 4.24 93.28 11.41
11/18/2022 6:00:00 AM 5.35 41.63 0.188 4.26 112.2 11.41
11/18/2022 6:15:00 AM 5.33 41.594 0.189 4.25 90.76 11.41
11/18/2022 6:30:00 AM 5.3 41.54 0.188 4.2 390.2 11.43
11/18/2022 6:45:00 AM 5.28 41.504 0.19 4.22 125 11.4
11/18/2022 7:00:00 AM 5.24 41.432 0.189 4.21 141.8 11.4
11/18/2022 7:15:00 AM 5.22 41.396 0.189 4.22 122.5 11.43
11/18/2022 7:30:00 AM 5.19 41.342 0.191 4.22 118.7 11.43
11/18/2022 7:45:00 AM 5.17 41.306 0.191 4.24 119.9 11.44
11/18/2022 8:00:00 AM 5.14 41.252 0.189 4.23 118.1 11.45
11/18/2022 8:15:00 AM 5.12 41.216 0.19 4.23 115.3 11.49
11/18/2022 8:30:00 AM 5.11 41.198 0.191 4.22 114.7 11.52
11/18/2022 8:45:00 AM 5.1 41.18 0.191 4.18 130 11.55
11/18/2022 9:00:00 AM 5.08 41.144 0.19 4.21 119.5 11.58
11/18/2022 9:15:00 AM 5.1 41.18 0.19 4.18 114 11.64
11/18/2022 9:30:00 AM 5.12 41.216 0.19 4.16 118.6 11.69
11/18/2022 9:45:00 AM 5.15 41.27 0.19 4.2 137.3 11.74
11/18/2022 10:00:00 AM 5.17 41.306 0.19 4.19 121.3 11.77
11/18/2022 10:15:00 AM 5.21 41.378 0.19 4.17 126.3 11.83
11/18/2022 10:30:00 AM 5.25 41.45 0.188 4.19 126.5 11.89
11/18/2022 10:45:00 AM 5.3 41.54 0.188 4.24 122.5 11.94
11/18/2022 11:00:00 AM 5.35 41.63 0.19 4.26 113.6 12.01
11/18/2022 11:15:00 AM 5.4 41.72 0.189 4.25 109.7 12.06
11/18/2022 11:30:00 AM 5.45 41.81 0.186 4.28 523.2 12.12
11/18/2022 11:45:00 AM 5.5 41.9 0.187 4.31 155.7 12.17
11/18/2022 12:00:00 PM 5.57 42.026 0.187 4.31 153 12.23
11/18/2022 12:15:00 PM 5.63 42.134 0.187 4.34 168 12.29
11/18/2022 12:30:00 PM 5.7 42.26 0.188 4.3 175.6 12.33
11/18/2022 12:45:00 PM 5.76 42.368 0.187 4.36 258.1 12.37
11/18/2022 1:00:00 PM 5.8 42.44 0.187 4.39 208.3 12.43
11/18/2022 1:15:00 PM 5.81 42.458 0.191 4.37 258.2 12.36
11/18/2022 1:30:00 PM 5.84 42.512 0.191 4.39 215.8 12.44
11/18/2022 1:45:00 PM 5.87 42.566 0.192 4.39 164.9 12.49
11/18/2022 2:00:00 PM 5.91 42.638 0.192 4.44 458.1 12.52
11/18/2022 2:15:00 PM 5.93 42.674 0.191 4.44 199.8 12.57
11/18/2022 2:30:00 PM 5.93 42.674 0.192 4.45 144.3 12.49
11/18/2022 2:45:00 PM 5.9 42.62 0.194 4.49 176.8 12.55
11/18/2022 3:00:00 PM 5.88 42.584 0.193 4.5 154.5 12.58
11/18/2022 3:15:00 PM 5.87 42.566 0.19 4.5 158 12.59
11/18/2022 3:30:00 PM 5.86 42.548 0.19 4.48 162.3 12.59
11/18/2022 3:45:00 PM 5.83 42.494 0.193 4.54 185.8 12.58
11/18/2022 4:00:00 PM 5.81 42.458 0.185 4.52 169.8 12.57
11/18/2022 4:15:00 PM 5.79 42.422 0.187 4.56 180.6 12.56
11/18/2022 4:30:00 PM 5.78 42.404 0.19 4.52 259 12.51
11/18/2022 4:45:00 PM 5.76 42.368 0.19 4.51 164.1 12.54
11/18/2022 5:00:00 PM 5.75 42.35 0.191 4.52 158.9 12.5
11/18/2022 5:15:00 PM 5.74 42.332 0.191 4.49 157 12.49
11/18/2022 5:30:00 PM 5.72 42.296 0.186 4.46 174.1 12.46
11/18/2022 5:45:00 PM 5.71 42.278 0.191 4.44 133.9 12.42
11/18/2022 6:00:00 PM 5.68 42.224 0.186 4.46 147.2 12.41
11/18/2022 6:15:00 PM 5.66 42.188 0.191 4.46 146.8 12.37
11/18/2022 6:30:00 PM 5.64 42.152 0.187 4.46 116.3 12.36
11/18/2022 6:45:00 PM 5.61 42.098 0.186 4.5 693.9 12.34
11/18/2022 7:00:00 PM 5.59 42.062 0.192 4.45 159.9 12.33
11/18/2022 7:15:00 PM 5.56 42.008 0.188 4.49 161.4 12.32
11/18/2022 7:30:00 PM 5.53 41.954 0.19 4.43 126.2 12.31
11/18/2022 7:45:00 PM 5.52 41.936 0.188 4.4 161.4 12.31
11/18/2022 8:00:00 PM 5.5 41.9 0.191 4.44 139.2 12.29
11/18/2022 8:15:00 PM 5.48 41.864 0.191 4.41 171.1 12.29
11/18/2022 8:30:00 PM 5.46 41.828 0.192 4.4 417.8 12.28
11/18/2022 8:45:00 PM 5.45 41.81 0.193 4.37 242 12.27
11/18/2022 9:00:00 PM 5.42 41.756 0.187 4.37 390.1 12.27
11/18/2022 9:15:00 PM 5.39 41.702 0.185 4.39 133.5 12.22
11/18/2022 9:30:00 PM 5.36 41.648 0.186 4.41 150.8 12.22
11/18/2022 9:45:00 PM 5.33 41.594 0.193 4.45 716.9 12.18
11/18/2022 10:00:00 PM 5.3 41.54 0.195 4.41 150.2 12.22
11/18/2022 10:15:00 PM 5.27 41.486 0.192 4.39 175.2 12.19
11/18/2022 10:30:00 PM 5.24 41.432 0.192 4.39 296.3 12.19
11/18/2022 10:45:00 PM 5.21 41.378 0.193 4.38 183.3 12.19
11/18/2022 11:00:00 PM 5.18 41.324 0.192 4.35 195.5 12.17
11/18/2022 11:15:00 PM 5.15 41.27 0.193 4.39 259.3 12.15
11/18/2022 11:30:00 PM 5.12 41.216 0.193 4.37 426.4 12.15
11/18/2022 11:45:00 PM 5.09 41.162 0.192 4.36 967.5 12.11
11/19/2022 12:00:00 AM 5.05 41.09 0.193 4.34 918.9 12.11
11/19/2022 12:15:00 AM 5.02 41.036 0.193 4.3 343.5 12.09
11/19/2022 12:30:00 AM 4.98 40.964 0.193 4.29 1352 12.08
11/19/2022 12:45:00 AM 4.95 40.91 0.192 4.31 537.1 12.07
11/19/2022 1:00:00 AM 4.93 40.874 0.192 4.28 227.3 12.04
11/19/2022 1:15:00 AM 4.89 40.802 0.191 4.24 178.6 12.04
11/19/2022 1:30:00 AM 4.87 40.766 0.187 4.3 183.7 12.01
11/19/2022 1:45:00 AM 4.84 40.712 0.195 4.29 193.9 12.01
11/19/2022 2:00:00 AM 4.81 40.658 0.194 4.29 207.3 12.02
11/19/2022 2:15:00 AM 4.78 40.604 0.184 4.25 150.8 11.97
11/19/2022 2:30:00 AM 4.77 40.586 0.194 4.24 152.5 11.99
11/19/2022 2:45:00 AM 4.75 40.55 0.192 4.25 160.2 11.98
11/19/2022 3:00:00 AM 4.72 40.496 0.182 4.24 187 11.99
11/19/2022 3:15:00 AM 4.69 40.442 0.191 4.24 176.5 11.96
11/19/2022 3:30:00 AM 4.67 40.406 0.194 4.24 178.1 11.97
11/19/2022 3:45:00 AM 4.64 40.352 0.192 4.21 161.6 11.95
11/19/2022 4:00:00 AM 4.61 40.298 0.194 4.21 154.2 11.95
11/19/2022 4:15:00 AM 4.57 40.226 0.194 4.22 161.2 11.94
11/19/2022 4:30:00 AM 4.54 40.172 0.195 4.21 148.4 11.94
11/19/2022 4:45:00 AM 4.5 40.1 0.196 4.21 215.6 11.93
11/19/2022 5:00:00 AM 4.47 40.046 0.195 4.2 150.7 11.92
11/19/2022 5:15:00 AM 4.43 39.974 0.195 4.21 172.8 11.92
11/19/2022 5:30:00 AM 4.38 39.884 0.198 4.2 137.2 11.94
11/19/2022 5:45:00 AM 4.32 39.776 0.196 4.18 151 11.94
11/19/2022 6:00:00 AM 4.3 39.74 0.194 4.18 166.9 11.93
11/19/2022 6:15:00 AM 4.25 39.65 0.18 4.21 180.7 11.93
11/19/2022 6:30:00 AM 4.22 39.596 0.194 4.16 221.6 11.91
11/19/2022 6:45:00 AM 4.17 39.506 0.196 4.13 128.8 11.88
11/19/2022 7:00:00 AM 4.13 39.434 0.196 4.14 171 11.9
11/19/2022 7:15:00 AM 4.08 39.344 0.196 4.15 174.2 11.93
11/19/2022 7:30:00 AM 4.04 39.272 0.196 4.13 256 11.95
11/19/2022 7:45:00 AM 4.01 39.218 0.196 4.13 248.4 11.95
11/19/2022 8:00:00 AM 3.98 39.164 0.196 4.11 216.8 12
11/19/2022 8:15:00 AM 3.95 39.11 0.196 4.12 146 12.06
11/19/2022 8:30:00 AM 3.93 39.074 0.196 4.09 474.4 12.09
11/19/2022 8:45:00 AM 3.91 39.038 0.196 4.1 616.1 12.14
11/19/2022 9:00:00 AM 3.9 39.02 0.196 4.06 154.3 12.19
11/19/2022 9:15:00 AM 3.91 39.038 0.196 4.05 255.5 12.26
11/19/2022 9:30:00 AM 3.92 39.056 0.196 4.04 140.3 12.32
11/19/2022 9:45:00 AM 3.95 39.11 0.196 4.04 128.8 12.36
11/19/2022 10:00:00 AM 3.97 39.146 0.197 4.07 149.6 12.44
11/19/2022 10:15:00 AM 4.01 39.218 0.197 4.05 174.1 12.49
11/19/2022 10:30:00 AM 4.05 39.29 0.196 4.08 172.1 12.53
11/19/2022 10:45:00 AM 4.05 39.29 0.197 4.26 176 12.58
11/19/2022 11:00:00 AM 4.13 39.434 0.198 4.13 153.1 12.63
11/19/2022 11:15:00 AM 4.2 39.56 0.198 4.1 127.5 12.7
11/19/2022 11:30:00 AM 4.23 39.614 0.198 4.1 146.5 12.74
11/19/2022 11:45:00 AM 4.24 39.632 0.198 4.17 1361 12.8
11/19/2022 12:00:00 PM 4.26 39.668 0.198 4.14 157.2 12.84
11/19/2022 12:15:00 PM 4.32 39.776 0.198 4.13 155.2 12.9
11/19/2022 12:30:00 PM 4.36 39.848 0.197 4.14 142.1 12.96
11/19/2022 12:45:00 PM 4.43 39.974 0.197 4.12 177.2 13.03
11/19/2022 1:00:00 PM 4.5 40.1 0.197 4.18 189.6 13.06
11/19/2022 1:15:00 PM 4.54 40.172 0.197 4.25 189.5 13.09
11/19/2022 1:30:00 PM 4.59 40.262 0.197 4.22 123.1 13.14
11/19/2022 1:45:00 PM 4.63 40.334 0.197 4.23 175.6 13.17
11/19/2022 2:00:00 PM 4.68 40.424 0.197 4.25 156.2 13.21
11/19/2022 2:15:00 PM 4.73 40.514 0.197 4.28 166.5 13.24
11/19/2022 2:30:00 PM 4.75 40.55 0.198 4.26 163 13.26
11/19/2022 2:45:00 PM 4.77 40.586 0.197 4.3 152.7 13.29
11/19/2022 3:00:00 PM 4.77 40.586 0.198 4.28 162.8 13.3
11/19/2022 3:15:00 PM 4.75 40.55 0.198 4.32 144.3 13.31
11/19/2022 3:30:00 PM 4.72 40.496 0.198 4.35 176.7 13.3
11/19/2022 3:45:00 PM 4.69 40.442 0.198 4.35 159.9 13.28
11/19/2022 4:00:00 PM 4.66 40.388 0.198 4.36 166 13.28
11/19/2022 4:15:00 PM 4.62 40.316 0.198 4.33 167 13.25
11/19/2022 4:30:00 PM 4.58 40.244 0.198 4.37 137.7 13.26
11/19/2022 4:45:00 PM 4.54 40.172 0.198 4.34 194.9 13.23
11/19/2022 5:00:00 PM 4.5 40.1 0.198 4.36 173.6 13.21
11/19/2022 5:15:00 PM 4.47 40.046 0.198 4.33 191.9 13.15
11/19/2022 5:30:00 PM 4.43 39.974 0.198 4.31 180.9 13.12
11/19/2022 5:45:00 PM 4.4 39.92 0.197 4.33 337.2 13.09
11/19/2022 6:00:00 PM 4.37 39.866 0.197 4.32 478.6 13.05
11/19/2022 6:15:00 PM 4.34 39.812 0.197 4.32 155.1 13.04
11/19/2022 6:30:00 PM 4.3 39.74 0.198 4.31 177.1 12.98
11/19/2022 6:45:00 PM 4.27 39.686 0.198 4.32 112.2 12.97
11/19/2022 7:00:00 PM 4.24 39.632 0.198 4.24 142.5 12.94
11/19/2022 7:15:00 PM 4.21 39.578 0.197 4.26 511.1 12.9
11/19/2022 7:30:00 PM 4.18 39.524 0.199 4.26 109.1 12.89
11/19/2022 7:45:00 PM 4.15 39.47 0.198 4.25 112.1 12.87
11/19/2022 8:00:00 PM 4.12 39.416 0.198 4.25 134.1 12.86
11/19/2022 8:15:00 PM 4.09 39.362 0.197 4.21 136.3 12.86
11/19/2022 8:30:00 PM 4.05 39.29 0.199 4.23 104.2 12.84
11/19/2022 8:45:00 PM 4.02 39.236 0.19 4.26 149.7 12.85
11/19/2022 9:00:00 PM 3.98 39.164 0.199 4.23 1242 12.83
11/19/2022 9:15:00 PM 3.95 39.11 0.197 4.2 114 12.84
11/19/2022 9:30:00 PM 3.91 39.038 0.196 4.2 112.5 12.83
11/19/2022 9:45:00 PM 3.86 38.948 0.198 4.24 370.5 12.81
11/19/2022 10:00:00 PM 3.83 38.894 0.198 4.22 258 12.79
11/19/2022 10:15:00 PM 3.79 38.822 0.197 4.22 139.9 12.81
11/19/2022 10:30:00 PM 3.75 38.75 0.189 4.2 142.4 12.8
11/19/2022 10:45:00 PM 3.72 38.696 0.193 4.21 135.2 12.79
11/19/2022 11:00:00 PM 3.69 38.642 0.198 4.18 205.9 12.78
11/19/2022 11:15:00 PM 3.66 38.588 0.2 4.18 216.6 12.77
11/19/2022 11:30:00 PM 3.63 38.534 0.198 4.21 893.7 12.77
11/19/2022 11:45:00 PM 3.61 38.498 0.198 4.21 840.9 12.74
11/20/2022 12:00:00 AM 3.58 38.444 0.202 4.18 227.2 12.72
11/20/2022 12:15:00 AM 3.55 38.39 0.201 4.15 556 12.73
11/20/2022 12:30:00 AM 3.51 38.318 0.199 4.15 345.8 12.71
11/20/2022 12:45:00 AM 3.48 38.264 0.2 4.17 204.6 12.69
11/20/2022 1:00:00 AM 3.47 38.246 0.199 4.16 236.2 12.7
11/20/2022 1:15:00 AM 3.44 38.192 0.199 4.17 343.2 12.68
11/20/2022 1:30:00 AM 3.42 38.156 0.199 4.21 306.6 12.65
11/20/2022 1:45:00 AM 3.41 38.138 0.199 4.17 251 12.65
11/20/2022 2:00:00 AM 3.38 38.084 0.199 4.18 203.2 12.63
11/20/2022 2:15:00 AM 3.36 38.048 0.199 4.2 254.6 12.62
11/20/2022 2:30:00 AM 3.35 38.03 0.199 4.19 212.6 12.61
11/20/2022 2:45:00 AM 3.33 37.994 0.2 4.18 170.5 12.62
11/20/2022 3:00:00 AM 3.31 37.958 0.201 4.21 193.1 12.58
11/20/2022 3:15:00 AM 3.29 37.922 0.201 4.15 192.2 12.57
11/20/2022 3:30:00 AM 3.28 37.904 0.203 4.15 140.8 12.56
11/20/2022 3:45:00 AM 3.26 37.868 0.202 4.12 250.4 12.56
11/20/2022 4:00:00 AM 3.24 37.832 0.2 4.13 217.4 12.56
11/20/2022 4:15:00 AM 3.21 37.778 0.199 4.12 123.5 12.55
11/20/2022 4:30:00 AM 3.2 37.76 0.202 4.1 180.1 12.52
11/20/2022 4:45:00 AM 3.17 37.706 0.202 4.12 199.4 12.49
11/20/2022 5:00:00 AM 3.16 37.688 0.202 4.11 175.3 12.51
11/20/2022 5:15:00 AM 3.13 37.634 0.202 4.08 320.9 12.48
11/20/2022 5:30:00 AM 3.09 37.562 0.204 4.14 335.1 12.49
11/20/2022 5:45:00 AM 3.08 37.544 0.202 4.12 199 12.49
11/20/2022 6:00:00 AM 3.03 37.454 0.203 4.14 220.2 12.48
11/20/2022 6:15:00 AM 2.99 37.382 0.201 4.11 155.6 12.48
11/20/2022 6:30:00 AM 2.95 37.31 0.198 4.08 215.6 12.47
11/20/2022 6:45:00 AM 2.89 37.202 0.203 4.11 137.5 12.49
11/20/2022 7:00:00 AM 2.87 37.166 0.202 4.09 92.65 12.48
11/20/2022 7:15:00 AM 2.83 37.094 0.202 4.11 95.84 12.5
11/20/2022 7:30:00 AM 2.8 37.04 0.202 4.07 108.4 12.51
11/20/2022 7:45:00 AM 2.77 36.986 0.202 4.05 110.7 12.52
11/20/2022 8:00:00 AM 2.74 36.932 0.202 4.07 92.97 12.55
11/20/2022 8:15:00 AM 2.7 36.86 0.202 4.05 616 12.59
11/20/2022 8:30:00 AM 2.67 36.806 0.202 4.07 143.8 12.63
11/20/2022 8:45:00 AM 2.65 36.77 0.202 4 105.7 12.7
11/20/2022 9:00:00 AM 2.63 36.734 0.202 4 98.91 12.76
11/20/2022 9:15:00 AM 2.62 36.716 0.202 4.04 128.6 12.83
11/20/2022 9:30:00 AM 2.63 36.734 0.202 4.04 136.8 12.83
11/20/2022 9:45:00 AM 2.63 36.734 0.202 4.02 150.1 12.91
11/20/2022 10:00:00 AM 2.63 36.734 0.203 4.05 181.7 12.98
11/20/2022 10:15:00 AM 2.6 36.68 0.203 4.14 174.9 13.01
11/20/2022 10:30:00 AM 2.65 36.77 0.203 4.04 261.9 13.09
11/20/2022 10:45:00 AM 2.66 36.788 0.203 4.06 234.4 13.15
11/20/2022 11:00:00 AM 2.66 36.788 0.203 4.07 117.1 13.19
11/20/2022 11:15:00 AM 2.73 36.914 0.203 4.07 294.5 13.27
11/20/2022 11:30:00 AM 2.8 37.04 0.203 4.04 197.6 13.33
11/20/2022 11:45:00 AM 2.88 37.184 0.203 3.98 200.3 13.38
11/20/2022 12:00:00 PM 2.83 37.094 0.203 4.03 232.2 13.41
11/20/2022 12:15:00 PM 2.91 37.238 0.203 4.05 192.8 13.47
11/20/2022 12:30:00 PM 2.95 37.31 0.203 4.06 198.8 13.53
11/20/2022 12:45:00 PM 3.01 37.418 0.203 4.09 211 13.59
11/20/2022 1:00:00 PM 2.99 37.382 0.203 4.07 224.1 13.62
11/20/2022 1:15:00 PM 3.03 37.454 0.203 4.1 208.9 13.62
11/20/2022 1:30:00 PM 3.1 37.58 0.203 4.08 255.2 13.69
11/20/2022 1:45:00 PM 3.14 37.652 0.203 4.1 275.9 13.73
11/20/2022 2:00:00 PM 3.16 37.688 0.203 4.12 219.7 13.77
11/20/2022 2:15:00 PM 3.16 37.688 0.203 4.13 205.2 13.8
11/20/2022 2:30:00 PM 3.14 37.652 0.204 4.14 227.3 13.83
11/20/2022 2:45:00 PM 3.13 37.634 0.204 4.15 208.4 13.84
11/20/2022 3:00:00 PM 3.1 37.58 0.204 4.17 210.5 13.84
11/20/2022 3:15:00 PM 3.07 37.526 0.204 4.17 131.8 13.84
11/20/2022 3:30:00 PM 3.05 37.49 0.204 4.22 87.61 13.87
11/20/2022 3:45:00 PM 3 37.4 0.204 4.21 88.23 13.87
11/20/2022 4:00:00 PM 2.95 37.31 0.204 4.22 114.8 13.87
11/20/2022 4:15:00 PM 2.9 37.22 0.204 4.24 548.5 13.87
11/20/2022 4:30:00 PM 2.84 37.112 0.204 4.23 503.9 13.87
11/20/2022 4:45:00 PM 2.79 37.022 0.205 4.23 199.2 13.84
11/20/2022 5:00:00 PM 2.74 36.932 0.205 4.23 213.8 13.83
11/20/2022 5:15:00 PM 2.69 36.842 0.205 4.21 125.3 13.82
11/20/2022 5:30:00 PM 2.64 36.752 0.205 4.17 113.5 13.77
11/20/2022 5:45:00 PM 2.6 36.68 0.204 4.19 112.3 13.78
11/20/2022 6:00:00 PM 2.55 36.59 0.207 4.16 120.4 13.72
11/20/2022 6:15:00 PM 2.52 36.536 0.202 4.16 126.1 13.5
11/20/2022 6:30:00 PM 2.48 36.464 0.206 4.18 307.4 13.62
11/20/2022 6:45:00 PM 2.44 36.392 0.197 4.15 119.3 13.6
11/20/2022 7:00:00 PM 2.41 36.338 0.205 4.11 214.7 13.61
11/20/2022 7:15:00 PM 2.38 36.284 0.205 4.12 216.4 13.53
11/20/2022 7:30:00 PM 2.35 36.23 0.205 4.12 142.8 13.54
11/20/2022 7:45:00 PM 2.32 36.176 0.207 4.09 146.6 13.54
11/20/2022 8:00:00 PM 2.3 36.14 0.207 4.09 154.3 13.54
11/20/2022 8:15:00 PM 2.27 36.086 0.206 4.05 152.7 13.53
11/20/2022 8:30:00 PM 2.25 36.05 0.204 4.04 146.2 13.53
11/20/2022 8:45:00 PM 2.23 36.014 0.205 4.07 102.6 13.49
11/20/2022 9:00:00 PM 2.2 35.96 0.207 4.07 133.4 13.54
11/20/2022 9:15:00 PM 2.18 35.924 0.205 4.06 137 13.51
11/20/2022 9:30:00 PM 2.15 35.87 0.205 4.05 136.5 13.51
11/20/2022 9:45:00 PM 2.13 35.834 0.206 4.04 129.3 13.53
11/20/2022 10:00:00 PM 2.12 35.816 0.207 4.01 145.9 13.52
11/20/2022 10:15:00 PM 2.09 35.762 0.207 3.98 135.3 13.53
11/20/2022 10:30:00 PM 2.07 35.726 0.206 4 155.7 13.52
11/20/2022 10:45:00 PM 2.05 35.69 0.203 3.98 164.2 13.53
11/20/2022 11:00:00 PM 2.02 35.636 0.19 3.95 132.4 13.53
11/20/2022 11:15:00 PM 1.99 35.582 0.204 3.96 152.3 13.52
11/20/2022 11:30:00 PM 1.97 35.546 0.201 3.97 110.5 13.53
11/20/2022 11:45:00 PM 1.94 35.492 0.204 3.98 136.5 13.52
11/21/2022 12:00:00 AM 1.91 35.438 0.203 3.99 120.5 13.51
11/21/2022 12:15:00 AM 1.88 35.384 0.202 3.98 154.9 13.52
11/21/2022 12:30:00 AM 1.85 35.33 0.203 4.02 139.8 13.52
11/21/2022 12:45:00 AM 1.82 35.276 0.203 4.02 144.4 13.53
11/21/2022 1:00:00 AM 1.79 35.222 0.203 4.02 165.4 13.51
11/21/2022 1:15:00 AM 1.76 35.168 0.202 4 193.4 13.51
11/21/2022 1:30:00 AM 1.73 35.114 0.202 3.94 205.3 13.51
11/21/2022 1:45:00 AM 1.7 35.06 0.202 3.96 145 13.52
11/21/2022 2:00:00 AM 1.68 35.024 0.201 3.96 125.1 13.48
11/21/2022 2:15:00 AM 1.65 34.97 0.201 3.96 99.18 13.47
11/21/2022 2:30:00 AM 1.63 34.934 0.201 3.95 124.6 13.48
11/21/2022 2:45:00 AM 1.6 34.88 0.201 3.95 108.5 13.5
11/21/2022 3:00:00 AM 1.58 34.844 0.201 4.01 116.8 13.49
11/21/2022 3:15:00 AM 1.56 34.808 0.201 3.96 121.2 13.48
11/21/2022 3:30:00 AM 1.55 34.79 0.2 3.94 124.7 13.48
11/21/2022 3:45:00 AM 1.53 34.754 0.201 3.95 107.4 13.47
11/21/2022 4:00:00 AM 1.51 34.718 0.2 3.93 116.2 13.46
11/21/2022 4:15:00 AM 1.49 34.682 0.2 3.89 163.1 13.46
11/21/2022 4:30:00 AM 1.47 34.646 0.2 3.93 171.9 13.42
11/21/2022 4:45:00 AM 1.45 34.61 0.2 3.94 150.9 13.47
11/21/2022 5:00:00 AM 1.43 34.574 0.2 3.92 161.5 13.47
11/21/2022 5:15:00 AM 1.4 34.52 0.2 3.9 175.6 13.47
11/21/2022 5:30:00 AM 1.37 34.466 0.2 3.83 211.8 13.46
11/21/2022 5:45:00 AM 1.34 34.412 0.2 3.85 199.8 13.46
11/21/2022 6:00:00 AM 1.31 34.358 0.2 3.83 181.5 13.45
11/21/2022 6:15:00 AM 1.28 34.304 0.2 3.88 171.6 13.45
11/21/2022 6:30:00 AM 1.26 34.268 0.2 3.82 138.6 13.43
11/21/2022 6:45:00 AM 1.23 34.214 0.2 3.8 145.3 13.44
11/21/2022 7:00:00 AM 1.2 34.16 0.202 3.85 153.1 13.35
11/21/2022 7:15:00 AM 1.18 34.124 0.202 3.8 218.7 13.45
11/21/2022 7:30:00 AM 1.16 34.088 0.201 3.79 386.8 13.48
11/21/2022 7:45:00 AM 1.14 34.052 0.201 3.84 179.2 13.48
11/21/2022 8:00:00 AM 1.12 34.016 0.201 3.84 179.5 13.54
11/21/2022 8:15:00 AM 1.12 34.016 0.202 3.84 190.2 13.54
11/21/2022 8:30:00 AM 1.11 33.998 0.203 3.8 135.5 13.57
11/21/2022 8:45:00 AM 1.11 33.998 0.203 3.78 156 13.59
11/21/2022 9:00:00 AM 1.13 34.034 0.203 3.77 165.5 13.62
11/21/2022 9:15:00 AM 1.16 34.088 0.202 3.78 160.3 13.68
11/21/2022 9:30:00 AM 1.2 34.16 0.202 3.78 155.8 13.68
11/21/2022 9:45:00 AM 1.25 34.25 0.201 3.72 170.8 13.64
11/21/2022 10:00:00 AM 1.3 34.34 0.201 3.7 157.5 13.63
11/21/2022 10:15:00 AM 1.37 34.466 0.201 3.73 168.1 13.67
11/21/2022 10:30:00 AM 1.44 34.592 0.201 3.76 167.9 13.68
11/21/2022 10:45:00 AM 1.51 34.718 0.201 3.75 180.1 13.76
11/21/2022 11:00:00 AM 1.58 34.844 0.201 3.77 173.1 13.8
11/21/2022 11:15:00 AM 1.64 34.952 0.201 3.76 166.9 13.85
11/21/2022 11:30:00 AM 1.73 35.114 0.201 3.79 164.4 13.89
11/21/2022 11:45:00 AM 1.81 35.258 0.201 3.82 167.9 13.97
11/21/2022 12:00:00 PM 1.87 35.366 0.201 3.82 175.7 13.99
11/21/2022 12:15:00 PM 1.93 35.474 0.201 3.83 164.3 14.04
11/21/2022 12:30:00 PM 2 35.6 0.2 3.86 152 14.08
11/21/2022 12:45:00 PM 2.06 35.708 0.201 3.87 163.6 14.12
11/21/2022 1:00:00 PM 2.12 35.816 0.2 3.88 168.1 14.15
11/21/2022 1:15:00 PM 2.18 35.924 0.199 3.88 184.6 14.17
11/21/2022 1:30:00 PM 2.24 36.032 0.199 3.92 171.8 14.22
11/21/2022 1:45:00 PM 2.3 36.14 0.199 3.96 176.5 14.26
11/21/2022 2:00:00 PM 2.36 36.248 0.199 4.04 181 14.27
11/21/2022 2:15:00 PM 2.41 36.338 0.199 4.07 179.9 14.28
11/21/2022 2:30:00 PM 2.46 36.428 0.199 4.06 188.6 14.29
11/21/2022 2:45:00 PM 2.48 36.464 0.199 4.06 189.7 14.31
11/21/2022 3:00:00 PM 2.49 36.482 0.199 4.07 191.7 14.32
11/21/2022 3:15:00 PM 2.5 36.5 0.2 4.09 181.5 14.33
11/21/2022 3:30:00 PM 2.49 36.482 0.2 4.03 187.2 14.31
11/21/2022 3:45:00 PM 2.47 36.446 0.2 4.04 193.1 14.29
11/21/2022 4:00:00 PM 2.44 36.392 0.2 4.06 182.5 14.28
11/21/2022 4:15:00 PM 2.41 36.338 0.2 4.04 186 14.27
11/21/2022 4:30:00 PM 2.37 36.266 0.2 4.13 206.2 14.25
11/21/2022 4:45:00 PM 2.32 36.176 0.201 4.15 192.5 14.22
11/21/2022 5:00:00 PM 2.28 36.104 0.198 4.13 198.3 14.17
11/21/2022 5:15:00 PM 2.23 36.014 0.2 4.03 188.4 14.16
11/21/2022 5:30:00 PM 2.18 35.924 0.197 4.01 199.9 14.16
11/21/2022 5:45:00 PM 2.14 35.852 0.201 4.04 175.2 14.13
11/21/2022 6:00:00 PM 2.11 35.798 0.201 3.99 188.3 14.18
11/21/2022 6:15:00 PM 2.08 35.744 0.201 3.98 200.6 14.15
11/21/2022 6:30:00 PM 2.05 35.69 0.201 3.95 187.6 14.12
11/21/2022 6:45:00 PM 2.03 35.654 0.201 3.95 185.4 14.11
11/21/2022 7:00:00 PM 2.01 35.618 0.201 3.93 166.7 14.07
11/21/2022 7:15:00 PM 1.99 35.582 0.202 3.92 186.6 14.05
11/21/2022 7:30:00 PM 1.97 35.546 0.202 3.91 164.5 14.04
11/21/2022 7:45:00 PM 1.96 35.528 0.202 3.88 203 13.99
11/21/2022 8:00:00 PM 1.95 35.51 0.202 3.89 203 13.97
11/21/2022 8:15:00 PM 1.94 35.492 0.202 3.88 199.1 13.96
11/21/2022 8:30:00 PM 1.93 35.474 0.202 3.87 201.7 13.93
11/21/2022 8:45:00 PM 1.91 35.438 0.203 3.86 214.7 13.93
11/21/2022 9:00:00 PM 1.9 35.42 0.203 3.87 252 13.9
11/21/2022 9:15:00 PM 1.88 35.384 0.203 3.85 171.8 13.88
11/21/2022 9:30:00 PM 1.87 35.366 0.203 3.88 182.5 13.89
11/21/2022 9:45:00 PM 1.85 35.33 0.203 3.86 159.6 13.87
11/21/2022 10:00:00 PM 1.83 35.294 0.203 3.84 167.2 13.89
11/21/2022 10:15:00 PM 1.81 35.258 0.203 3.86 231.5 13.87
11/21/2022 10:30:00 PM 1.78 35.204 0.204 3.85 205.1 13.88
11/21/2022 10:45:00 PM 1.75 35.15 0.204 3.84 167.1 13.88
11/21/2022 11:00:00 PM 1.73 35.114 0.204 3.93 182.2 13.87
11/21/2022 11:15:00 PM 1.69 35.042 0.204 3.97 181.1 13.87
11/21/2022 11:30:00 PM 1.67 35.006 0.204 3.95 189.8 13.85
11/21/2022 11:45:00 PM 1.64 34.952 0.204 3.94 184.5 13.85
11/22/2022 12:00:00 AM 1.62 34.916 0.204 3.97 189.9 13.83
11/22/2022 12:15:00 AM 1.6 34.88 0.204 3.97 194.3 13.85
11/22/2022 12:30:00 AM 1.57 34.826 0.204 3.97 142.3 13.83
11/22/2022 12:45:00 AM 1.55 34.79 0.204 3.93 183.2 13.83
11/22/2022 1:00:00 AM 1.53 34.754 0.204 3.94 148.9 13.82
11/22/2022 1:15:00 AM 1.51 34.718 0.204 3.94 137.7 13.81
11/22/2022 1:30:00 AM 1.48 34.664 0.204 3.92 156.6 13.79
11/22/2022 1:45:00 AM 1.46 34.628 0.204 3.9 158.5 13.78
11/22/2022 2:00:00 AM 1.44 34.592 0.204 3.93 160.3 13.76
11/22/2022 2:15:00 AM 1.41 34.538 0.204 3.95 158.7 13.76
11/22/2022 2:30:00 AM 1.39 34.502 0.204 3.92 168.9 13.76
11/22/2022 2:45:00 AM 1.37 34.466 0.204 3.88 306.1 13.75
11/22/2022 3:00:00 AM 1.34 34.412 0.204 3.88 303.3 13.77
11/22/2022 3:15:00 AM 1.32 34.376 0.204 3.88 237.7 13.74
11/22/2022 3:30:00 AM 1.29 34.322 0.204 3.86 200 13.74
11/22/2022 3:45:00 AM 1.27 34.286 0.204 3.92 185.6 13.72
11/22/2022 4:00:00 AM 1.25 34.25 0.204 3.87 167.7 13.73
11/22/2022 4:15:00 AM 1.23 34.214 0.204 3.87 166.8 13.68
11/22/2022 4:30:00 AM 1.2 34.16 0.204 3.86 174.2 13.68
11/22/2022 4:45:00 AM 1.17 34.106 0.204 3.86 169.8 13.69
11/22/2022 5:00:00 AM 1.16 34.088 0.204 3.85 181.2 13.7
11/22/2022 5:15:00 AM 1.13 34.034 0.205 3.81 185.1 13.68
11/22/2022 5:30:00 AM 1.12 34.016 0.205 3.83 174.5 13.68
11/22/2022 5:45:00 AM 1.09 33.962 0.205 3.85 178.3 13.67
11/22/2022 6:00:00 AM 1.06 33.908 0.205 3.84 211.3 13.68
11/22/2022 6:15:00 AM 1.05 33.89 0.205 3.82 180 13.66
11/22/2022 6:30:00 AM 1.03 33.854 0.205 3.84 191.1 13.67
11/22/2022 6:45:00 AM 1.01 33.818 0.205 3.85 201 13.67
11/22/2022 7:00:00 AM 0.99 33.782 0.205 3.85 188.5 13.66
11/22/2022 7:15:00 AM 0.98 33.764 0.205 3.83 170.5 13.67
11/22/2022 7:30:00 AM 0.96 33.728 0.205 3.82 167.6 13.69
11/22/2022 7:45:00 AM 0.95 33.71 0.205 3.82 170.1 13.7
11/22/2022 8:00:00 AM 0.95 33.71 0.206 3.82 151.5 13.72
11/22/2022 8:15:00 AM 0.95 33.71 0.206 3.86 183.1 13.73
11/22/2022 8:30:00 AM 0.95 33.71 0.206 3.83 141.6 13.74
11/22/2022 8:45:00 AM 0.97 33.746 0.206 3.81 139.4 13.79
11/22/2022 9:00:00 AM 1 33.8 0.206 3.8 188.5 13.85
11/22/2022 9:15:00 AM 1.05 33.89 0.206 3.81 138.1 13.86
11/22/2022 9:30:00 AM 1.1 33.98 0.206 3.8 156.6 13.92
11/22/2022 9:45:00 AM 1.17 34.106 0.206 3.81 141.9 14
11/22/2022 10:00:00 AM 1.25 34.25 0.206 3.8 163.6 14.04
11/22/2022 10:15:00 AM 1.32 34.376 0.206 3.8 131.7 14.09
11/22/2022 10:30:00 AM 1.4 34.52 0.206 3.76 151.8 14.12
11/22/2022 10:45:00 AM 1.49 34.682 0.206 3.8 155.4 14.17
11/22/2022 11:00:00 AM 1.58 34.844 0.206 3.78 136.4 14.21
11/22/2022 11:15:00 AM 1.66 34.988 0.206 3.78 154.7 14.25
11/22/2022 11:30:00 AM 1.76 35.168 0.206 3.77 192.1 14.29
11/22/2022 11:45:00 AM 1.86 35.348 0.206 3.81 151.1 14.34
11/22/2022 12:00:00 PM 1.92 35.456 0.206 3.81 162 14.38
11/22/2022 12:15:00 PM 2 35.6 0.206 3.87 150.4 14.44
11/22/2022 12:30:00 PM 2.1 35.78 0.206 3.86 132.7 14.47
11/22/2022 12:45:00 PM 2.16 35.888 0.206 3.87 224.6 14.51
11/22/2022 1:00:00 PM 2.25 36.05 0.206 3.85 154.8 14.53
11/22/2022 1:15:00 PM 2.32 36.176 0.206 3.93 151.2 14.55
11/22/2022 1:30:00 PM 2.4 36.32 0.206 3.91 140.2 14.61
11/22/2022 1:45:00 PM 2.48 36.464 0.207 3.95 139 14.6
11/22/2022 2:00:00 PM 2.56 36.608 0.207 3.93 147.2 14.63
11/22/2022 2:15:00 PM 2.62 36.716 0.207 3.98 140.9 14.64
11/22/2022 2:30:00 PM 2.68 36.824 0.207 3.99 113.6 14.66
11/22/2022 2:45:00 PM 2.73 36.914 0.207 3.99 123.6 14.65
11/22/2022 3:00:00 PM 2.76 36.968 0.207 4.04 134.7 14.67
11/22/2022 3:15:00 PM 2.78 37.004 0.207 4.09 134.6 14.67
11/22/2022 3:30:00 PM 2.79 37.022 0.208 4.12 122.8 14.65
11/22/2022 3:45:00 PM 2.78 37.004 0.208 4.07 130.4 14.6
11/22/2022 4:00:00 PM 2.77 36.986 0.208 4.12 131 14.58
11/22/2022 4:15:00 PM 2.74 36.932 0.208 4.11 128.4 14.56
11/22/2022 4:30:00 PM 2.71 36.878 0.209 4.16 133.7 14.52
11/22/2022 4:45:00 PM 2.67 36.806 0.209 4.09 135.2 14.47
11/22/2022 5:00:00 PM 2.62 36.716 0.209 4.11 129.9 14.44
11/22/2022 5:15:00 PM 2.57 36.626 0.209 4.08 127.8 14.4
11/22/2022 5:30:00 PM 2.53 36.554 0.21 4.08 127.5 14.36
11/22/2022 5:45:00 PM 2.48 36.464 0.21 4.07 138.4 14.32
11/22/2022 6:00:00 PM 2.44 36.392 0.21 4.08 136 14.28
11/22/2022 6:15:00 PM 2.4 36.32 0.21 4.07 160.8 14.24
11/22/2022 6:30:00 PM 2.37 36.266 0.211 4.06 172.5 14.21
11/22/2022 6:45:00 PM 2.34 36.212 0.211 4.01 169 14.15
11/22/2022 7:00:00 PM 2.32 36.176 0.211 4.03 154.6 14.13
11/22/2022 7:15:00 PM 2.3 36.14 0.211 3.99 128.7 14.11
11/22/2022 7:30:00 PM 2.28 36.104 0.211 4.02 130.9 14.05
11/22/2022 7:45:00 PM 2.26 36.068 0.211 3.97 133.9 14.01
11/22/2022 8:00:00 PM 2.25 36.05 0.211 3.97 128.7 13.98
11/22/2022 8:15:00 PM 2.23 36.014 0.211 3.96 150.1 13.96
11/22/2022 8:30:00 PM 2.22 35.996 0.212 3.97 144.3 13.92
11/22/2022 8:45:00 PM 2.21 35.978 0.212 3.93 141.7 13.9
11/22/2022 9:00:00 PM 2.19 35.942 0.212 3.99 151 13.89
11/22/2022 9:15:00 PM 2.18 35.924 0.197 3.96 194.6 13.8
11/22/2022 9:30:00 PM 2.17 35.906 0.2 3.95 209.5 13.84
11/22/2022 9:45:00 PM 2.15 35.87 0.2 3.99 187.6 13.81
11/22/2022 10:00:00 PM 2.14 35.852 0.212 3.97 149.3 13.82
11/22/2022 10:15:00 PM 2.12 35.816 0.212 3.98 197 13.81
11/22/2022 10:30:00 PM 2.1 35.78 0.217 3.96 198 13.79
11/22/2022 10:45:00 PM 2.09 35.762 0.213 3.99 202.4 13.79
11/22/2022 11:00:00 PM 2.06 35.708 0.213 3.96 114.4 13.79
11/22/2022 11:15:00 PM 2.04 35.672 0.213 3.98 134.2 13.78
11/22/2022 11:30:00 PM 2.02 35.636 0.213 3.97 272.4 13.78
11/22/2022 11:45:00 PM 1.99 35.582 0.213 3.98 103.4 13.77
11/23/2022 12:00:00 AM 1.97 35.546 0.213 3.98 91.09 13.76
11/23/2022 12:15:00 AM 1.95 35.51 0.213 3.96 102.8 13.74
11/23/2022 12:30:00 AM 1.92 35.456 0.214 3.92 123.2 13.72
11/23/2022 12:45:00 AM 1.9 35.42 0.214 3.94 139.3 13.72
11/23/2022 1:00:00 AM 1.87 35.366 0.214 3.87 135.3 13.69
11/23/2022 1:15:00 AM 1.85 35.33 0.214 3.91 102 13.67
11/23/2022 1:30:00 AM 1.83 35.294 0.214 3.92 93.89 13.68
11/23/2022 1:45:00 AM 1.81 35.258 0.214 3.92 94.63 13.69
11/23/2022 2:00:00 AM 1.79 35.222 0.214 3.92 130.7 13.68
11/23/2022 2:15:00 AM 1.77 35.186 0.215 3.91 108 13.64
11/23/2022 2:30:00 AM 1.75 35.15 0.215 3.95 71.79 13.63
11/23/2022 2:45:00 AM 1.72 35.096 0.215 3.93 116.1 13.63
11/23/2022 3:00:00 AM 1.7 35.06 0.215 3.93 62.01 13.61
11/23/2022 3:15:00 AM 1.68 35.024 0.215 3.94 119.7 13.61
11/23/2022 3:30:00 AM 1.65 34.97 0.215 3.9 121.4 13.6
11/23/2022 3:45:00 AM 1.62 34.916 0.215 3.93 113.6 13.58
11/23/2022 4:00:00 AM 1.6 34.88 0.215 3.89 113.5 13.58
11/23/2022 4:15:00 AM 1.58 34.844 0.215 3.87 90.52 13.56
11/23/2022 4:30:00 AM 1.56 34.808 0.215 3.9 118.4 13.57
11/23/2022 4:45:00 AM 1.53 34.754 0.215 3.92 120.6 13.55
11/23/2022 5:00:00 AM 1.51 34.718 0.215 3.88 157.1 13.53
11/23/2022 5:15:00 AM 1.49 34.682 0.215 3.83 161 13.52
11/23/2022 5:30:00 AM 1.46 34.628 0.215 3.85 175.3 13.51
11/23/2022 5:45:00 AM 1.43 34.574 0.215 3.83 160.6 13.52
11/23/2022 6:00:00 AM 1.41 34.538 0.215 3.84 148.7 13.5
11/23/2022 6:15:00 AM 1.4 34.52 0.215 3.85 175.5 13.49
11/23/2022 6:30:00 AM 1.37 34.466 0.216 3.82 151.5 13.48
11/23/2022 6:45:00 AM 1.36 34.448 0.216 3.84 129.4 13.47
11/23/2022 7:00:00 AM 1.33 34.394 0.216 3.8 156.8 13.48
11/23/2022 7:15:00 AM 1.32 34.376 0.216 3.82 169.1 13.46
11/23/2022 7:30:00 AM 1.3 34.34 0.216 3.82 162.2 13.46
11/23/2022 7:45:00 AM 1.29 34.322 0.216 3.8 157.4 13.49
11/23/2022 8:00:00 AM 1.28 34.304 0.217 3.77 152.8 13.52
11/23/2022 8:15:00 AM 1.28 34.304 0.217 3.8 159.4 13.54
11/23/2022 8:30:00 AM 1.28 34.304 0.217 3.76 164.5 13.55
11/23/2022 8:45:00 AM 1.3 34.34 0.217 3.79 164.3 13.61
11/23/2022 9:00:00 AM 1.34 34.412 0.217 3.74 162.5 13.64
11/23/2022 9:15:00 AM 1.38 34.484 0.217 3.76 161.1 13.72
11/23/2022 9:30:00 AM 1.45 34.61 0.217 3.8 153.5 13.77
11/23/2022 9:45:00 AM 1.52 34.736 0.217 3.81 152.8 13.81
11/23/2022 10:00:00 AM 1.59 34.862 0.217 3.81 149.2 13.85
11/23/2022 10:15:00 AM 1.68 35.024 0.217 3.82 156.7 13.91
11/23/2022 10:30:00 AM 1.77 35.186 0.217 3.83 149.6 13.95
11/23/2022 10:45:00 AM 1.86 35.348 0.217 3.74 156.9 14
11/23/2022 11:00:00 AM 1.95 35.51 0.217 3.74 151.7 14.03
11/23/2022 11:15:00 AM 2.05 35.69 0.217 3.74 144.7 14.08
11/23/2022 11:30:00 AM 2.14 35.852 0.217 3.81 147.8 14.12
11/23/2022 11:45:00 AM 2.25 36.05 0.217 3.83 144.9 14.2
11/23/2022 12:00:00 PM 2.35 36.23 0.217 3.83 146.1 14.22
11/23/2022 12:15:00 PM 2.44 36.392 0.217 3.87 128.8 14.25
11/23/2022 12:30:00 PM 2.52 36.536 0.217 3.92 137.5 14.32
11/23/2022 12:45:00 PM 2.63 36.734 0.217 3.88 141.5 14.37
11/23/2022 1:00:00 PM 2.69 36.842 0.217 3.89 142.2 14.39
11/23/2022 1:15:00 PM 2.78 37.004 0.217 3.93 137.5 14.43
11/23/2022 1:30:00 PM 2.84 37.112 0.217 3.94 146.6 14.45
11/23/2022 1:45:00 PM 2.92 37.256 0.217 3.98 148.6 14.49
11/23/2022 2:00:00 PM 3.01 37.418 0.217 4 142.6 14.52
11/23/2022 2:15:00 PM 3.09 37.562 0.216 3.98 136.7 14.53
11/23/2022 2:30:00 PM 3.16 37.688 0.216 4.02 138 14.53
11/23/2022 2:45:00 PM 3.22 37.796 0.217 4.02 146.3 14.54
11/23/2022 3:00:00 PM 3.27 37.886 0.217 4.03 139.3 14.53
11/23/2022 3:15:00 PM 3.3 37.94 0.217 4.09 159.8 14.53
11/23/2022 3:30:00 PM 3.32 37.976 0.217 4.11 153.4 14.52
11/23/2022 3:45:00 PM 3.33 37.994 0.217 4.11 157.3 14.48
11/23/2022 4:00:00 PM 3.32 37.976 0.217 4.12 167.7 14.45
11/23/2022 4:15:00 PM 3.31 37.958 0.217 4.13 169.5 14.43
11/23/2022 4:30:00 PM 3.28 37.904 0.217 4.16 168.7 14.39
11/23/2022 4:45:00 PM 3.24 37.832 0.217 4.16 157 14.34
11/23/2022 5:00:00 PM 3.19 37.742 0.217 4.16 163.1 14.28
11/23/2022 5:15:00 PM 3.15 37.67 0.218 4.14 170.6 14.22
11/23/2022 5:30:00 PM 3.1 37.58 0.218 4.14 170.4 14.18
11/23/2022 5:45:00 PM 3.05 37.49 0.218 4.17 164.3 14.14
11/23/2022 6:00:00 PM 3 37.4 0.218 4.12 165.2 14.09
11/23/2022 6:15:00 PM 2.97 37.346 0.218 4.12 175.2 14.06
11/23/2022 6:30:00 PM 2.93 37.274 0.218 4.12 164.4 14
11/23/2022 6:45:00 PM 2.9 37.22 0.218 4.09 169.6 13.94
11/23/2022 7:00:00 PM 2.86 37.148 0.218 4.09 163.3 13.91
11/23/2022 7:15:00 PM 2.84 37.112 0.218 4.06 169.6 13.87
11/23/2022 7:30:00 PM 2.82 37.076 0.219 4.01 164.7 13.83
11/23/2022 7:45:00 PM 2.8 37.04 0.219 4.03 174 13.76
11/23/2022 8:00:00 PM 2.78 37.004 0.218 4.03 173.9 13.75
11/23/2022 8:15:00 PM 2.77 36.986 0.218 3.98 172.6 13.72
11/23/2022 8:30:00 PM 2.76 36.968 0.219 3.99 176 13.7
11/23/2022 8:45:00 PM 2.75 36.95 0.219 3.97 184.8 13.66
11/23/2022 9:00:00 PM 2.74 36.932 0.219 3.97 175.8 13.65
11/23/2022 9:15:00 PM 2.73 36.914 0.219 3.99 182.5 13.63
11/23/2022 9:30:00 PM 2.72 36.896 0.219 3.98 167.6 13.61
11/23/2022 9:45:00 PM 2.7 36.86 0.219 3.94 162.2 13.58
11/23/2022 10:00:00 PM 2.69 36.842 0.219 3.94 175.7 13.58
11/23/2022 10:15:00 PM 2.68 36.824 0.219 3.93 179.9 13.58
11/23/2022 10:30:00 PM 2.66 36.788 0.219 3.98 173.4 13.55
11/23/2022 10:45:00 PM 2.64 36.752 0.219 4.01 164.9 13.55
11/23/2022 11:00:00 PM 2.63 36.734 0.22 3.99 157.1 13.53
11/23/2022 11:15:00 PM 2.61 36.698 0.22 3.95 155 13.54
11/23/2022 11:30:00 PM 2.58 36.644 0.22 3.92 165.1 13.55
11/23/2022 11:45:00 PM 2.56 36.608 0.22 3.96 179.2 13.54
11/24/2022 12:00:00 AM 2.54 36.572 0.22 3.91 169.8 13.52
11/24/2022 12:15:00 AM 2.51 36.518 0.22 3.93 176.9 13.52
11/24/2022 12:30:00 AM 2.48 36.464 0.22 3.89 171.7 13.48
11/24/2022 12:45:00 AM 2.46 36.428 0.22 3.9 161.4 13.5
11/24/2022 1:00:00 AM 2.44 36.392 0.22 3.88 177.3 13.49
11/24/2022 1:15:00 AM 2.42 36.356 0.22 3.86 165.2 13.48
11/24/2022 1:30:00 AM 2.4 36.32 0.221 3.84 170.8 13.48
11/24/2022 1:45:00 AM 2.37 36.266 0.221 3.89 175 13.46
11/24/2022 2:00:00 AM 2.35 36.23 0.221 3.88 159.1 13.43
11/24/2022 2:15:00 AM 2.33 36.194 0.221 3.89 172.5 13.44
11/24/2022 2:30:00 AM 2.31 36.158 0.221 3.93 165.1 13.44
11/24/2022 2:45:00 AM 2.28 36.104 0.221 3.9 172.1 13.41
11/24/2022 3:00:00 AM 2.26 36.068 0.221 3.9 167.3 13.4
11/24/2022 3:15:00 AM 2.24 36.032 0.221 3.89 165.7 13.4
11/24/2022 3:30:00 AM 2.22 35.996 0.221 3.86 174.3 13.38
11/24/2022 3:45:00 AM 2.19 35.942 0.221 3.84 166.9 13.36
11/24/2022 4:00:00 AM 2.17 35.906 0.221 3.83 176.9 13.36
11/24/2022 4:15:00 AM 2.15 35.87 0.221 3.87 177.7 13.34
11/24/2022 4:30:00 AM 2.13 35.834 0.221 3.81 164.2 13.33
11/24/2022 4:45:00 AM 2.09 35.762 0.221 3.8 172.7 13.3
11/24/2022 5:00:00 AM 2.07 35.726 0.221 3.77 176.5 13.31
11/24/2022 5:15:00 AM 2.04 35.672 0.221 3.82 242.2 13.29
11/24/2022 5:30:00 AM 2.02 35.636 0.221 3.8 155.7 13.28
11/24/2022 5:45:00 AM 1.99 35.582 0.221 3.79 170.3 13.28
11/24/2022 6:00:00 AM 1.97 35.546 0.221 3.78 160.8 13.28
11/24/2022 6:15:00 AM 1.94 35.492 0.221 3.8 183.8 13.26
11/24/2022 6:30:00 AM 1.91 35.438 0.221 3.76 175.1 13.24
11/24/2022 6:45:00 AM 1.88 35.384 0.221 3.77 182.2 13.26
11/24/2022 7:00:00 AM 1.86 35.348 0.221 3.83 263.7 13.24
11/24/2022 7:15:00 AM 1.84 35.312 0.221 3.75 180.7 13.25
11/24/2022 7:30:00 AM 1.82 35.276 0.221 3.76 173.9 13.26
11/24/2022 7:45:00 AM 1.8 35.24 0.221 3.77 160.6 13.29
11/24/2022 8:00:00 AM 1.79 35.222 0.221 3.74 166.6 13.31
11/24/2022 8:15:00 AM 1.79 35.222 0.221 3.82 162.9 13.33
11/24/2022 8:30:00 AM 1.79 35.222 0.221 3.75 167.9 13.37
11/24/2022 8:45:00 AM 1.82 35.276 0.221 3.75 160.2 13.42
11/24/2022 9:00:00 AM 1.85 35.33 0.22 3.77 163.5 13.47
11/24/2022 9:15:00 AM 1.9 35.42 0.22 3.74 162.5 13.53
11/24/2022 9:30:00 AM 1.96 35.528 0.22 3.74 164.2 13.6
11/24/2022 9:45:00 AM 2.04 35.672 0.22 3.69 158.8 13.67
11/24/2022 10:00:00 AM 2.11 35.798 0.22 3.72 162 13.72
11/24/2022 10:15:00 AM 2.2 35.96 0.22 3.72 163.8 13.77
11/24/2022 10:30:00 AM 2.29 36.122 0.22 3.68 155.4 13.83
11/24/2022 10:45:00 AM 2.37 36.266 0.22 3.7 153.4 13.88
11/24/2022 11:00:00 AM 2.48 36.464 0.219 3.69 163.8 13.95
11/24/2022 11:15:00 AM 2.57 36.626 0.219 3.73 154.2 14
11/24/2022 11:30:00 AM 2.68 36.824 0.219 3.7 161.2 14.07
11/24/2022 11:45:00 AM 2.75 36.95 0.219 3.76 155.7 14.13
11/24/2022 12:00:00 PM 2.84 37.112 0.219 3.84 164.7 14.17
11/24/2022 12:15:00 PM 2.93 37.274 0.219 3.85 152 14.23
11/24/2022 12:30:00 PM 3.02 37.436 0.219 3.86 156.7 14.28
11/24/2022 12:45:00 PM 3.08 37.544 0.219 3.89 169.3 14.35
11/24/2022 1:00:00 PM 3.17 37.706 0.219 3.85 161.4 14.37
11/24/2022 1:15:00 PM 3.25 37.85 0.219 3.9 153.7 14.44
11/24/2022 1:30:00 PM 3.34 38.012 0.219 3.9 162.5 14.48
11/24/2022 1:45:00 PM 3.36 38.048 0.219 3.96 167.2 14.52
11/24/2022 2:00:00 PM 3.48 38.264 0.218 3.97 161.7 14.51
11/24/2022 2:15:00 PM 3.53 38.354 0.218 3.96 162.4 14.56
11/24/2022 2:30:00 PM 3.56 38.408 0.218 4.01 145 14.55
11/24/2022 2:45:00 PM 3.64 38.552 0.218 4.02 148.1 14.6
11/24/2022 3:00:00 PM 3.69 38.642 0.218 4.02 163.1 14.59
11/24/2022 3:15:00 PM 3.73 38.714 0.218 4.02 156.9 14.58
11/24/2022 3:30:00 PM 3.75 38.75 0.218 4.04 147.2 14.57
11/24/2022 3:45:00 PM 3.76 38.768 0.218 4.11 157.6 14.55
11/24/2022 4:00:00 PM 3.75 38.75 0.219 4.1 153.7 14.48
11/24/2022 4:15:00 PM 3.74 38.732 0.219 4.13 163.9 14.41
11/24/2022 4:30:00 PM 3.71 38.678 0.219 4.17 154.7 14.38
11/24/2022 4:45:00 PM 3.67 38.606 0.219 4.14 162.8 14.33
11/24/2022 5:00:00 PM 3.64 38.552 0.219 4.17 155.6 14.29
11/24/2022 5:15:00 PM 3.6 38.48 0.219 4.15 168.7 14.17
11/24/2022 5:30:00 PM 3.56 38.408 0.219 4.14 167.6 14.16
11/24/2022 5:45:00 PM 3.51 38.318 0.219 4.14 157 14.08
11/24/2022 6:00:00 PM 3.47 38.246 0.219 4.14 159.4 14.02
11/24/2022 6:15:00 PM 3.43 38.174 0.22 4.16 167.4 13.95
11/24/2022 6:30:00 PM 3.39 38.102 0.22 4.11 155.7 13.93
11/24/2022 6:45:00 PM 3.36 38.048 0.22 4.08 166.9 13.88
11/24/2022 7:00:00 PM 3.33 37.994 0.22 4.11 107.6 13.81
11/24/2022 7:15:00 PM 3.31 37.958 0.22 4.1 131 13.78
11/24/2022 7:30:00 PM 3.28 37.904 0.22 4.07 131.1 13.74
11/24/2022 7:45:00 PM 3.25 37.85 0.22 4.06 123.9 13.68
11/24/2022 8:00:00 PM 3.23 37.814 0.22 4.05 135 13.67
11/24/2022 8:15:00 PM 3.21 37.778 0.22 4.02 129.4 13.62
11/24/2022 8:30:00 PM 3.2 37.76 0.22 4.01 130.1 13.56
11/24/2022 8:45:00 PM 3.18 37.724 0.22 4.02 131.3 13.54
11/24/2022 9:00:00 PM 3.17 37.706 0.22 4.01 137.4 13.51
11/24/2022 9:15:00 PM 3.15 37.67 0.22 3.99 135.1 13.5
11/24/2022 9:30:00 PM 3.14 37.652 0.22 3.98 133.3 13.47
11/24/2022 9:45:00 PM 3.12 37.616 0.22 3.96 138.6 13.46
11/24/2022 10:00:00 PM 3.11 37.598 0.22 3.94 134.8 13.42
11/24/2022 10:15:00 PM 3.09 37.562 0.22 3.95 125.6 13.39
11/24/2022 10:30:00 PM 3.07 37.526 0.22 3.95 136.9 13.4
11/24/2022 10:45:00 PM 3.06 37.508 0.22 3.97 130.9 13.33
11/24/2022 11:00:00 PM 3.05 37.49 0.22 3.95 150.1 13.36
11/24/2022 11:15:00 PM 3.05 37.49 0.22 3.94 148.8 13.37
11/24/2022 11:30:00 PM 3.03 37.454 0.22 3.94 143.2 13.37
11/24/2022 11:45:00 PM 3.02 37.436 0.22 3.94 137.5 13.33
11/25/2022 12:00:00 AM 3.01 37.418 0.22 3.95 146.1 13.34
11/25/2022 12:15:00 AM 3 37.4 0.22 3.93 149.8 13.31
11/25/2022 12:30:00 AM 2.99 37.382 0.22 3.94 136 13.33
11/25/2022 12:45:00 AM 2.98 37.364 0.22 3.91 156.2 13.29
11/25/2022 1:00:00 AM 2.97 37.346 0.22 3.91 140.8 13.3
11/25/2022 1:15:00 AM 2.96 37.328 0.22 3.9 165.2 13.29
11/25/2022 1:30:00 AM 2.95 37.31 0.221 3.9 171.9 13.27
11/25/2022 1:45:00 AM 2.94 37.292 0.221 3.9 182.4 13.25
11/25/2022 2:00:00 AM 2.94 37.292 0.221 3.91 170 13.26
11/25/2022 2:15:00 AM 2.94 37.292 0.221 3.93 207.6 13.24
11/25/2022 2:30:00 AM 2.94 37.292 0.221 3.88 206.1 13.23
11/25/2022 2:45:00 AM 2.94 37.292 0.221 3.87 208.6 13.2
11/25/2022 3:00:00 AM 2.94 37.292 0.221 3.88 203.9 13.2
11/25/2022 3:15:00 AM 2.95 37.31 0.221 3.84 200.1 13.17
11/25/2022 3:30:00 AM 2.95 37.31 0.221 3.88 203.3 13.11
11/25/2022 3:45:00 AM 2.96 37.328 0.221 3.86 200.5 13.13
11/25/2022 4:00:00 AM 2.96 37.328 0.221 3.85 142.8 13.08
11/25/2022 4:15:00 AM 2.97 37.346 0.221 3.82 153 13.09
11/25/2022 4:30:00 AM 2.97 37.346 0.221 3.84 155.8 13.05
11/25/2022 4:45:00 AM 2.97 37.346 0.221 3.85 186.6 13.03
11/25/2022 5:00:00 AM 2.98 37.364 0.221 3.85 197.6 13.02
11/25/2022 5:15:00 AM 2.99 37.382 0.221 3.82 184 13
11/25/2022 5:30:00 AM 2.99 37.382 0.221 3.79 164.6 12.99
11/25/2022 5:45:00 AM 2.99 37.382 0.221 3.8 150.6 12.96
11/25/2022 6:00:00 AM 3 37.4 0.222 3.81 167.7 12.92
11/25/2022 6:15:00 AM 3 37.4 0.222 3.82 159.1 12.9
11/25/2022 6:30:00 AM 3.01 37.418 0.222 3.78 151.9 12.87
11/25/2022 6:45:00 AM 3.01 37.418 0.222 3.78 157.6 12.88
11/25/2022 7:00:00 AM 3.02 37.436